Darstellungsparameter: Aktuell verwendete Einstellungen:
Skalierung der Graphiken ... ?
xyx+y,   Skalierungsfaktor:      Skalierung: Modus: x, Faktor: 1
Darstellungszeitraum ... ?
Vom - - bis: - -   Zeitraum: 12.12.2018 - 25.12.2018
Min/Max/Avg-Anzeige ... ?
Zeige MMA aktuell
Zeige MMA Monat
Zeige MMA alles
Zeige --A aktuell
Zeige --A Monat
Zeige --A alles
Keine MMA-Anzeige
MMA:
Minimum Maximum Average (ber die Originaldaten)
MMA-Basis: 12.12.2018 - 25.12.2018
Quicknavigation für Darstellung... ?
Tage:      1T, 2T, 3T, 5T -1T -2T -3T -5T +1T +2T +3T +5T
Wochen: 1W, 2W, 3W -1W -2W -3W +1W +2W +3W
Monate: 1M, 3M, 6M -1M -3M -6M +1M +3M +6M
Jahre:    1J, 3J, 5J, 10J -1J -3J -5J -10J +1J +3J +5J +10J
Nutze für die Darstellung ... ?
Originaldaten oder Mittelwerte auf ...
Stundenbasis Tagesbasis Wochenbasis
Monatsbasis Jahresbasis      Datenbasis: Original-Daten
Darstellen als:
Statistik (Auto) Statistik J:M      Darstellung:
Zur Graphik,    zurück zur Übersicht aller Sensoren.
 
Tabellarische Datenbersicht: ?
 
</
Sensor: Nr:Datum:Temp:Feuchte:Taupunkt:
Aussen-T/F 1 12-12-2018 00:00:00 2.2 C 96 % 1.63 C
2 12-12-2018 00:05:00 2.3 C 96 % 1.73 C
3 12-12-2018 00:10:00 2.3 C 96 % 1.73 C
4 12-12-2018 00:15:00 2.3 C 96 % 1.73 C
5 12-12-2018 00:20:00 2.3 C 96 % 1.73 C
6 12-12-2018 00:25:00 2.3 C 96 % 1.73 C
7 12-12-2018 00:30:00 2.3 C 96 % 1.73 C
8 12-12-2018 00:35:00 2.2 C 96 % 1.63 C
9 12-12-2018 00:40:00 2.1 C 96 % 1.53 C
10 12-12-2018 00:45:00 1.9 C 96 % 1.33 C
11 12-12-2018 00:50:00 1.8 C 96 % 1.23 C
12 12-12-2018 00:55:00 1.7 C 96 % 1.13 C
13 12-12-2018 01:00:00 1.7 C 96 % 1.13 C
14 12-12-2018 01:05:00 1.7 C 96 % 1.13 C
15 12-12-2018 01:10:00 1.6 C 96 % 1.03 C
16 12-12-2018 01:15:00 1.6 C 96 % 1.03 C
17 12-12-2018 01:20:00 1.7 C 96 % 1.13 C
18 12-12-2018 01:25:00 1.7 C 96 % 1.13 C
19 12-12-2018 01:30:00 1.7 C 96 % 1.13 C
20 12-12-2018 01:35:00 1.7 C 96 % 1.13 C
21 12-12-2018 01:40:00 1.7 C 96 % 1.13 C
22 12-12-2018 01:45:00 1.7 C 96 % 1.13 C
23 12-12-2018 01:50:00 1.7 C 96 % 1.13 C
24 12-12-2018 01:55:00 1.8 C 96 % 1.23 C
25 12-12-2018 02:00:00 1.8 C 97 % 1.38 C
Sensor: Nr:Datum:Temp:Feuchte:Taupunkt:
Aussen-T/F 26 12-12-2018 02:05:00 1.9 C 97 % 1.48 C
27 12-12-2018 02:10:00 1.9 C 97 % 1.48 C
28 12-12-2018 02:15:00 1.9 C 97 % 1.48 C
29 12-12-2018 02:20:00 2 C 97 % 1.58 C
30 12-12-2018 02:25:00 2.1 C 97 % 1.67 C
31 12-12-2018 02:30:00 2.1 C 97 % 1.67 C
32 12-12-2018 02:35:00 2.2 C 97 % 1.77 C
33 12-12-2018 02:40:00 2.3 C 97 % 1.87 C
34 12-12-2018 02:45:00 2.3 C 97 % 1.87 C
35 12-12-2018 02:50:00 2.4 C 97 % 1.97 C
36 12-12-2018 02:55:00 2.4 C 97 % 1.97 C
37 12-12-2018 03:00:00 2.4 C 97 % 1.97 C
38 12-12-2018 03:05:00 2.4 C 97 % 1.97 C
39 12-12-2018 03:10:00 2.4 C 97 % 1.97 C
40 12-12-2018 03:15:00 2.4 C 97 % 1.97 C
41 12-12-2018 03:20:00 2.4 C 97 % 1.97 C
42 12-12-2018 03:25:00 2.4 C 97 % 1.97 C
43 12-12-2018 03:30:00 2.4 C 97 % 1.97 C
44 12-12-2018 03:35:00 2.4 C 97 % 1.97 C
45 12-12-2018 03:40:00 2.4 C 97 % 1.97 C
46 12-12-2018 03:45:00 2.4 C 97 % 1.97 C
47 12-12-2018 03:50:00 2.4 C 97 % 1.97 C
48 12-12-2018 03:55:00 2.4 C 97 % 1.97 C
49 12-12-2018 04:00:00 2.4 C 97 % 1.97 C
50 12-12-2018 04:05:00 2.4 C 97 % 1.97 C
Sensor: Nr:Datum:Temp:Feuchte:Taupunkt:
Aussen-T/F 51 12-12-2018 04:10:00 2.4 C 97 % 1.97 C
52 12-12-2018 04:15:00 2.4 C 97 % 1.97 C
53 12-12-2018 04:20:00 2.4 C 97 % 1.97 C
54 12-12-2018 04:25:00 2.4 C 97 % 1.97 C
55 12-12-2018 04:30:00 2.4 C 97 % 1.97 C
56 12-12-2018 04:35:00 2.4 C 97 % 1.97 C
57 12-12-2018 04:40:00 2.5 C 97 % 2.07 C
58 12-12-2018 04:45:00 2.5 C 97 % 2.07 C
59 12-12-2018 04:50:00 2.5 C 97 % 2.07 C
60 12-12-2018 04:55:00 2.5 C 97 % 2.07 C
61 12-12-2018 05:00:00 2.5 C 97 % 2.07 C
62 12-12-2018 05:05:00 2.5 C 97 % 2.07 C
63 12-12-2018 05:10:00 2.5 C 97 % 2.07 C
64 12-12-2018 05:15:00 2.5 C 97 % 2.07 C
65 12-12-2018 05:20:00 2.5 C 96 % 1.93 C
66 12-12-2018 05:25:00 2.4 C 96 % 1.83 C
67 12-12-2018 05:30:00 2.5 C 96 % 1.93 C
68 12-12-2018 05:35:00 2.5 C 96 % 1.93 C
69 12-12-2018 05:40:00 2.5 C 96 % 1.93 C
70 12-12-2018 05:45:00 2.5 C 97 % 2.07 C
71 12-12-2018 05:50:00 2.5 C 97 % 2.07 C
72 12-12-2018 05:55:00 2.5 C 97 % 2.07 C
73 12-12-2018 06:00:00 2.5 C 97 % 2.07 C
74 12-12-2018 06:05:00 2.5 C 97 % 2.07 C
75 12-12-2018 06:10:00 2.6 C 97 % 2.17 C
Sensor: Nr:Datum:Temp:Feuchte:Taupunkt:
Aussen-T/F 76 12-12-2018 06:15:00 2.6 C 97 % 2.17 C
77 12-12-2018 06:20:00 2.6 C 97 % 2.17 C
78 12-12-2018 06:30:00 2.6 C 97 % 2.17 C
79 12-12-2018 06:35:00 2.6 C 97 % 2.17 C
80 12-12-2018 06:40:00 2.6 C 97 % 2.17 C
81 12-12-2018 06:45:00 2.6 C 97 % 2.17 C
82 12-12-2018 06:50:00 2.6 C 97 % 2.17 C
83 12-12-2018 06:55:00 2.6 C 97 % 2.17 C
84 12-12-2018 07:00:00 2.6 C 97 % 2.17 C
85 12-12-2018 07:05:00 2.6 C 97 % 2.17 C
86 12-12-2018 07:10:00 2.6 C 97 % 2.17 C
87 12-12-2018 07:15:00 2.6 C 97 % 2.17 C
88 12-12-2018 07:20:00 2.6 C 97 % 2.17 C
89 12-12-2018 07:25:00 2.6 C 97 % 2.17 C
90 12-12-2018 07:30:00 2.7 C 97 % 2.27 C
91 12-12-2018 07:35:00 2.7 C 97 % 2.27 C
92 12-12-2018 07:40:00 2.7 C 97 % 2.27 C
93 12-12-2018 07:45:00 2.7 C 97 % 2.27 C
94 12-12-2018 07:50:00 2.7 C 97 % 2.27 C
95 12-12-2018 07:55:00 2.7 C 97 % 2.27 C
96 12-12-2018 08:00:00 2.8 C 97 % 2.37 C
97 12-12-2018 08:05:00 2.8 C 97 % 2.37 C
98 12-12-2018 08:10:00 2.8 C 97 % 2.37 C
99 12-12-2018 08:15:00 2.8 C 97 % 2.37 C
100 12-12-2018 08:20:00 2.7 C 97 % 2.27 C
Sensor: Nr:Datum:Temp:Feuchte:Taupunkt:
Aussen-T/F 101 12-12-2018 08:25:00 2.7 C 97 % 2.27 C
102 12-12-2018 08:30:00 2.7 C 97 % 2.27 C
103 12-12-2018 08:35:00 2.7 C 97 % 2.27 C
104 12-12-2018 08:40:00 2.7 C 97 % 2.27 C
105 12-12-2018 08:45:00 2.7 C 97 % 2.27 C
106 12-12-2018 08:50:00 2.7 C 97 % 2.27 C
107 12-12-2018 08:55:00 2.7 C 97 % 2.27 C
108 12-12-2018 09:00:00 2.7 C 97 % 2.27 C
109 12-12-2018 09:05:00 2.8 C 97 % 2.37 C
110 12-12-2018 09:10:00 2.8 C 97 % 2.37 C
111 12-12-2018 09:15:00 2.9 C 97 % 2.47 C
112 12-12-2018 09:20:00 2.9 C 97 % 2.47 C
113 12-12-2018 09:25:00 2.9 C 97 % 2.47 C
114 12-12-2018 09:30:00 2.9 C 97 % 2.47 C
115 12-12-2018 09:35:00 2.9 C 97 % 2.47 C
116 12-12-2018 09:40:00 2.9 C 97 % 2.47 C
117 12-12-2018 09:45:00 2.9 C 97 % 2.47 C
118 12-12-2018 09:50:00 3 C 97 % 2.57 C
119 12-12-2018 09:55:00 3.1 C 97 % 2.67 C
120 12-12-2018 10:00:00 3.1 C 97 % 2.67 C
121 12-12-2018 10:05:00 3.2 C 97 % 2.77 C
122 12-12-2018 10:10:00 3.2 C 97 % 2.77 C
123 12-12-2018 10:15:00 3.3 C 97 % 2.87 C
124 12-12-2018 10:20:00 3.4 C 97 % 2.97 C
125 12-12-2018 10:25:00 3.4 C 97 % 2.97 C
Sensor: Nr:Datum:Temp:Feuchte:Taupunkt:
Aussen-T/F 126 12-12-2018 10:30:00 3.4 C 97 % 2.97 C
127 12-12-2018 10:35:00 3.4 C 97 % 2.97 C
128 12-12-2018 10:40:00 3.4 C 97 % 2.97 C
129 12-12-2018 10:45:00 3.4 C 97 % 2.97 C
130 12-12-2018 10:50:00 3.4 C 97 % 2.97 C
131 12-12-2018 10:55:00 3.5 C 97 % 3.07 C
132 12-12-2018 11:00:00 3.6 C 97 % 3.17 C
133 12-12-2018 11:05:00 3.7 C 97 % 3.27 C
134 12-12-2018 11:10:00 3.7 C 97 % 3.27 C
135 12-12-2018 11:15:00 3.7 C 97 % 3.27 C
136 12-12-2018 11:20:00 3.8 C 97 % 3.37 C
137 12-12-2018 11:25:00 3.8 C 97 % 3.37 C
138 12-12-2018 11:30:00 3.9 C 97 % 3.47 C
139 12-12-2018 11:35:00 4 C 97 % 3.57 C
140 12-12-2018 11:40:00 4.1 C 97 % 3.67 C
141 12-12-2018 11:45:00 4.1 C 97 % 3.67 C
142 12-12-2018 11:50:00 4.1 C 97 % 3.67 C
143 12-12-2018 11:55:00 4.2 C 97 % 3.77 C
144 12-12-2018 12:00:00 4.3 C 97 % 3.87 C
145 12-12-2018 12:05:00 4.3 C 96 % 3.72 C
146 12-12-2018 12:10:00 4.3 C 96 % 3.72 C
147 12-12-2018 12:15:00 4.3 C 96 % 3.72 C
148 12-12-2018 12:20:00 4.3 C 96 % 3.72 C
149 12-12-2018 12:25:00 4.3 C 96 % 3.72 C
150 12-12-2018 12:30:00 4.3 C 95 % 3.57 C
Sensor: Nr:Datum:Temp:Feuchte:Taupunkt:
Aussen-T/F 151 12-12-2018 12:35:00 4.3 C 95 % 3.57 C
152 12-12-2018 12:40:00 4.3 C 95 % 3.57 C
153 12-12-2018 12:45:00 4.3 C 95 % 3.57 C
154 12-12-2018 12:50:00 4.3 C 94 % 3.42 C
155 12-12-2018 12:55:00 4.3 C 94 % 3.42 C
156 12-12-2018 13:00:00 4.2 C 94 % 3.32 C
157 12-12-2018 13:05:00 4.2 C 94 % 3.32 C
158 12-12-2018 13:10:00 4.1 C 94 % 3.22 C
159 12-12-2018 13:15:00 4.1 C 94 % 3.22 C
160 12-12-2018 13:20:00 4.1 C 95 % 3.37 C
161 12-12-2018 13:25:00 4.2 C 95 % 3.47 C
162 12-12-2018 13:30:00 4.2 C 95 % 3.47 C
163 12-12-2018 13:35:00 4.3 C 94 % 3.42 C
164 12-12-2018 13:40:00 4.3 C 94 % 3.42 C
165 12-12-2018 13:45:00 4.3 C 94 % 3.42 C
166 12-12-2018 13:50:00 4.3 C 94 % 3.42 C
167 12-12-2018 13:55:00 4.3 C 94 % 3.42 C
168 12-12-2018 14:00:00 4.4 C 94 % 3.52 C
169 12-12-2018 14:05:00 4.4 C 93 % 3.37 C
170 12-12-2018 14:10:00 4.4 C 93 % 3.37 C
171 12-12-2018 14:15:00 4.4 C 93 % 3.37 C
172 12-12-2018 14:20:00 4.5 C 92 % 3.32 C
173 12-12-2018 14:25:00 4.5 C 91 % 3.16 C
174 12-12-2018 14:30:00 4.6 C 91 % 3.26 C
175 12-12-2018 14:35:00 4.6 C 92 % 3.42 C
Sensor: Nr:Datum:Temp:Feuchte:Taupunkt:
Aussen-T/F 176 12-12-2018 14:40:00 4.6 C 92 % 3.42 C
177 12-12-2018 14:45:00 4.4 C 91 % 3.06 C
178 12-12-2018 14:50:00 4.2 C 91 % 2.87 C
179 12-12-2018 14:55:00 4.1 C 91 % 2.77 C
180 12-12-2018 15:00:00 3.8 C 91 % 2.47 C
181 12-12-2018 15:05:00 3.7 C 91 % 2.37 C
182 12-12-2018 15:10:00 3.4 C 91 % 2.07 C
183 12-12-2018 15:15:00 3.3 C 91 % 1.98 C
184 12-12-2018 15:20:00 3.2 C 92 % 2.03 C
185 12-12-2018 15:25:00 3.2 C 92 % 2.03 C
186 12-12-2018 15:30:00 3.2 C 92 % 2.03 C
187 12-12-2018 15:35:00 3.1 C 92 % 1.93 C
188 12-12-2018 15:40:00 2.9 C 92 % 1.73 C
189 12-12-2018 15:45:00 2.8 C 92 % 1.63 C
190 12-12-2018 15:50:00 2.7 C 92 % 1.53 C
191 12-12-2018 15:55:00 2.6 C 92 % 1.43 C
192 12-12-2018 16:00:00 2.5 C 93 % 1.49 C
193 12-12-2018 16:05:00 2.4 C 92 % 1.24 C
194 12-12-2018 16:10:00 2.4 C 93 % 1.39 C
195 12-12-2018 16:15:00 2.3 C 93 % 1.29 C
196 12-12-2018 16:20:00 2.3 C 93 % 1.29 C
197 12-12-2018 16:25:00 2.3 C 93 % 1.29 C
198 12-12-2018 16:30:00 2.3 C 93 % 1.29 C
199 12-12-2018 16:35:00 2.2 C 93 % 1.19 C
200 12-12-2018 16:40:00 2.1 C 93 % 1.09 C
Sensor: Nr:Datum:Temp:Feuchte:Taupunkt:
Aussen-T/F 201 12-12-2018 16:45:00 1.9 C 93 % 0.89 C
202 12-12-2018 16:50:00 1.8 C 93 % 0.79 C
203 12-12-2018 16:55:00 1.7 C 93 % 0.69 C
204 12-12-2018 17:00:00 1.6 C 93 % 0.59 C
205 12-12-2018 17:05:00 1.5 C 93 % 0.49 C
206 12-12-2018 17:10:00 1.4 C 93 % 0.4 C
207 12-12-2018 17:15:00 1.4 C 94 % 0.54 C
208 12-12-2018 17:20:00 1.4 C 94 % 0.54 C
209 12-12-2018 17:25:00 1.5 C 94 % 0.64 C
210 12-12-2018 17:30:00 1.6 C 95 % 0.89 C
211 12-12-2018 17:35:00 1.6 C 95 % 0.89 C
212 12-12-2018 17:40:00 1.7 C 95 % 0.99 C
213 12-12-2018 17:45:00 1.7 C 95 % 0.99 C
214 12-12-2018 17:50:00 1.8 C 95 % 1.09 C
215 12-12-2018 17:55:00 1.7 C 95 % 0.99 C
216 12-12-2018 18:00:00 1.7 C 95 % 0.99 C
217 12-12-2018 18:05:00 1.7 C 95 % 0.99 C
218 12-12-2018 18:10:00 1.7 C 95 % 0.99 C
219 12-12-2018 18:15:00 1.7 C 95 % 0.99 C
220 12-12-2018 18:20:00 1.7 C 95 % 0.99 C
221 12-12-2018 18:25:00 1.8 C 95 % 1.09 C
222 12-12-2018 18:30:00 1.8 C 95 % 1.09 C
223 12-12-2018 18:35:00 1.8 C 95 % 1.09 C
224 12-12-2018 18:40:00 1.9 C 95 % 1.19 C
225 12-12-2018 18:45:00 1.9 C 95 % 1.19 C
Sensor: Nr:Datum:Temp:Feuchte:Taupunkt:
Aussen-T/F 226 12-12-2018 18:50:00 2 C 95 % 1.29 C
227 12-12-2018 18:55:00 2.1 C 95 % 1.38 C
228 12-12-2018 19:00:00 2.1 C 95 % 1.38 C
229 12-12-2018 19:05:00 2.2 C 96 % 1.63 C
230 12-12-2018 19:10:00 2.3 C 96 % 1.73 C
231 12-12-2018 19:15:00 2.3 C 96 % 1.73 C
232 12-12-2018 19:20:00 2.3 C 96 % 1.73 C
233 12-12-2018 19:25:00 2.3 C 96 % 1.73 C
234 12-12-2018 19:30:00 2.3 C 95 % 1.58 C
235 12-12-2018 19:35:00 2.3 C 95 % 1.58 C
236 12-12-2018 19:40:00 2.2 C 95 % 1.48 C
237 12-12-2018 19:45:00 2.1 C 95 % 1.38 C
238 12-12-2018 19:50:00 2.1 C 95 % 1.38 C
239 12-12-2018 19:55:00 2.1 C 95 % 1.38 C
240 12-12-2018 20:00:00 2.1 C 95 % 1.38 C
241 12-12-2018 20:05:00 1.9 C 95 % 1.19 C
242 12-12-2018 20:10:00 1.9 C 95 % 1.19 C
243 12-12-2018 20:15:00 1.8 C 95 % 1.09 C
244 12-12-2018 20:20:00 1.8 C 95 % 1.09 C
245 12-12-2018 20:25:00 1.8 C 95 % 1.09 C
246 12-12-2018 20:30:00 1.8 C 95 % 1.09 C
247 12-12-2018 20:35:00 1.9 C 95 % 1.19 C
248 12-12-2018 20:40:00 1.9 C 95 % 1.19 C
249 12-12-2018 20:45:00 2.1 C 95 % 1.38 C
250 12-12-2018 20:50:00 2.1 C 95 % 1.38 C
Sensor: Nr:Datum:Temp:Feuchte:Taupunkt:
Aussen-T/F 251 12-12-2018 20:55:00 2.2 C 95 % 1.48 C
252 12-12-2018 21:00:00 2.3 C 95 % 1.58 C
253 12-12-2018 21:05:00 2.3 C 95 % 1.58 C
254 12-12-2018 21:10:00 2.3 C 95 % 1.58 C
255 12-12-2018 21:15:00 2.4 C 95 % 1.68 C
256 12-12-2018 21:20:00 2.4 C 95 % 1.68 C
257 12-12-2018 21:25:00 2.5 C 95 % 1.78 C
258 12-12-2018 21:30:00 2.5 C 95 % 1.78 C
259 12-12-2018 21:35:00 2.6 C 95 % 1.88 C
260 12-12-2018 21:40:00 2.6 C 95 % 1.88 C
261 12-12-2018 21:45:00 2.6 C 95 % 1.88 C
262 12-12-2018 21:50:00 2.6 C 95 % 1.88 C
263 12-12-2018 21:55:00 2.6 C 95 % 1.88 C
264 12-12-2018 22:00:00 2.6 C 95 % 1.88 C
265 12-12-2018 22:05:00 2.6 C 95 % 1.88 C
266 12-12-2018 22:10:00 2.6 C 95 % 1.88 C
267 12-12-2018 22:15:00 2.6 C 95 % 1.88 C
268 12-12-2018 22:20:00 2.6 C 95 % 1.88 C
269 12-12-2018 22:25:00 2.6 C 95 % 1.88 C
270 12-12-2018 22:30:00 2.6 C 95 % 1.88 C
271 12-12-2018 22:35:00 2.6 C 95 % 1.88 C
272 12-12-2018 22:40:00 2.6 C 95 % 1.88 C
273 12-12-2018 22:45:00 2.6 C 95 % 1.88 C
274 12-12-2018 22:50:00 2.7 C 95 % 1.98 C
275 12-12-2018 22:55:00 2.7 C 95 % 1.98 C
Sensor: Nr:Datum:Temp:Feuchte:Taupunkt:
Aussen-T/F 276 12-12-2018 23:00:00 2.7 C 95 % 1.98 C
277 12-12-2018 23:05:00 2.7 C 95 % 1.98 C
278 12-12-2018 23:10:00 2.7 C 95 % 1.98 C
279 12-12-2018 23:15:00 2.7 C 95 % 1.98 C
280 12-12-2018 23:20:00 2.7 C 95 % 1.98 C
281 12-12-2018 23:25:00 2.7 C 95 % 1.98 C
282 12-12-2018 23:30:00 2.7 C 94 % 1.83 C
283 12-12-2018 23:35:00 2.7 C 94 % 1.83 C
284 12-12-2018 23:40:00 2.7 C 94 % 1.83 C
285 12-12-2018 23:45:00 2.7 C 94 % 1.83 C
286 12-12-2018 23:50:00 2.7 C 94 % 1.83 C
287 12-12-2018 23:55:00 2.7 C 94 % 1.83 C
288 13-12-2018 00:00:00 2.7 C 94 % 1.83 C
289 13-12-2018 00:05:00 2.7 C 94 % 1.83 C
290 13-12-2018 00:10:00 2.7 C 94 % 1.83 C
291 13-12-2018 00:15:00 2.8 C 94 % 1.93 C
292 13-12-2018 00:20:00 2.8 C 94 % 1.93 C
293 13-12-2018 00:25:00 2.8 C 94 % 1.93 C
294 13-12-2018 00:30:00 2.8 C 94 % 1.93 C
295 13-12-2018 00:35:00 2.8 C 94 % 1.93 C
296 13-12-2018 00:40:00 2.8 C 94 % 1.93 C
297 13-12-2018 00:45:00 2.8 C 94 % 1.93 C
298 13-12-2018 00:50:00 2.8 C 94 % 1.93 C
299 13-12-2018 00:55:00 2.8 C 94 % 1.93 C
300 13-12-2018 01:00:00 2.8 C 94 % 1.93 C
Sensor: Nr:Datum:Temp:Feuchte:Taupunkt:
Aussen-T/F 301 13-12-2018 01:05:00 2.8 C 94 % 1.93 C
302 13-12-2018 01:10:00 2.7 C 94 % 1.83 C
303 13-12-2018 01:15:00 2.7 C 93 % 1.68 C
304 13-12-2018 01:20:00 2.6 C 94 % 1.73 C
305 13-12-2018 01:25:00 2.6 C 94 % 1.73 C
306 13-12-2018 01:30:00 2.6 C 94 % 1.73 C
307 13-12-2018 01:35:00 2.6 C 94 % 1.73 C
308 13-12-2018 01:40:00 2.6 C 94 % 1.73 C
309 13-12-2018 01:45:00 2.6 C 94 % 1.73 C
310 13-12-2018 01:50:00 2.6 C 94 % 1.73 C
311 13-12-2018 01:55:00 2.4 C 93 % 1.39 C
312 13-12-2018 02:00:00 2.4 C 94 % 1.54 C
313 13-12-2018 02:05:00 2.4 C 94 % 1.54 C
314 13-12-2018 02:10:00 2.4 C 94 % 1.54 C
315 13-12-2018 02:15:00 2.5 C 94 % 1.63 C
316 13-12-2018 02:20:00 2.6 C 94 % 1.73 C
317 13-12-2018 02:25:00 2.6 C 94 % 1.73 C
318 13-12-2018 02:30:00 2.5 C 93 % 1.49 C
319 13-12-2018 02:35:00 2.4 C 93 % 1.39 C
320 13-12-2018 02:40:00 2.3 C 93 % 1.29 C
321 13-12-2018 02:45:00 2.3 C 93 % 1.29 C
322 13-12-2018 02:50:00 2.2 C 93 % 1.19 C
323 13-12-2018 02:55:00 2.2 C 94 % 1.34 C
324 13-12-2018 03:00:00 2.2 C 93 % 1.19 C
325 13-12-2018 03:05:00 2.1 C 93 % 1.09 C
Sensor: Nr:Datum:Temp:Feuchte:Taupunkt:
Aussen-T/F 326 13-12-2018 03:10:00 1.9 C 93 % 0.89 C
327 13-12-2018 03:15:00 1.8 C 93 % 0.79 C
328 13-12-2018 03:20:00 1.7 C 93 % 0.69 C
329 13-12-2018 03:25:00 1.6 C 94 % 0.74 C
330 13-12-2018 03:30:00 1.5 C 94 % 0.64 C
331 13-12-2018 03:35:00 1.4 C 93 % 0.4 C
332 13-12-2018 03:40:00 1.3 C 93 % 0.3 C
333 13-12-2018 03:45:00 1.2 C 93 % 0.2 C
334 13-12-2018 03:50:00 1.1 C 93 % 0.1 C
335 13-12-2018 03:55:00 0.9 C 94 % 0.05 C
336 13-12-2018 04:00:00 0.9 C 94 % 0.05 C
337 13-12-2018 04:05:00 0.8 C 94 % -0.05 C
338 13-12-2018 04:10:00 0.7 C 94 % -0.15 C
339 13-12-2018 04:15:00 0.7 C 94 % -0.15 C
340 13-12-2018 04:20:00 0.6 C 94 % -0.25 C
341 13-12-2018 04:25:00 0.6 C 94 % -0.25 C
342 13-12-2018 04:30:00 0.5 C 94 % -0.35 C
343 13-12-2018 04:35:00 0.4 C 94 % -0.45 C
344 13-12-2018 04:40:00 0.4 C 94 % -0.45 C
345 13-12-2018 04:45:00 0.4 C 94 % -0.45 C
346 13-12-2018 04:50:00 0.4 C 95 % -0.31 C
347 13-12-2018 04:55:00 0.3 C 95 % -0.4 C
348 13-12-2018 05:00:00 0.4 C 95 % -0.31 C
349 13-12-2018 05:05:00 0.4 C 95 % -0.31 C
350 13-12-2018 05:10:00 0.4 C 95 % -0.31 C
Sensor: Nr:Datum:Temp:Feuchte:Taupunkt:
Aussen-T/F 351 13-12-2018 05:15:00 0.3 C 95 % -0.4 C
352 13-12-2018 05:20:00 0.3 C 95 % -0.4 C
353 13-12-2018 05:25:00 0.3 C 95 % -0.4 C
354 13-12-2018 05:30:00 0.3 C 95 % -0.4 C
355 13-12-2018 05:35:00 0.3 C 95 % -0.4 C
356 13-12-2018 05:40:00 0.4 C 95 % -0.31 C
357 13-12-2018 05:45:00 0.4 C 95 % -0.31 C
358 13-12-2018 05:50:00 0.4 C 95 % -0.31 C
359 13-12-2018 05:55:00 0.4 C 95 % -0.31 C
360 13-12-2018 06:00:00 0.5 C 95 % -0.21 C
361 13-12-2018 06:05:00 0.5 C 95 % -0.21 C
362 13-12-2018 06:10:00 0.4 C 95 % -0.31 C
363 13-12-2018 06:15:00 0.3 C 95 % -0.4 C
364 13-12-2018 06:20:00 0.2 C 95 % -0.5 C
365 13-12-2018 06:25:00 0.2 C 95 % -0.5 C
366 13-12-2018 06:30:00 0.2 C 95 % -0.5 C
367 13-12-2018 06:35:00 0.3 C 95 % -0.4 C
368 13-12-2018 06:40:00 0.3 C 96 % -0.26 C
369 13-12-2018 06:45:00 0.3 C 96 % -0.26 C
370 13-12-2018 06:50:00 0.4 C 96 % -0.16 C
371 13-12-2018 06:55:00 0.4 C 95 % -0.31 C
372 13-12-2018 07:00:00 0.4 C 95 % -0.31 C
373 13-12-2018 07:05:00 0.3 C 95 % -0.4 C
374 13-12-2018 07:10:00 0.4 C 95 % -0.31 C
375 13-12-2018 07:15:00 0.4 C 95 % -0.31 C
Sensor: Nr:Datum:Temp:Feuchte:Taupunkt:
Aussen-T/F 376 13-12-2018 07:20:00 0.4 C 95 % -0.31 C
377 13-12-2018 07:25:00 0.5 C 95 % -0.21 C
378 13-12-2018 07:30:00 0.5 C 95 % -0.21 C
379 13-12-2018 07:35:00 0.4 C 94 % -0.45 C
380 13-12-2018 07:40:00 0.4 C 94 % -0.45 C
381 13-12-2018 07:45:00 0.4 C 94 % -0.45 C
382 13-12-2018 07:50:00 0.4 C 94 % -0.45 C
383 13-12-2018 07:55:00 0.3 C 94 % -0.55 C
384 13-12-2018 08:00:00 0.2 C 94 % -0.65 C
385 13-12-2018 08:05:00 0 C 93 % -0.99 C
386 13-12-2018 08:10:00 -0.1 C 94 % -0.95 C
387 13-12-2018 08:15:00 -0.1 C 93 % -1.09 C
388 13-12-2018 08:20:00 -0.2 C 94 % -1.05 C
389 13-12-2018 08:25:00 -0.2 C 94 % -1.05 C
390 13-12-2018 08:30:00 -0.3 C 94 % -1.15 C
391 13-12-2018 08:35:00 -0.3 C 94 % -1.15 C
392 13-12-2018 08:40:00 -0.3 C 94 % -1.15 C
393 13-12-2018 08:45:00 -0.2 C 94 % -1.05 C
394 13-12-2018 08:50:00 -0.2 C 94 % -1.05 C
395 13-12-2018 08:55:00 -0.1 C 94 % -0.95 C
396 13-12-2018 09:00:00 0.1 C 93 % -0.89 C
397 13-12-2018 09:05:00 0 C 93 % -0.99 C
398 13-12-2018 09:10:00 -0.1 C 93 % -1.09 C
399 13-12-2018 09:15:00 -0.1 C 93 % -1.09 C
400 13-12-2018 09:20:00 -0.1 C 93 % -1.09 C
Sensor: Nr:Datum:Temp:Feuchte:Taupunkt:
Aussen-T/F 401 13-12-2018 09:25:00 -0.1 C 93 % -1.09 C
402 13-12-2018 09:30:00 -0.1 C 93 % -1.09 C
403 13-12-2018 09:35:00 -0.1 C 93 % -1.09 C
404 13-12-2018 09:40:00 -0.2 C 93 % -1.19 C
405 13-12-2018 09:45:00 -0.1 C 93 % -1.09 C
406 13-12-2018 09:50:00 0.1 C 93 % -0.89 C
407 13-12-2018 09:55:00 0.2 C 93 % -0.79 C
408 13-12-2018 10:00:00 0.4 C 92 % -0.74 C
409 13-12-2018 10:05:00 0.6 C 92 % -0.55 C
410 13-12-2018 10:10:00 0.7 C 91 % -0.6 C
411 13-12-2018 10:15:00 0.7 C 90 % -0.75 C
412 13-12-2018 10:20:00 0.7 C 89 % -0.9 C
413 13-12-2018 10:25:00 0.7 C 89 % -0.9 C
414 13-12-2018 10:30:00 0.7 C 89 % -0.9 C
415 13-12-2018 10:35:00 0.7 C 89 % -0.9 C
416 13-12-2018 10:40:00 0.7 C 89 % -0.9 C
417 13-12-2018 10:45:00 0.8 C 88 % -0.96 C
418 13-12-2018 10:50:00 0.9 C 87 % -1.01 C
419 13-12-2018 10:55:00 1 C 88 % -0.76 C
420 13-12-2018 11:00:00 1.1 C 86 % -0.97 C
421 13-12-2018 11:05:00 1.3 C 86 % -0.78 C
422 13-12-2018 11:10:00 1.4 C 86 % -0.68 C
423 13-12-2018 11:15:00 1.4 C 85 % -0.84 C
424 13-12-2018 11:20:00 1.6 C 84 % -0.8 C
425 13-12-2018 11:25:00 1.6 C 84 % -0.8 C
Sensor: Nr:Datum:Temp:Feuchte:Taupunkt:
Aussen-T/F 426 13-12-2018 11:30:00 1.6 C 83 % -0.97 C
427 13-12-2018 11:35:00 1.6 C 84 % -0.8 C
428 13-12-2018 11:40:00 1.6 C 84 % -0.8 C
429 13-12-2018 11:45:00 1.5 C 83 % -1.06 C
430 13-12-2018 11:50:00 1.5 C 83 % -1.06 C
431 13-12-2018 11:55:00 1.6 C 82 % -1.13 C
432 13-12-2018 12:00:00 1.7 C 81 % -1.2 C
433 13-12-2018 12:05:00 1.7 C 80 % -1.37 C
434 13-12-2018 12:10:00 1.8 C 81 % -1.1 C
435 13-12-2018 12:15:00 1.7 C 81 % -1.2 C
436 13-12-2018 12:20:00 1.7 C 81 % -1.2 C
437 13-12-2018 12:25:00 1.7 C 81 % -1.2 C
438 13-12-2018 12:30:00 1.7 C 80 % -1.37 C
439 13-12-2018 12:35:00 1.7 C 81 % -1.2 C
440 13-12-2018 12:40:00 1.7 C 80 % -1.37 C
441 13-12-2018 12:45:00 1.8 C 81 % -1.1 C
442 13-12-2018 12:50:00 1.8 C 81 % -1.1 C
443 13-12-2018 12:55:00 1.8 C 81 % -1.1 C
444 13-12-2018 13:00:00 1.7 C 81 % -1.2 C
445 13-12-2018 13:05:00 1.7 C 82 % -1.03 C
446 13-12-2018 13:10:00 1.6 C 83 % -0.97 C
447 13-12-2018 13:15:00 1.6 C 82 % -1.13 C
448 13-12-2018 13:20:00 1.6 C 82 % -1.13 C
449 13-12-2018 13:25:00 1.7 C 81 % -1.2 C
450 13-12-2018 13:30:00 1.8 C 80 % -1.27 C
Sensor: Nr:Datum:Temp:Feuchte:Taupunkt:
Aussen-T/F 451 13-12-2018 13:35:00 1.9 C 81 % -1.01 C
452 13-12-2018 13:40:00 1.9 C 81 % -1.01 C
453 13-12-2018 13:45:00 1.9 C 82 % -0.84 C
454 13-12-2018 13:50:00 1.9 C 83 % -0.67 C
455 13-12-2018 13:55:00 1.9 C 82 % -0.84 C
456 13-12-2018 14:00:00 1.9 C 82 % -0.84 C
457 13-12-2018 14:05:00 2.1 C 80 % -0.98 C
458 13-12-2018 14:10:00 2.2 C 80 % -0.88 C
459 13-12-2018 14:15:00 2.2 C 80 % -0.88 C
460 13-12-2018 14:20:00 2.3 C 79 % -0.96 C
461 13-12-2018 14:25:00 2.3 C 80 % -0.79 C
462 13-12-2018 14:30:00 2.3 C 81 % -0.62 C
463 13-12-2018 14:35:00 2.3 C 81 % -0.62 C
464 13-12-2018 14:40:00 2.3 C 81 % -0.62 C
465 13-12-2018 14:45:00 2.2 C 82 % -0.55 C
466 13-12-2018 14:50:00 2.2 C 81 % -0.71 C
467 13-12-2018 14:55:00 2.3 C 79 % -0.96 C
468 13-12-2018 15:00:00 2.4 C 79 % -0.86 C
469 13-12-2018 15:05:00 2.5 C 79 % -0.76 C
470 13-12-2018 15:10:00 2.5 C 80 % -0.59 C
471 13-12-2018 15:15:00 2.5 C 79 % -0.76 C
472 13-12-2018 15:20:00 2.5 C 78 % -0.94 C
473 13-12-2018 15:25:00 2.6 C 79 % -0.67 C
474 13-12-2018 15:30:00 2.5 C 77 % -1.11 C
475 13-12-2018 15:35:00 2.5 C 79 % -0.76 C
Sensor: Nr:Datum:Temp:Feuchte:Taupunkt:
Aussen-T/F 476 13-12-2018 15:40:00 2.4 C 78 % -1.03 C
477 13-12-2018 15:45:00 2.4 C 77 % -1.21 C
478 13-12-2018 15:50:00 2.3 C 78 % -1.13 C
479 13-12-2018 15:55:00 2.3 C 79 % -0.96 C
480 13-12-2018 16:00:00 2.2 C 80 % -0.88 C
481 13-12-2018 16:05:00 2.2 C 80 % -0.88 C
482 13-12-2018 16:10:00 2.1 C 81 % -0.81 C
483 13-12-2018 16:15:00 2 C 81 % -0.91 C
484 13-12-2018 16:20:00 1.9 C 82 % -0.84 C
485 13-12-2018 16:25:00 1.8 C 83 % -0.77 C
486 13-12-2018 16:30:00 1.8 C 84 % -0.61 C
487 13-12-2018 16:35:00 1.7 C 84 % -0.71 C
488 13-12-2018 16:40:00 1.6 C 84 % -0.8 C
489 13-12-2018 16:45:00 1.6 C 85 % -0.64 C
490 13-12-2018 16:50:00 1.6 C 85 % -0.64 C
491 13-12-2018 16:55:00 1.5 C 85 % -0.74 C
492 13-12-2018 17:00:00 1.4 C 86 % -0.68 C
493 13-12-2018 17:05:00 1.4 C 86 % -0.68 C
494 13-12-2018 17:10:00 1.4 C 86 % -0.68 C
495 13-12-2018 17:15:00 1.4 C 86 % -0.68 C
496 13-12-2018 17:20:00 1.4 C 86 % -0.68 C
497 13-12-2018 17:25:00 1.4 C 86 % -0.68 C
498 13-12-2018 17:30:00 1.3 C 86 % -0.78 C
499 13-12-2018 17:35:00 1.3 C 85 % -0.94 C
500 13-12-2018 17:40:00 1.3 C 85 % -0.94 C
Sensor: Nr:Datum:Temp:Feuchte:Taupunkt:
Aussen-T/F 501 13-12-2018 17:45:00 1.3 C 85 % -0.94 C
502 13-12-2018 17:50:00 1.4 C 85 % -0.84 C
503 13-12-2018 17:55:00 1.4 C 85 % -0.84 C
504 13-12-2018 18:00:00 1.3 C 84 % -1.1 C
505 13-12-2018 18:05:00 1.3 C 85 % -0.94 C
506 13-12-2018 18:10:00 1.4 C 85 % -0.84 C
507 13-12-2018 18:15:00 1.4 C 84 % -1 C
508 13-12-2018 18:20:00 1.4 C 85 % -0.84 C
509 13-12-2018 18:25:00 1.4 C 84 % -1 C
510 13-12-2018 18:30:00 1.4 C 83 % -1.16 C
511 13-12-2018 18:35:00 1.5 C 83 % -1.06 C
512 13-12-2018 18:40:00 1.6 C 83 % -0.97 C
513 13-12-2018 18:45:00 1.6 C 82 % -1.13 C
514 13-12-2018 18:50:00 1.7 C 81 % -1.2 C
515 13-12-2018 18:55:00 1.7 C 82 % -1.03 C
516 13-12-2018 19:00:00 1.7 C 82 % -1.03 C
517 13-12-2018 19:05:00 1.7 C 82 % -1.03 C
518 13-12-2018 19:10:00 1.7 C 81 % -1.2 C
519 13-12-2018 19:15:00 1.7 C 81 % -1.2 C
520 13-12-2018 19:20:00 1.7 C 82 % -1.03 C
521 13-12-2018 19:25:00 1.6 C 81 % -1.3 C
522 13-12-2018 19:30:00 1.7 C 81 % -1.2 C
523 13-12-2018 19:35:00 1.7 C 82 % -1.03 C
524 13-12-2018 19:40:00 1.6 C 81 % -1.3 C
525 13-12-2018 19:45:00 1.6 C 81 % -1.3 C
Sensor: Nr:Datum:Temp:Feuchte:Taupunkt:
Aussen-T/F 526 13-12-2018 19:50:00 1.6 C 81 % -1.3 C
527 13-12-2018 19:55:00 1.6 C 79 % -1.64 C
528 13-12-2018 20:00:00 1.7 C 80 % -1.37 C
529 13-12-2018 20:05:00 1.7 C 80 % -1.37 C
530 13-12-2018 20:10:00 1.7 C 81 % -1.2 C
531 13-12-2018 20:15:00 1.6 C 81 % -1.3 C
532 13-12-2018 20:20:00 1.6 C 81 % -1.3 C
533 13-12-2018 20:25:00 1.6 C 80 % -1.47 C
534 13-12-2018 20:30:00 1.5 C 81 % -1.4 C
535 13-12-2018 20:35:00 1.5 C 81 % -1.4 C
536 13-12-2018 20:40:00 1.4 C 80 % -1.66 C
537 13-12-2018 20:45:00 1.4 C 81 % -1.49 C
538 13-12-2018 20:50:00 1.4 C 82 % -1.33 C
539 13-12-2018 20:55:00 1.4 C 82 % -1.33 C
540 13-12-2018 21:00:00 1.4 C 82 % -1.33 C
541 13-12-2018 21:05:00 1.4 C 82 % -1.33 C
542 13-12-2018 21:10:00 1.4 C 83 % -1.16 C
543 13-12-2018 21:15:00 1.4 C 83 % -1.16 C
544 13-12-2018 21:20:00 1.3 C 84 % -1.1 C
545 13-12-2018 21:25:00 1.3 C 84 % -1.1 C
546 13-12-2018 21:30:00 1.3 C 84 % -1.1 C
547 13-12-2018 21:35:00 1.3 C 84 % -1.1 C
548 13-12-2018 21:40:00 1.2 C 84 % -1.2 C
549 13-12-2018 21:45:00 1.2 C 83 % -1.36 C
550 13-12-2018 21:50:00 1.2 C 84 % -1.2 C
Sensor: Nr:Datum:Temp:Feuchte:Taupunkt:
Aussen-T/F 551 13-12-2018 21:55:00 1.2 C 84 % -1.2 C
552 13-12-2018 22:00:00 1.2 C 84 % -1.2 C
553 13-12-2018 22:05:00 1.2 C 84 % -1.2 C
554 13-12-2018 22:10:00 1.2 C 84 % -1.2 C
555 13-12-2018 22:15:00 1.2 C 83 % -1.36 C
556 13-12-2018 22:20:00 1.2 C 84 % -1.2 C
557 13-12-2018 22:25:00 1.1 C 84 % -1.29 C
558 13-12-2018 22:30:00 1.1 C 83 % -1.46 C
559 13-12-2018 22:35:00 1.1 C 84 % -1.29 C
560 13-12-2018 22:40:00 1.1 C 83 % -1.46 C
561 13-12-2018 22:45:00 1.1 C 84 % -1.29 C
562 13-12-2018 22:50:00 1.2 C 84 % -1.2 C
563 13-12-2018 22:55:00 1.1 C 84 % -1.29 C
564 13-12-2018 23:00:00 1.1 C 83 % -1.46 C
565 13-12-2018 23:05:00 1.1 C 83 % -1.46 C
566 13-12-2018 23:10:00 1.1 C 82 % -1.62 C
567 13-12-2018 23:15:00 1.1 C 81 % -1.79 C
568 13-12-2018 23:20:00 1.2 C 83 % -1.36 C
569 13-12-2018 23:25:00 1.2 C 83 % -1.36 C
570 13-12-2018 23:30:00 1.2 C 83 % -1.36 C
571 13-12-2018 23:35:00 1.2 C 83 % -1.36 C
572 13-12-2018 23:40:00 1.2 C 83 % -1.36 C
573 13-12-2018 23:45:00 1.2 C 83 % -1.36 C
574 13-12-2018 23:50:00 1.2 C 82 % -1.52 C
575 13-12-2018 23:55:00 1.2 C 82 % -1.52 C
Sensor: Nr:Datum:Temp:Feuchte:Taupunkt:
Aussen-T/F 576 14-12-2018 00:00:00 1.2 C 82 % -1.52 C
577 14-12-2018 00:05:00 1.2 C 82 % -1.52 C
578 14-12-2018 00:10:00 1.2 C 81 % -1.69 C
579 14-12-2018 00:15:00 1.3 C 81 % -1.59 C
580 14-12-2018 00:20:00 1.3 C 82 % -1.43 C
581 14-12-2018 00:25:00 1.3 C 82 % -1.43 C
582 14-12-2018 00:30:00 1.2 C 82 % -1.52 C
583 14-12-2018 00:35:00 1.2 C 80 % -1.86 C
584 14-12-2018 00:40:00 1.2 C 80 % -1.86 C
585 14-12-2018 00:45:00 1.3 C 81 % -1.59 C
586 14-12-2018 00:50:00 1.3 C 81 % -1.59 C
587 14-12-2018 00:55:00 1.3 C 82 % -1.43 C
588 14-12-2018 01:00:00 1.2 C 82 % -1.52 C
589 14-12-2018 01:05:00 1.2 C 82 % -1.52 C
590 14-12-2018 01:10:00 1.2 C 81 % -1.69 C
591 14-12-2018 01:15:00 1.2 C 82 % -1.52 C
592 14-12-2018 01:20:00 1.2 C 82 % -1.52 C
593 14-12-2018 01:25:00 1.1 C 82 % -1.62 C
594 14-12-2018 01:30:00 1.1 C 82 % -1.62 C
595 14-12-2018 01:35:00 1.1 C 83 % -1.46 C
596 14-12-2018 01:40:00 1.1 C 82 % -1.62 C
597 14-12-2018 01:45:00 1.1 C 83 % -1.46 C
598 14-12-2018 01:50:00 1.1 C 83 % -1.46 C
599 14-12-2018 01:55:00 1.1 C 83 % -1.46 C
600 14-12-2018 02:00:00 1.1 C 83 % -1.46 C
Sensor: Nr:Datum:Temp:Feuchte:Taupunkt:
Aussen-T/F 601 14-12-2018 02:05:00 1.1 C 82 % -1.62 C
602 14-12-2018 02:10:00 1.1 C 81 % -1.79 C
603 14-12-2018 02:15:00 1.1 C 80 % -1.96 C
604 14-12-2018 02:20:00 1.1 C 81 % -1.79 C
605 14-12-2018 02:25:00 1.1 C 81 % -1.79 C
606 14-12-2018 02:30:00 1.1 C 80 % -1.96 C
607 14-12-2018 02:35:00 1.2 C 79 % -2.03 C
608 14-12-2018 02:40:00 1.2 C 79 % -2.03 C
609 14-12-2018 02:45:00 1.2 C 78 % -2.2 C
610 14-12-2018 02:50:00 1.3 C 78 % -2.1 C
611 14-12-2018 02:55:00 1.3 C 79 % -1.93 C
612 14-12-2018 03:00:00 1.3 C 79 % -1.93 C
613 14-12-2018 03:05:00 1.3 C 78 % -2.1 C
614 14-12-2018 03:10:00 1.3 C 79 % -1.93 C
615 14-12-2018 03:15:00 1.3 C 78 % -2.1 C
616 14-12-2018 03:20:00 1.3 C 79 % -1.93 C
617 14-12-2018 03:25:00 1.2 C 78 % -2.2 C
618 14-12-2018 03:30:00 1.2 C 77 % -2.37 C
619 14-12-2018 03:35:00 1.2 C 75 % -2.73 C
620 14-12-2018 03:40:00 1.3 C 75 % -2.63 C
621 14-12-2018 03:45:00 1.3 C 75 % -2.63 C
622 14-12-2018 03:50:00 1.4 C 74 % -2.71 C
623 14-12-2018 03:55:00 1.4 C 74 % -2.71 C
624 14-12-2018 04:00:00 1.4 C 73 % -2.9 C
625 14-12-2018 04:05:00 1.4 C 74 % -2.71 C
Sensor: Nr:Datum:Temp:Feuchte:Taupunkt:
Aussen-T/F 626 14-12-2018 04:10:00 1.4 C 75 % -2.53 C
627 14-12-2018 04:15:00 1.4 C 75 % -2.53 C
628 14-12-2018 04:20:00 1.4 C 76 % -2.36 C
629 14-12-2018 04:25:00 1.3 C 76 % -2.45 C
630 14-12-2018 04:30:00 1.3 C 77 % -2.28 C
631 14-12-2018 04:35:00 1.3 C 76 % -2.45 C
632 14-12-2018 04:40:00 1.2 C 75 % -2.73 C
633 14-12-2018 04:45:00 1.3 C 75 % -2.63 C
634 14-12-2018 04:50:00 1.3 C 77 % -2.28 C
635 14-12-2018 04:55:00 1.3 C 77 % -2.28 C
636 14-12-2018 05:00:00 1.2 C 78 % -2.2 C
637 14-12-2018 05:05:00 1.2 C 77 % -2.37 C
638 14-12-2018 05:10:00 1.2 C 77 % -2.37 C
639 14-12-2018 05:15:00 1.1 C 76 % -2.65 C
640 14-12-2018 05:20:00 1.2 C 77 % -2.37 C
641 14-12-2018 05:25:00 1.2 C 78 % -2.2 C
642 14-12-2018 05:30:00 1.2 C 77 % -2.37 C
643 14-12-2018 05:35:00 1.2 C 77 % -2.37 C
644 14-12-2018 05:40:00 1.2 C 77 % -2.37 C
645 14-12-2018 05:45:00 1.2 C 78 % -2.2 C
646 14-12-2018 05:50:00 1.2 C 77 % -2.37 C
647 14-12-2018 05:55:00 1.2 C 77 % -2.37 C
648 14-12-2018 06:00:00 1.2 C 75 % -2.73 C
649 14-12-2018 06:05:00 1.2 C 77 % -2.37 C
650 14-12-2018 06:10:00 1.2 C 76 % -2.55 C
Sensor: Nr:Datum:Temp:Feuchte:Taupunkt:
Aussen-T/F 651 14-12-2018 06:15:00 1.2 C 76 % -2.55 C
652 14-12-2018 06:20:00 1.2 C 76 % -2.55 C
653 14-12-2018 06:25:00 1.2 C 75 % -2.73 C
654 14-12-2018 06:30:00 1.2 C 74 % -2.91 C
655 14-12-2018 06:35:00 1.2 C 75 % -2.73 C
656 14-12-2018 06:40:00 1.2 C 73 % -3.09 C
657 14-12-2018 06:45:00 1.2 C 72 % -3.27 C
658 14-12-2018 06:50:00 1.2 C 74 % -2.91 C
659 14-12-2018 06:55:00 1.2 C 74 % -2.91 C
660 14-12-2018 07:00:00 1.2 C 73 % -3.09 C
661 14-12-2018 07:05:00 1.2 C 73 % -3.09 C
662 14-12-2018 07:10:00 1.2 C 74 % -2.91 C
663 14-12-2018 07:15:00 1.2 C 76 % -2.55 C
664 14-12-2018 07:20:00 1.2 C 76 % -2.55 C
665 14-12-2018 07:25:00 1.1 C 75 % -2.82 C
666 14-12-2018 07:30:00 1.1 C 77 % -2.47 C
667 14-12-2018 07:35:00 1 C 77 % -2.57 C
668 14-12-2018 07:40:00 1 C 77 % -2.57 C
669 14-12-2018 07:45:00 0.9 C 78 % -2.49 C
670 14-12-2018 07:50:00 0.9 C 77 % -2.66 C
671 14-12-2018 07:55:00 0.9 C 78 % -2.49 C
672 14-12-2018 08:00:00 0.8 C 78 % -2.59 C
673 14-12-2018 08:05:00 0.8 C 78 % -2.59 C
674 14-12-2018 08:10:00 0.8 C 79 % -2.42 C
675 14-12-2018 08:15:00 0.8 C 79 % -2.42 C
Sensor: Nr:Datum:Temp:Feuchte:Taupunkt:
Aussen-T/F 676 14-12-2018 08:20:00 0.8 C 80 % -2.25 C
677 14-12-2018 08:25:00 0.8 C 79 % -2.42 C
678 14-12-2018 08:30:00 0.8 C 79 % -2.42 C
679 14-12-2018 08:35:00 0.8 C 80 % -2.25 C
680 14-12-2018 08:40:00 0.7 C 79 % -2.51 C
681 14-12-2018 08:45:00 0.7 C 79 % -2.51 C
682 14-12-2018 08:50:00 0.7 C 79 % -2.51 C
683 14-12-2018 08:55:00 0.8 C 79 % -2.42 C
684 14-12-2018 09:00:00 0.8 C 80 % -2.25 C
685 14-12-2018 09:05:00 0.8 C 81 % -2.08 C
686 14-12-2018 09:10:00 0.8 C 81 % -2.08 C
687 14-12-2018 09:15:00 0.8 C 81 % -2.08 C
688 14-12-2018 09:20:00 0.9 C 81 % -1.98 C
689 14-12-2018 09:25:00 0.8 C 80 % -2.25 C
690 14-12-2018 09:30:00 0.9 C 81 % -1.98 C
691 14-12-2018 09:35:00 0.9 C 82 % -1.82 C
692 14-12-2018 09:40:00 0.9 C 80 % -2.15 C
693 14-12-2018 09:45:00 1 C 80 % -2.05 C
694 14-12-2018 09:50:00 1 C 79 % -2.22 C
695 14-12-2018 09:55:00 1.1 C 79 % -2.12 C
696 14-12-2018 10:00:00 1.2 C 79 % -2.03 C
697 14-12-2018 10:05:00 1.2 C 80 % -1.86 C
698 14-12-2018 10:10:00 1.2 C 79 % -2.03 C
699 14-12-2018 10:15:00 1.2 C 78 % -2.2 C
700 14-12-2018 10:20:00 1.3 C 77 % -2.28 C
Sensor: Nr:Datum:Temp:Feuchte:Taupunkt:
Aussen-T/F 701 14-12-2018 10:25:00 1.3 C 77 % -2.28 C
702 14-12-2018 10:30:00 1.4 C 77 % -2.18 C
703 14-12-2018 10:35:00 1.4 C 77 % -2.18 C
704 14-12-2018 10:40:00 1.4 C 77 % -2.18 C
705 14-12-2018 10:45:00 1.4 C 77 % -2.18 C
706 14-12-2018 10:50:00 1.5 C 76 % -2.26 C
707 14-12-2018 10:55:00 1.5 C 76 % -2.26 C
708 14-12-2018 11:00:00 1.5 C 76 % -2.26 C
709 14-12-2018 11:05:00 1.6 C 76 % -2.16 C
710 14-12-2018 11:10:00 1.6 C 76 % -2.16 C
711 14-12-2018 11:15:00 1.6 C 76 % -2.16 C
712 14-12-2018 11:20:00 1.5 C 76 % -2.26 C
713 14-12-2018 11:25:00 1.5 C 76 % -2.26 C
714 14-12-2018 11:30:00 1.5 C 77 % -2.08 C
715 14-12-2018 11:35:00 1.5 C 77 % -2.08 C
716 14-12-2018 11:40:00 1.6 C 77 % -1.99 C
717 14-12-2018 11:45:00 1.6 C 77 % -1.99 C
718 14-12-2018 11:50:00 1.6 C 77 % -1.99 C
719 14-12-2018 11:55:00 1.6 C 77 % -1.99 C
720 14-12-2018 12:00:00 1.6 C 77 % -1.99 C
721 14-12-2018 12:05:00 1.6 C 76 % -2.16 C
722 14-12-2018 12:10:00 1.7 C 77 % -1.89 C
723 14-12-2018 12:15:00 1.7 C 76 % -2.07 C
724 14-12-2018 12:20:00 1.7 C 76 % -2.07 C
725 14-12-2018 12:25:00 1.6 C 76 % -2.16 C
Sensor: Nr:Datum:Temp:Feuchte:Taupunkt:
Aussen-T/F 726 14-12-2018 12:30:00 1.6 C 76 % -2.16 C
727 14-12-2018 12:35:00 1.6 C 76 % -2.16 C
728 14-12-2018 12:40:00 1.7 C 76 % -2.07 C
729 14-12-2018 12:45:00 1.7 C 75 % -2.24 C
730 14-12-2018 12:50:00 1.7 C 75 % -2.24 C
731 14-12-2018 12:55:00 1.7 C 75 % -2.24 C
732 14-12-2018 13:00:00 1.7 C 76 % -2.07 C
733 14-12-2018 13:05:00 1.7 C 76 % -2.07 C
734 14-12-2018 13:10:00 1.7 C 75 % -2.24 C
735 14-12-2018 13:15:00 1.7 C 75 % -2.24 C
736 14-12-2018 13:20:00 1.7 C 75 % -2.24 C
737 14-12-2018 13:25:00 1.7 C 75 % -2.24 C
738 14-12-2018 13:30:00 1.7 C 76 % -2.07 C
739 14-12-2018 13:35:00 1.7 C 74 % -2.42 C
740 14-12-2018 13:40:00 1.7 C 75 % -2.24 C
741 14-12-2018 13:45:00 1.7 C 75 % -2.24 C
742 14-12-2018 13:50:00 1.7 C 75 % -2.24 C
743 14-12-2018 13:55:00 1.7 C 75 % -2.24 C
744 14-12-2018 14:00:00 1.7 C 75 % -2.24 C
745 14-12-2018 14:05:00 1.7 C 75 % -2.24 C
746 14-12-2018 14:10:00 1.7 C 75 % -2.24 C
747 14-12-2018 14:15:00 1.8 C 75 % -2.15 C
748 14-12-2018 14:20:00 1.7 C 74 % -2.42 C
749 14-12-2018 14:25:00 1.7 C 76 % -2.07 C
750 14-12-2018 14:30:00 1.7 C 75 % -2.24 C
Sensor: Nr:Datum:Temp:Feuchte:Taupunkt:
Aussen-T/F 751 14-12-2018 14:35:00 1.7 C 75 % -2.24 C
752 14-12-2018 14:40:00 1.7 C 75 % -2.24 C
753 14-12-2018 14:45:00 1.7 C 75 % -2.24 C
754 14-12-2018 14:50:00 1.7 C 76 % -2.07 C
755 14-12-2018 14:55:00 1.7 C 75 % -2.24 C
756 14-12-2018 15:00:00 1.7 C 75 % -2.24 C
757 14-12-2018 15:05:00 1.7 C 74 % -2.42 C
758 14-12-2018 15:10:00 1.7 C 75 % -2.24 C
759 14-12-2018 15:15:00 1.7 C 75 % -2.24 C
760 14-12-2018 15:20:00 1.6 C 75 % -2.34 C
761 14-12-2018 15:25:00 1.6 C 75 % -2.34 C
762 14-12-2018 15:30:00 1.6 C 76 % -2.16 C
763 14-12-2018 15:35:00 1.6 C 75 % -2.34 C
764 14-12-2018 15:40:00 1.6 C 76 % -2.16 C
765 14-12-2018 15:45:00 1.6 C 76 % -2.16 C
766 14-12-2018 15:50:00 1.5 C 76 % -2.26 C
767 14-12-2018 15:55:00 1.5 C 77 % -2.08 C
768 14-12-2018 16:00:00 1.5 C 77 % -2.08 C
769 14-12-2018 16:05:00 1.5 C 78 % -1.91 C
770 14-12-2018 16:10:00 1.4 C 75 % -2.53 C
771 14-12-2018 16:15:00 1.4 C 75 % -2.53 C
772 14-12-2018 16:20:00 1.4 C 76 % -2.36 C
773 14-12-2018 16:25:00 1.4 C 76 % -2.36 C
774 14-12-2018 16:30:00 1.4 C 77 % -2.18 C
775 14-12-2018 16:35:00 1.4 C 77 % -2.18 C
Sensor: Nr:Datum:Temp:Feuchte:Taupunkt:
Aussen-T/F 776 14-12-2018 16:40:00 1.3 C 76 % -2.45 C
777 14-12-2018 16:45:00 1.3 C 78 % -2.1 C
778 14-12-2018 16:50:00 1.3 C 78 % -2.1 C
779 14-12-2018 16:55:00 1.2 C 79 % -2.03 C
780 14-12-2018 17:00:00 1.2 C 79 % -2.03 C
781 14-12-2018 17:05:00 1.1 C 80 % -1.96 C
782 14-12-2018 17:10:00 1.1 C 79 % -2.12 C
783 14-12-2018 17:15:00 1.1 C 80 % -1.96 C
784 14-12-2018 17:20:00 1 C 80 % -2.05 C
785 14-12-2018 17:25:00 0.9 C 80 % -2.15 C
786 14-12-2018 17:30:00 0.9 C 81 % -1.98 C
787 14-12-2018 17:35:00 0.9 C 81 % -1.98 C
788 14-12-2018 17:40:00 0.9 C 80 % -2.15 C
789 14-12-2018 17:45:00 0.9 C 79 % -2.32 C
790 14-12-2018 17:50:00 0.9 C 79 % -2.32 C
791 14-12-2018 17:55:00 0.9 C 80 % -2.15 C
792 14-12-2018 18:00:00 0.9 C 80 % -2.15 C
793 14-12-2018 18:05:00 0.9 C 78 % -2.49 C
794 14-12-2018 18:10:00 0.9 C 77 % -2.66 C
795 14-12-2018 18:15:00 1.1 C 76 % -2.65 C
796 14-12-2018 18:20:00 1.1 C 76 % -2.65 C
797 14-12-2018 18:25:00 1.1 C 77 % -2.47 C
798 14-12-2018 18:30:00 1.2 C 78 % -2.2 C
799 14-12-2018 18:35:00 1.1 C 79 % -2.12 C
800 14-12-2018 18:40:00 1.1 C 79 % -2.12 C
Sensor: Nr:Datum:Temp:Feuchte:Taupunkt:
Aussen-T/F 801 14-12-2018 18:45:00 1 C 80 % -2.05 C
802 14-12-2018 18:50:00 1 C 80 % -2.05 C
803 14-12-2018 18:55:00 0.9 C 79 % -2.32 C
804 14-12-2018 19:00:00 0.9 C 79 % -2.32 C
805 14-12-2018 19:05:00 0.8 C 79 % -2.42 C
806 14-12-2018 19:10:00 0.8 C 80 % -2.25 C
807 14-12-2018 19:15:00 0.8 C 78 % -2.59 C
808 14-12-2018 19:20:00 0.8 C 79 % -2.42 C
809 14-12-2018 19:25:00 0.8 C 77 % -2.76 C
810 14-12-2018 19:30:00 0.9 C 77 % -2.66 C
811 14-12-2018 19:35:00 0.9 C 78 % -2.49 C
812 14-12-2018 19:40:00 0.9 C 79 % -2.32 C
813 14-12-2018 19:45:00 0.9 C 78 % -2.49 C
814 14-12-2018 19:50:00 0.9 C 77 % -2.66 C
815 14-12-2018 19:55:00 0.9 C 78 % -2.49 C
816 14-12-2018 20:00:00 0.9 C 79 % -2.32 C
817 14-12-2018 20:05:00 0.9 C 79 % -2.32 C
818 14-12-2018 20:10:00 0.8 C 79 % -2.42 C
819 14-12-2018 20:15:00 0.8 C 79 % -2.42 C
820 14-12-2018 20:20:00 0.8 C 80 % -2.25 C
821 14-12-2018 20:25:00 0.8 C 79 % -2.42 C
822 14-12-2018 20:30:00 0.8 C 79 % -2.42 C
823 14-12-2018 20:35:00 0.8 C 80 % -2.25 C
824 14-12-2018 20:40:00 0.8 C 79 % -2.42 C
825 14-12-2018 20:45:00 0.8 C 80 % -2.25 C
Sensor: Nr:Datum:Temp:Feuchte:Taupunkt:
Aussen-T/F 826 14-12-2018 20:50:00 0.7 C 77 % -2.86 C
827 14-12-2018 20:55:00 0.8 C 78 % -2.59 C
828 14-12-2018 21:00:00 0.8 C 78 % -2.59 C
829 14-12-2018 21:05:00 0.8 C 79 % -2.42 C
830 14-12-2018 21:10:00 0.8 C 77 % -2.76 C
831 14-12-2018 21:15:00 0.8 C 77 % -2.76 C
832 14-12-2018 21:20:00 0.8 C 77 % -2.76 C
833 14-12-2018 21:25:00 0.8 C 78 % -2.59 C
834 14-12-2018 21:30:00 0.8 C 78 % -2.59 C
835 14-12-2018 21:35:00 0.8 C 78 % -2.59 C
836 14-12-2018 21:40:00 0.7 C 76 % -3.03 C
837 14-12-2018 21:45:00 0.7 C 76 % -3.03 C
838 14-12-2018 21:50:00 0.7 C 76 % -3.03 C
839 14-12-2018 21:55:00 0.7 C 76 % -3.03 C
840 14-12-2018 22:00:00 0.7 C 76 % -3.03 C
841 14-12-2018 22:05:00 0.7 C 76 % -3.03 C
842 14-12-2018 22:10:00 0.7 C 76 % -3.03 C
843 14-12-2018 22:15:00 0.7 C 75 % -3.21 C
844 14-12-2018 22:20:00 0.6 C 74 % -3.49 C
845 14-12-2018 22:25:00 0.6 C 74 % -3.49 C
846 14-12-2018 22:30:00 0.6 C 76 % -3.13 C
847 14-12-2018 22:35:00 0.6 C 78 % -2.78 C
848 14-12-2018 22:40:00 0.6 C 76 % -3.13 C
849 14-12-2018 22:45:00 0.5 C 75 % -3.4 C
850 14-12-2018 22:50:00 0.5 C 74 % -3.58 C
Sensor: Nr:Datum:Temp:Feuchte:Taupunkt:
Aussen-T/F 851 14-12-2018 22:55:00 0.5 C 75 % -3.4 C
852 14-12-2018 23:00:00 0.4 C 75 % -3.5 C
853 14-12-2018 23:05:00 0.5 C 75 % -3.4 C
854 14-12-2018 23:10:00 0.5 C 75 % -3.4 C
855 14-12-2018 23:15:00 0.5 C 74 % -3.58 C
856 14-12-2018 23:20:00 0.4 C 75 % -3.5 C
857 14-12-2018 23:25:00 0.4 C 75 % -3.5 C
858 14-12-2018 23:30:00 0.4 C 75 % -3.5 C
859 14-12-2018 23:35:00 0.5 C 76 % -3.23 C
860 14-12-2018 23:40:00 0.4 C 78 % -2.98 C
861 14-12-2018 23:45:00 0.4 C 77 % -3.15 C
862 14-12-2018 23:50:00 0.3 C 78 % -3.07 C
863 14-12-2018 23:55:00 0.3 C 78 % -3.07 C
864 15-12-2018 00:00:00 0.3 C 78 % -3.07 C
865 15-12-2018 00:05:00 0.2 C 78 % -3.17 C
866 15-12-2018 00:10:00 0.2 C 78 % -3.17 C
867 15-12-2018 00:15:00 0.2 C 79 % -3 C
868 15-12-2018 00:20:00 0.2 C 78 % -3.17 C
869 15-12-2018 00:25:00 0.2 C 79 % -3 C
870 15-12-2018 00:30:00 0.2 C 79 % -3 C
871 15-12-2018 00:35:00 0.1 C 79 % -3.1 C
872 15-12-2018 00:40:00 0.1 C 79 % -3.1 C
873 15-12-2018 00:45:00 0.1 C 79 % -3.1 C
874 15-12-2018 00:50:00 0.1 C 79 % -3.1 C
875 15-12-2018 00:55:00 0.1 C 79 % -3.1 C
Sensor: Nr:Datum:Temp:Feuchte:Taupunkt:
Aussen-T/F 876 15-12-2018 01:00:00 0.1 C 80 % -2.93 C
877 15-12-2018 01:05:00 0.1 C 80 % -2.93 C
878 15-12-2018 01:10:00 0.1 C 80 % -2.93 C
879 15-12-2018 01:15:00 0.1 C 79 % -3.1 C
880 15-12-2018 01:20:00 0.1 C 80 % -2.93 C
881 15-12-2018 01:25:00 0.1 C 79 % -3.1 C
882 15-12-2018 01:30:00 0.1 C 80 % -2.93 C
883 15-12-2018 01:35:00 0.1 C 80 % -2.93 C
884 15-12-2018 01:40:00 0.1 C 80 % -2.93 C
885 15-12-2018 01:45:00 0.1 C 81 % -2.76 C
886 15-12-2018 01:50:00 0.1 C 81 % -2.76 C
887 15-12-2018 01:55:00 0.1 C 81 % -2.76 C
888 15-12-2018 02:00:00 0.1 C 80 % -2.93 C
889 15-12-2018 02:05:00 0.1 C 81 % -2.76 C
890 15-12-2018 02:10:00 0.1 C 81 % -2.76 C
891 15-12-2018 02:15:00 0.1 C 81 % -2.76 C
892 15-12-2018 02:20:00 0.2 C 81 % -2.67 C
893 15-12-2018 02:25:00 0.2 C 81 % -2.67 C
894 15-12-2018 02:30:00 0.2 C 81 % -2.67 C
895 15-12-2018 02:35:00 0.2 C 81 % -2.67 C
896 15-12-2018 02:40:00 0.1 C 80 % -2.93 C
897 15-12-2018 02:45:00 0.1 C 81 % -2.76 C
898 15-12-2018 02:50:00 0.2 C 81 % -2.67 C
899 15-12-2018 02:55:00 0.1 C 81 % -2.76 C
900 15-12-2018 03:00:00 0.1 C 81 % -2.76 C
Sensor: Nr:Datum:Temp:Feuchte:Taupunkt:
Aussen-T/F 901 15-12-2018 03:05:00 0.1 C 81 % -2.76 C
902 15-12-2018 03:10:00 0.1 C 81 % -2.76 C
903 15-12-2018 03:15:00 0.1 C 81 % -2.76 C
904 15-12-2018 03:20:00 0.2 C 81 % -2.67 C
905 15-12-2018 03:25:00 0.2 C 81 % -2.67 C
906 15-12-2018 03:30:00 0.2 C 82 % -2.5 C
907 15-12-2018 03:35:00 0.2 C 81 % -2.67 C
908 15-12-2018 03:40:00 0.2 C 81 % -2.67 C
909 15-12-2018 03:45:00 0.2 C 81 % -2.67 C
910 15-12-2018 03:50:00 0.2 C 80 % -2.83 C
911 15-12-2018 03:55:00 0.2 C 81 % -2.67 C
912 15-12-2018 04:00:00 0.2 C 81 % -2.67 C
913 15-12-2018 04:05:00 0.2 C 82 % -2.5 C
914 15-12-2018 04:10:00 0.2 C 82 % -2.5 C
915 15-12-2018 04:15:00 0.2 C 81 % -2.67 C
916 15-12-2018 04:20:00 0.2 C 81 % -2.67 C
917 15-12-2018 04:25:00 0.2 C 80 % -2.83 C
918 15-12-2018 04:30:00 0.2 C 80 % -2.83 C
919 15-12-2018 04:35:00 0.2 C 80 % -2.83 C
920 15-12-2018 04:40:00 0.2 C 81 % -2.67 C
921 15-12-2018 04:45:00 0.2 C 81 % -2.67 C
922 15-12-2018 04:50:00 0.2 C 81 % -2.67 C
923 15-12-2018 04:55:00 0.2 C 81 % -2.67 C
924 15-12-2018 05:00:00 0.2 C 81 % -2.67 C
925 15-12-2018 05:05:00 0.2 C 82 % -2.5 C
Sensor: Nr:Datum:Temp:Feuchte:Taupunkt:
Aussen-T/F 926 15-12-2018 05:10:00 0.3 C 82 % -2.4 C
927 15-12-2018 05:15:00 0.3 C 82 % -2.4 C
928 15-12-2018 05:20:00 0.3 C 82 % -2.4 C
929 15-12-2018 05:25:00 0.2 C 82 % -2.5 C
930 15-12-2018 05:30:00 0.2 C 82 % -2.5 C
931 15-12-2018 05:35:00 0.2 C 81 % -2.67 C
932 15-12-2018 05:40:00 0.2 C 81 % -2.67 C
933 15-12-2018 05:45:00 0.2 C 81 % -2.67 C
934 15-12-2018 05:50:00 0.2 C 82 % -2.5 C
935 15-12-2018 05:55:00 0.2 C 82 % -2.5 C
936 15-12-2018 06:00:00 0.2 C 83 % -2.34 C
937 15-12-2018 06:05:00 0.2 C 83 % -2.34 C
938 15-12-2018 06:10:00 0.2 C 82 % -2.5 C
939 15-12-2018 06:15:00 0.2 C 81 % -2.67 C
940 15-12-2018 06:20:00 0.2 C 82 % -2.5 C
941 15-12-2018 06:25:00 0.2 C 82 % -2.5 C
942 15-12-2018 06:30:00 0.2 C 82 % -2.5 C
943 15-12-2018 06:35:00 0.2 C 82 % -2.5 C
944 15-12-2018 06:40:00 0.2 C 83 % -2.34 C
945 15-12-2018 06:45:00 0.2 C 83 % -2.34 C
946 15-12-2018 06:50:00 0.2 C 83 % -2.34 C
947 15-12-2018 06:55:00 0.2 C 83 % -2.34 C
948 15-12-2018 07:00:00 0.2 C 83 % -2.34 C
949 15-12-2018 07:05:00 0.2 C 83 % -2.34 C
950 15-12-2018 07:10:00 0.2 C 82 % -2.5 C
Sensor: Nr:Datum:Temp:Feuchte:Taupunkt:
Aussen-T/F 951 15-12-2018 07:15:00 0.2 C 82 % -2.5 C
952 15-12-2018 07:20:00 0.2 C 82 % -2.5 C
953 15-12-2018 07:25:00 0.2 C 83 % -2.34 C
954 15-12-2018 07:30:00 0.2 C 83 % -2.34 C
955 15-12-2018 07:35:00 0.2 C 83 % -2.34 C
956 15-12-2018 07:40:00 0.2 C 83 % -2.34 C
957 15-12-2018 07:45:00 0.2 C 83 % -2.34 C
958 15-12-2018 07:50:00 0.2 C 83 % -2.34 C
959 15-12-2018 07:55:00 0.2 C 83 % -2.34 C
960 15-12-2018 08:00:00 0.2 C 83 % -2.34 C
961 15-12-2018 08:05:00 0.3 C 83 % -2.24 C
962 15-12-2018 08:10:00 0.2 C 83 % -2.34 C
963 15-12-2018 08:15:00 0.3 C 83 % -2.24 C
964 15-12-2018 08:20:00 0.3 C 83 % -2.24 C
965 15-12-2018 08:25:00 0.2 C 83 % -2.34 C
966 15-12-2018 08:30:00 0.3 C 84 % -2.08 C
967 15-12-2018 08:35:00 0.3 C 84 % -2.08 C
968 15-12-2018 08:40:00 0.3 C 84 % -2.08 C
969 15-12-2018 08:45:00 0.3 C 84 % -2.08 C
970 15-12-2018 08:50:00 0.3 C 84 % -2.08 C
971 15-12-2018 08:55:00 0.3 C 84 % -2.08 C
972 15-12-2018 09:00:00 0.3 C 84 % -2.08 C
973 15-12-2018 09:05:00 0.3 C 83 % -2.24 C
974 15-12-2018 09:10:00 0.3 C 83 % -2.24 C
975 15-12-2018 09:15:00 0.4 C 83 % -2.14 C
Sensor: Nr:Datum:Temp:Feuchte:Taupunkt:
Aussen-T/F 976 15-12-2018 09:20:00 0.4 C 83 % -2.14 C
977 15-12-2018 09:25:00 0.4 C 83 % -2.14 C
978 15-12-2018 09:30:00 0.4 C 83 % -2.14 C
979 15-12-2018 09:35:00 0.4 C 84 % -1.98 C
980 15-12-2018 09:40:00 0.5 C 84 % -1.88 C
981 15-12-2018 09:45:00 0.5 C 84 % -1.88 C
982 15-12-2018 09:50:00 0.6 C 84 % -1.78 C
983 15-12-2018 09:55:00 0.6 C 84 % -1.78 C
984 15-12-2018 10:00:00 0.6 C 83 % -1.95 C
985 15-12-2018 10:05:00 0.7 C 82 % -2.01 C
986 15-12-2018 10:10:00 0.7 C 83 % -1.85 C
987 15-12-2018 10:15:00 0.7 C 83 % -1.85 C
988 15-12-2018 10:20:00 0.8 C 83 % -1.75 C
989 15-12-2018 10:25:00 0.8 C 83 % -1.75 C
990 15-12-2018 10:30:00 0.8 C 82 % -1.91 C
991 15-12-2018 10:35:00 0.9 C 80 % -2.15 C
992 15-12-2018 10:40:00 0.9 C 80 % -2.15 C
993 15-12-2018 10:45:00 1 C 80 % -2.05 C
994 15-12-2018 10:50:00 1.1 C 81 % -1.79 C
995 15-12-2018 10:55:00 1.1 C 80 % -1.96 C
996 15-12-2018 11:00:00 1.1 C 79 % -2.12 C
997 15-12-2018 11:05:00 1.2 C 78 % -2.2 C
998 15-12-2018 11:10:00 1.2 C 78 % -2.2 C
999 15-12-2018 11:15:00 1.2 C 78 % -2.2 C
1000 15-12-2018 11:20:00 1.3 C 78 % -2.1 C
Sensor: Nr:Datum:Temp:Feuchte:Taupunkt:
Aussen-T/F 1001 15-12-2018 11:25:00 1.3 C 76 % -2.45 C
1002 15-12-2018 11:30:00 1.3 C 77 % -2.28 C
1003 15-12-2018 11:35:00 1.4 C 77 % -2.18 C
1004 15-12-2018 11:40:00 1.4 C 77 % -2.18 C
1005 15-12-2018 11:45:00 1.4 C 76 % -2.36 C
1006 15-12-2018 11:50:00 1.4 C 76 % -2.36 C
1007 15-12-2018 11:55:00 1.5 C 76 % -2.26 C
1008 15-12-2018 12:00:00 1.6 C 76 % -2.16 C
1009 15-12-2018 12:05:00 1.6 C 76 % -2.16 C
1010 15-12-2018 12:10:00 1.6 C 76 % -2.16 C
1011 15-12-2018 12:15:00 1.6 C 76 % -2.16 C
1012 15-12-2018 12:20:00 1.6 C 75 % -2.34 C
1013 15-12-2018 12:25:00 1.7 C 74 % -2.42 C
1014 15-12-2018 12:30:00 1.7 C 74 % -2.42 C
1015 15-12-2018 12:35:00 1.7 C 74 % -2.42 C
1016 15-12-2018 12:40:00 1.7 C 74 % -2.42 C
1017 15-12-2018 12:45:00 1.8 C 74 % -2.33 C
1018 15-12-2018 12:50:00 1.8 C 74 % -2.33 C
1019 15-12-2018 12:55:00 1.8 C 73 % -2.51 C
1020 15-12-2018 13:00:00 1.9 C 74 % -2.23 C
1021 15-12-2018 13:05:00 1.9 C 73 % -2.41 C
1022 15-12-2018 13:10:00 1.9 C 73 % -2.41 C
1023 15-12-2018 13:15:00 1.9 C 74 % -2.23 C
1024 15-12-2018 13:20:00 1.9 C 72 % -2.6 C
1025 15-12-2018 13:25:00 1.9 C 73 % -2.41 C
Sensor: Nr:Datum:Temp:Feuchte:Taupunkt:
Aussen-T/F 1026 15-12-2018 13:30:00 1.9 C 73 % -2.41 C
1027 15-12-2018 13:35:00 1.9 C 73 % -2.41 C
1028 15-12-2018 13:40:00 1.9 C 73 % -2.41 C
1029 15-12-2018 13:45:00 1.9 C 73 % -2.41 C
1030 15-12-2018 13:50:00 1.9 C 74 % -2.23 C
1031 15-12-2018 13:55:00 1.9 C 73 % -2.41 C
1032 15-12-2018 14:00:00 1.9 C 72 % -2.6 C
1033 15-12-2018 14:05:00 1.9 C 72 % -2.6 C
1034 15-12-2018 14:10:00 1.8 C 72 % -2.7 C
1035 15-12-2018 14:15:00 1.8 C 72 % -2.7 C
1036 15-12-2018 14:20:00 1.8 C 73 % -2.51 C
1037 15-12-2018 14:25:00 1.8 C 74 % -2.33 C
1038 15-12-2018 14:30:00 1.8 C 73 % -2.51 C
1039 15-12-2018 14:35:00 1.8 C 72 % -2.7 C
1040 15-12-2018 14:40:00 1.8 C 73 % -2.51 C
1041 15-12-2018 14:45:00 1.8 C 73 % -2.51 C
1042 15-12-2018 14:50:00 1.8 C 73 % -2.51 C
1043 15-12-2018 14:55:00 1.8 C 73 % -2.51 C
1044 15-12-2018 15:00:00 1.7 C 73 % -2.61 C
1045 15-12-2018 15:05:00 1.7 C 73 % -2.61 C
1046 15-12-2018 15:10:00 1.7 C 73 % -2.61 C
1047 15-12-2018 15:15:00 1.7 C 73 % -2.61 C
1048 15-12-2018 15:20:00 1.7 C 73 % -2.61 C
1049 15-12-2018 15:25:00 1.7 C 73 % -2.61 C
1050 15-12-2018 15:30:00 1.6 C 73 % -2.7 C
Sensor: Nr:Datum:Temp:Feuchte:Taupunkt:
Aussen-T/F 1051 15-12-2018 15:35:00 1.6 C 73 % -2.7 C
1052 15-12-2018 15:40:00 1.6 C 73 % -2.7 C
1053 15-12-2018 15:45:00 1.6 C 73 % -2.7 C
1054 15-12-2018 15:50:00 1.6 C 73 % -2.7 C
1055 15-12-2018 15:55:00 1.5 C 73 % -2.8 C
1056 15-12-2018 16:00:00 1.5 C 74 % -2.62 C
1057 15-12-2018 16:05:00 1.5 C 74 % -2.62 C
1058 15-12-2018 16:10:00 1.4 C 74 % -2.71 C
1059 15-12-2018 16:15:00 1.4 C 74 % -2.71 C
1060 15-12-2018 16:20:00 1.4 C 74 % -2.71 C
1061 15-12-2018 16:25:00 1.3 C 74 % -2.81 C
1062 15-12-2018 16:30:00 1.3 C 75 % -2.63 C
1063 15-12-2018 16:35:00 1.3 C 74 % -2.81 C
1064 15-12-2018 16:40:00 1.3 C 75 % -2.63 C
1065 15-12-2018 16:45:00 1.3 C 74 % -2.81 C
1066 15-12-2018 16:50:00 1.3 C 74 % -2.81 C
1067 15-12-2018 16:55:00 1.2 C 74 % -2.91 C
1068 15-12-2018 17:00:00 1.2 C 75 % -2.73 C
1069 15-12-2018 17:05:00 1.2 C 74 % -2.91 C
1070 15-12-2018 17:10:00 1.2 C 74 % -2.91 C
1071 15-12-2018 17:15:00 1.2 C 75 % -2.73 C
1072 15-12-2018 17:20:00 1.2 C 74 % -2.91 C
1073 15-12-2018 17:25:00 1.2 C 74 % -2.91 C
1074 15-12-2018 17:30:00 1.2 C 75 % -2.73 C
1075 15-12-2018 17:35:00 1.2 C 75 % -2.73 C
Sensor: Nr:Datum:Temp:Feuchte:Taupunkt:
Aussen-T/F 1076 15-12-2018 17:40:00 1.1 C 75 % -2.82 C
1077 15-12-2018 17:45:00 1.1 C 75 % -2.82 C
1078 15-12-2018 17:50:00 1.1 C 75 % -2.82 C
1079 15-12-2018 17:55:00 1.2 C 74 % -2.91 C
1080 15-12-2018 18:00:00 1.2 C 75 % -2.73 C
1081 15-12-2018 18:05:00 1.1 C 74 % -3 C
1082 15-12-2018 18:10:00 1.2 C 74 % -2.91 C
1083 15-12-2018 18:15:00 1.2 C 75 % -2.73 C
1084 15-12-2018 18:20:00 1.2 C 74 % -2.91 C
1085 15-12-2018 18:25:00 1.2 C 74 % -2.91 C
1086 15-12-2018 18:30:00 1.2 C 74 % -2.91 C
1087 15-12-2018 18:35:00 1.2 C 75 % -2.73 C
1088 15-12-2018 18:40:00 1.2 C 75 % -2.73 C
1089 15-12-2018 18:45:00 1.1 C 76 % -2.65 C
1090 15-12-2018 18:50:00 1.1 C 76 % -2.65 C
1091 15-12-2018 18:55:00 1.1 C 76 % -2.65 C
1092 15-12-2018 19:00:00 1 C 75 % -2.92 C
1093 15-12-2018 19:05:00 1.1 C 75 % -2.82 C
1094 15-12-2018 19:10:00 1.1 C 75 % -2.82 C
1095 15-12-2018 19:15:00 1.1 C 76 % -2.65 C
1096 15-12-2018 19:20:00 0.9 C 75 % -3.02 C
1097 15-12-2018 19:25:00 0.9 C 75 % -3.02 C
1098 15-12-2018 19:30:00 0.8 C 75 % -3.11 C
1099 15-12-2018 19:35:00 0.8 C 76 % -2.94 C
1100 15-12-2018 19:40:00 0.7 C 76 % -3.03 C
Sensor: Nr:Datum:Temp:Feuchte:Taupunkt:
Aussen-T/F 1101 15-12-2018 19:45:00 0.7 C 77 % -2.86 C
1102 15-12-2018 19:50:00 0.5 C 77 % -3.05 C
1103 15-12-2018 19:55:00 0.4 C 77 % -3.15 C
1104 15-12-2018 20:00:00 0.3 C 78 % -3.07 C
1105 15-12-2018 20:05:00 0.3 C 78 % -3.07 C
1106 15-12-2018 20:10:00 0.3 C 78 % -3.07 C
1107 15-12-2018 20:15:00 0.2 C 78 % -3.17 C
1108 15-12-2018 20:20:00 0.1 C 79 % -3.1 C
1109 15-12-2018 20:25:00 0.1 C 79 % -3.1 C
1110 15-12-2018 20:30:00 0 C 79 % -3.2 C
1111 15-12-2018 20:35:00 0 C 80 % -3.03 C
1112 15-12-2018 20:40:00 -0.1 C 80 % -3.13 C
1113 15-12-2018 20:45:00 -0.2 C 80 % -3.23 C
1114 15-12-2018 20:50:00 -0.3 C 81 % -3.16 C
1115 15-12-2018 20:55:00 -0.4 C 81 % -3.25 C
1116 15-12-2018 21:00:00 -0.4 C 81 % -3.25 C
1117 15-12-2018 21:05:00 -0.4 C 81 % -3.25 C
1118 15-12-2018 21:10:00 -0.6 C 82 % -3.29 C
1119 15-12-2018 21:15:00 -0.7 C 81 % -3.55 C
1120 15-12-2018 21:20:00 -0.7 C 82 % -3.38 C
1121 15-12-2018 21:25:00 -0.6 C 82 % -3.29 C
1122 15-12-2018 21:30:00 -0.4 C 81 % -3.25 C
1123 15-12-2018 21:35:00 -0.3 C 80 % -3.32 C
1124 15-12-2018 21:40:00 -0.2 C 79 % -3.39 C
1125 15-12-2018 21:45:00 -0.2 C 81 % -3.06 C
Sensor: Nr:Datum:Temp:Feuchte:Taupunkt:
Aussen-T/F 1126 15-12-2018 21:50:00 -0.3 C 81 % -3.16 C
1127 15-12-2018 21:55:00 -0.4 C 81 % -3.25 C
1128 15-12-2018 22:00:00 -0.5 C 81 % -3.35 C
1129 15-12-2018 22:05:00 -0.5 C 81 % -3.35 C
1130 15-12-2018 22:10:00 -0.5 C 81 % -3.35 C
1131 15-12-2018 22:15:00 -0.5 C 81 % -3.35 C
1132 15-12-2018 22:20:00 -0.5 C 81 % -3.35 C
1133 15-12-2018 22:30:00 -0.6 C 82 % -3.29 C
1134 15-12-2018 22:35:00 -0.6 C 82 % -3.29 C
1135 15-12-2018 22:40:00 -0.7 C 82 % -3.38 C
1136 15-12-2018 22:45:00 -0.7 C 82 % -3.38 C
1137 15-12-2018 22:50:00 -0.7 C 82 % -3.38 C
1138 15-12-2018 22:55:00 -0.6 C 82 % -3.29 C
1139 15-12-2018 23:00:00 -0.3 C 80 % -3.32 C
1140 15-12-2018 23:05:00 -0.2 C 80 % -3.23 C
1141 15-12-2018 23:10:00 0 C 79 % -3.2 C
1142 15-12-2018 23:15:00 0.1 C 78 % -3.27 C
1143 15-12-2018 23:20:00 0.1 C 78 % -3.27 C
1144 15-12-2018 23:25:00 0.2 C 78 % -3.17 C
1145 15-12-2018 23:30:00 0.2 C 78 % -3.17 C
1146 15-12-2018 23:35:00 0.2 C 78 % -3.17 C
1147 15-12-2018 23:40:00 0.2 C 78 % -3.17 C
1148 15-12-2018 23:45:00 0.3 C 77 % -3.25 C
1149 15-12-2018 23:50:00 0.3 C 78 % -3.07 C
1150 15-12-2018 23:55:00 0.3 C 78 % -3.07 C
Sensor: Nr:Datum:Temp:Feuchte:Taupunkt:
Aussen-T/F 1151 16-12-2018 00:00:00 0.3 C 78 % -3.07 C
1152 16-12-2018 00:05:00 0.3 C 77 % -3.25 C
1153 16-12-2018 00:10:00 0.3 C 77 % -3.25 C
1154 16-12-2018 00:15:00 0.4 C 77 % -3.15 C
1155 16-12-2018 00:20:00 0.4 C 77 % -3.15 C
1156 16-12-2018 00:25:00 0.4 C 77 % -3.15 C
1157 16-12-2018 00:30:00 0.4 C 77 % -3.15 C
1158 16-12-2018 00:35:00 0.4 C 77 % -3.15 C
1159 16-12-2018 00:40:00 0.4 C 77 % -3.15 C
1160 16-12-2018 00:45:00 0.5 C 76 % -3.23 C
1161 16-12-2018 00:50:00 0.5 C 76 % -3.23 C
1162 16-12-2018 00:55:00 0.5 C 76 % -3.23 C
1163 16-12-2018 01:00:00 0.5 C 76 % -3.23 C
1164 16-12-2018 01:05:00 0.4 C 76 % -3.32 C
1165 16-12-2018 01:10:00 0.4 C 76 % -3.32 C
1166 16-12-2018 01:15:00 0.5 C 76 % -3.23 C
1167 16-12-2018 01:20:00 0.5 C 76 % -3.23 C
1168 16-12-2018 01:25:00 0.5 C 76 % -3.23 C
1169 16-12-2018 01:30:00 0.4 C 76 % -3.32 C
1170 16-12-2018 01:35:00 0.4 C 76 % -3.32 C
1171 16-12-2018 01:40:00 0.4 C 77 % -3.15 C
1172 16-12-2018 01:45:00 0.4 C 76 % -3.32 C
1173 16-12-2018 01:50:00 0.4 C 77 % -3.15 C
1174 16-12-2018 01:55:00 0.4 C 77 % -3.15 C
1175 16-12-2018 02:00:00 0.4 C 77 % -3.15 C
Sensor: Nr:Datum:Temp:Feuchte:Taupunkt:
Aussen-T/F 1176 16-12-2018 02:05:00 0.4 C 77 % -3.15 C
1177 16-12-2018 02:10:00 0.4 C 76 % -3.32 C
1178 16-12-2018 02:15:00 0.4 C 77 % -3.15 C
1179 16-12-2018 02:20:00 0.4 C 76 % -3.32 C
1180 16-12-2018 02:25:00 0.4 C 77 % -3.15 C
1181 16-12-2018 02:30:00 0.4 C 77 % -3.15 C
1182 16-12-2018 02:35:00 0.4 C 77 % -3.15 C
1183 16-12-2018 02:40:00 0.4 C 77 % -3.15 C
1184 16-12-2018 02:45:00 0.4 C 77 % -3.15 C
1185 16-12-2018 02:50:00 0.4 C 77 % -3.15 C
1186 16-12-2018 02:55:00 0.3 C 77 % -3.25 C
1187 16-12-2018 03:00:00 0.3 C 76 % -3.42 C
1188 16-12-2018 03:05:00 0.3 C 77 % -3.25 C
1189 16-12-2018 03:10:00 0.3 C 76 % -3.42 C
1190 16-12-2018 03:15:00 0.3 C 76 % -3.42 C
1191 16-12-2018 03:20:00 0.3 C 77 % -3.25 C
1192 16-12-2018 03:25:00 0.2 C 79 % -3 C
1193 16-12-2018 03:30:00 0.2 C 80 % -2.83 C
1194 16-12-2018 03:35:00 0.1 C 81 % -2.76 C
1195 16-12-2018 03:40:00 0 C 82 % -2.7 C
1196 16-12-2018 03:45:00 -0.1 C 83 % -2.63 C
1197 16-12-2018 03:50:00 -0.2 C 84 % -2.57 C
1198 16-12-2018 03:55:00 -0.2 C 85 % -2.41 C
1199 16-12-2018 04:00:00 -0.3 C 86 % -2.35 C
1200 16-12-2018 04:05:00 -0.4 C 86 % -2.45 C
Sensor: Nr:Datum:Temp:Feuchte:Taupunkt:
Aussen-T/F 1201 16-12-2018 04:10:00 -0.5 C 86 % -2.55 C
1202 16-12-2018 04:15:00 -0.6 C 87 % -2.49 C
1203 16-12-2018 04:20:00 -0.6 C 87 % -2.49 C
1204 16-12-2018 04:25:00 -0.6 C 87 % -2.49 C
1205 16-12-2018 04:30:00 -0.6 C 87 % -2.49 C
1206 16-12-2018 04:35:00 -0.6 C 88 % -2.34 C
1207 16-12-2018 04:40:00 -0.7 C 89 % -2.28 C
1208 16-12-2018 04:45:00 -0.8 C 89 % -2.38 C
1209 16-12-2018 04:50:00 -0.8 C 89 % -2.38 C
1210 16-12-2018 04:55:00 -0.8 C 89 % -2.38 C
1211 16-12-2018 05:00:00 -0.9 C 90 % -2.33 C
1212 16-12-2018 05:05:00 -0.9 C 90 % -2.33 C
1213 16-12-2018 05:10:00 -0.9 C 90 % -2.33 C
1214 16-12-2018 05:15:00 -0.9 C 91 % -2.18 C
1215 16-12-2018 05:20:00 -0.9 C 91 % -2.18 C
1216 16-12-2018 05:25:00 -0.9 C 91 % -2.18 C
1217 16-12-2018 05:30:00 -1 C 91 % -2.28 C
1218 16-12-2018 05:35:00 -1 C 91 % -2.28 C
1219 16-12-2018 05:40:00 -0.9 C 91 % -2.18 C
1220 16-12-2018 05:45:00 -0.9 C 91 % -2.18 C
1221 16-12-2018 05:50:00 -0.9 C 92 % -2.03 C
1222 16-12-2018 05:55:00 -0.9 C 92 % -2.03 C
1223 16-12-2018 06:00:00 -1 C 92 % -2.13 C
1224 16-12-2018 06:05:00 -1 C 92 % -2.13 C
1225 16-12-2018 06:10:00 -1 C 92 % -2.13 C
Sensor: Nr:Datum:Temp:Feuchte:Taupunkt:
Aussen-T/F 1226 16-12-2018 06:15:00 -1 C 92 % -2.13 C
1227 16-12-2018 06:20:00 -1 C 92 % -2.13 C
1228 16-12-2018 06:25:00 -1 C 92 % -2.13 C
1229 16-12-2018 06:30:00 -1 C 92 % -2.13 C
1230 16-12-2018 06:35:00 -1 C 92 % -2.13 C
1231 16-12-2018 06:40:00 -1 C 92 % -2.13 C
1232 16-12-2018 06:45:00 -1 C 92 % -2.13 C
1233 16-12-2018 06:50:00 -1 C 92 % -2.13 C
1234 16-12-2018 06:55:00 -1.1 C 92 % -2.23 C
1235 16-12-2018 07:00:00 -1.1 C 92 % -2.23 C
1236 16-12-2018 07:05:00 -1.1 C 92 % -2.23 C
1237 16-12-2018 07:10:00 -1.1 C 93 % -2.09 C
1238 16-12-2018 07:15:00 -1.1 C 92 % -2.23 C
1239 16-12-2018 07:20:00 -1.1 C 93 % -2.09 C
1240 16-12-2018 07:25:00 -1.1 C 93 % -2.09 C
1241 16-12-2018 07:30:00 -1 C 93 % -1.99 C
1242 16-12-2018 07:35:00 -1 C 93 % -1.99 C
1243 16-12-2018 07:40:00 -1 C 93 % -1.99 C
1244 16-12-2018 07:45:00 -1 C 93 % -1.99 C
1245 16-12-2018 07:50:00 -1 C 93 % -1.99 C
1246 16-12-2018 07:55:00 -1 C 93 % -1.99 C
1247 16-12-2018 08:00:00 -1 C 93 % -1.99 C
1248 16-12-2018 08:05:00 -1 C 93 % -1.99 C
1249 16-12-2018 08:10:00 -1 C 93 % -1.99 C
1250 16-12-2018 08:15:00 -1 C 93 % -1.99 C
Sensor: Nr:Datum:Temp:Feuchte:Taupunkt:
Aussen-T/F 1251 16-12-2018 08:20:00 -0.9 C 93 % -1.89 C
1252 16-12-2018 08:25:00 -0.9 C 93 % -1.89 C
1253 16-12-2018 08:30:00 -0.9 C 93 % -1.89 C
1254 16-12-2018 08:35:00 -0.9 C 93 % -1.89 C
1255 16-12-2018 08:40:00 -0.9 C 93 % -1.89 C
1256 16-12-2018 08:45:00 -0.9 C 93 % -1.89 C
1257 16-12-2018 08:50:00 -0.9 C 93 % -1.89 C
1258 16-12-2018 08:55:00 -0.9 C 93 % -1.89 C
1259 16-12-2018 09:00:00 -0.8 C 93 % -1.79 C
1260 16-12-2018 09:05:00 -0.8 C 93 % -1.79 C
1261 16-12-2018 09:10:00 -0.8 C 92 % -1.93 C
1262 16-12-2018 09:15:00 -0.8 C 92 % -1.93 C
1263 16-12-2018 09:20:00 -0.8 C 93 % -1.79 C
1264 16-12-2018 09:25:00 -0.7 C 93 % -1.69 C
1265 16-12-2018 09:30:00 -0.7 C 93 % -1.69 C
1266 16-12-2018 09:35:00 -0.7 C 93 % -1.69 C
1267 16-12-2018 09:40:00 -0.7 C 92 % -1.83 C
1268 16-12-2018 09:45:00 -0.6 C 92 % -1.74 C
1269 16-12-2018 09:50:00 -0.6 C 92 % -1.74 C
1270 16-12-2018 09:55:00 -0.6 C 92 % -1.74 C
1271 16-12-2018 10:00:00 -0.6 C 92 % -1.74 C
1272 16-12-2018 10:05:00 -0.5 C 92 % -1.64 C
1273 16-12-2018 10:10:00 -0.4 C 92 % -1.54 C
1274 16-12-2018 10:15:00 -0.4 C 92 % -1.54 C
1275 16-12-2018 10:20:00 -0.4 C 92 % -1.54 C
Sensor: Nr:Datum:Temp:Feuchte:Taupunkt:
Aussen-T/F 1276 16-12-2018 10:25:00 -0.4 C 91 % -1.69 C
1277 16-12-2018 10:30:00 -0.4 C 91 % -1.69 C
1278 16-12-2018 10:35:00 -0.3 C 91 % -1.59 C
1279 16-12-2018 10:40:00 -0.3 C 91 % -1.59 C
1280 16-12-2018 10:45:00 -0.2 C 91 % -1.49 C
1281 16-12-2018 10:50:00 -0.2 C 91 % -1.49 C
1282 16-12-2018 10:55:00 -0.2 C 91 % -1.49 C
1283 16-12-2018 11:00:00 -0.2 C 91 % -1.49 C
1284 16-12-2018 11:05:00 -0.1 C 91 % -1.39 C
1285 16-12-2018 11:10:00 -0.1 C 91 % -1.39 C
1286 16-12-2018 11:15:00 -0.1 C 91 % -1.39 C
1287 16-12-2018 11:20:00 -0.1 C 91 % -1.39 C
1288 16-12-2018 11:25:00 0 C 92 % -1.14 C
1289 16-12-2018 11:30:00 0.1 C 92 % -1.04 C
1290 16-12-2018 11:35:00 0.1 C 92 % -1.04 C
1291 16-12-2018 11:40:00 0.2 C 92 % -0.94 C
1292 16-12-2018 11:45:00 0.2 C 92 % -0.94 C
1293 16-12-2018 11:50:00 0.3 C 92 % -0.84 C
1294 16-12-2018 11:55:00 0.4 C 91 % -0.89 C
1295 16-12-2018 12:00:00 0.4 C 91 % -0.89 C
1296 16-12-2018 12:05:00 0.5 C 91 % -0.79 C
1297 16-12-2018 12:10:00 0.6 C 92 % -0.55 C
1298 16-12-2018 12:15:00 0.7 C 92 % -0.45 C
1299 16-12-2018 12:20:00 0.8 C 91 % -0.5 C
1300 16-12-2018 12:25:00 0.8 C 92 % -0.35 C
Sensor: Nr:Datum:Temp:Feuchte:Taupunkt:
Aussen-T/F 1301 16-12-2018 12:30:00 0.9 C 92 % -0.25 C
1302 16-12-2018 12:35:00 1 C 92 % -0.15 C
1303 16-12-2018 12:40:00 1.1 C 92 % -0.05 C
1304 16-12-2018 12:45:00 1.1 C 92 % -0.05 C
1305 16-12-2018 12:50:00 1.1 C 91 % -0.2 C
1306 16-12-2018 12:55:00 1.2 C 91 % -0.1 C
1307 16-12-2018 13:00:00 1.2 C 92 % 0.05 C
1308 16-12-2018 13:05:00 1.2 C 92 % 0.05 C
1309 16-12-2018 13:10:00 1.2 C 92 % 0.05 C
1310 16-12-2018 13:15:00 1.3 C 92 % 0.15 C
1311 16-12-2018 13:20:00 1.3 C 92 % 0.15 C
1312 16-12-2018 13:25:00 1.3 C 92 % 0.15 C
1313 16-12-2018 13:30:00 1.4 C 92 % 0.25 C
1314 16-12-2018 13:35:00 1.4 C 92 % 0.25 C
1315 16-12-2018 13:40:00 1.4 C 92 % 0.25 C
1316 16-12-2018 13:45:00 1.5 C 92 % 0.35 C
1317 16-12-2018 13:50:00 1.5 C 92 % 0.35 C
1318 16-12-2018 13:55:00 1.5 C 92 % 0.35 C
1319 16-12-2018 14:00:00 1.6 C 92 % 0.44 C
1320 16-12-2018 14:05:00 1.6 C 92 % 0.44 C
1321 16-12-2018 14:10:00 1.6 C 92 % 0.44 C
1322 16-12-2018 14:15:00 1.5 C 92 % 0.35 C
1323 16-12-2018 14:20:00 1.5 C 92 % 0.35 C
1324 16-12-2018 14:25:00 1.5 C 92 % 0.35 C
1325 16-12-2018 14:30:00 1.4 C 92 % 0.25 C
Sensor: Nr:Datum:Temp:Feuchte:Taupunkt:
Aussen-T/F 1326 16-12-2018 14:35:00 1.5 C 92 % 0.35 C
1327 16-12-2018 14:40:00 1.5 C 92 % 0.35 C
1328 16-12-2018 14:45:00 1.5 C 92 % 0.35 C
1329 16-12-2018 14:50:00 1.5 C 93 % 0.49 C
1330 16-12-2018 14:55:00 1.6 C 93 % 0.59 C
1331 16-12-2018 15:00:00 1.6 C 93 % 0.59 C
1332 16-12-2018 15:05:00 1.6 C 93 % 0.59 C
1333 16-12-2018 15:10:00 1.6 C 93 % 0.59 C
1334 16-12-2018 15:15:00 1.7 C 93 % 0.69 C
1335 16-12-2018 15:20:00 1.7 C 93 % 0.69 C
1336 16-12-2018 15:25:00 1.7 C 93 % 0.69 C
1337 16-12-2018 15:30:00 1.7 C 93 % 0.69 C
1338 16-12-2018 15:35:00 1.6 C 93 % 0.59 C
1339 16-12-2018 15:40:00 1.6 C 93 % 0.59 C
1340 16-12-2018 15:45:00 1.6 C 93 % 0.59 C
1341 16-12-2018 15:50:00 1.6 C 93 % 0.59 C
1342 16-12-2018 15:55:00 1.7 C 94 % 0.84 C
1343 16-12-2018 16:00:00 1.6 C 94 % 0.74 C
1344 16-12-2018 16:05:00 1.6 C 94 % 0.74 C
1345 16-12-2018 16:10:00 1.6 C 94 % 0.74 C
1346 16-12-2018 16:15:00 1.6 C 94 % 0.74 C
1347 16-12-2018 16:20:00 1.6 C 94 % 0.74 C
1348 16-12-2018 16:25:00 1.6 C 94 % 0.74 C
1349 16-12-2018 16:30:00 1.5 C 94 % 0.64 C
1350 16-12-2018 16:35:00 1.5 C 94 % 0.64 C
Sensor: Nr:Datum:Temp:Feuchte:Taupunkt:
Aussen-T/F 1351 16-12-2018 16:40:00 1.5 C 94 % 0.64 C
1352 16-12-2018 16:45:00 1.6 C 94 % 0.74 C
1353 16-12-2018 16:50:00 1.7 C 95 % 0.99 C
1354 16-12-2018 16:55:00 1.7 C 95 % 0.99 C
1355 16-12-2018 17:00:00 1.8 C 95 % 1.09 C
1356 16-12-2018 17:05:00 1.8 C 95 % 1.09 C
1357 16-12-2018 17:10:00 1.9 C 95 % 1.19 C
1358 16-12-2018 17:15:00 1.9 C 95 % 1.19 C
1359 16-12-2018 17:20:00 1.9 C 95 % 1.19 C
1360 16-12-2018 17:25:00 1.9 C 95 % 1.19 C
1361 16-12-2018 17:30:00 2 C 95 % 1.29 C
1362 16-12-2018 17:35:00 2 C 95 % 1.29 C
1363 16-12-2018 17:40:00 1.9 C 94 % 1.04 C
1364 16-12-2018 17:45:00 1.9 C 95 % 1.19 C
1365 16-12-2018 17:50:00 1.9 C 95 % 1.19 C
1366 16-12-2018 17:55:00 1.8 C 95 % 1.09 C
1367 16-12-2018 18:00:00 1.8 C 95 % 1.09 C
1368 16-12-2018 18:05:00 1.8 C 94 % 0.94 C
1369 16-12-2018 18:10:00 1.8 C 94 % 0.94 C
1370 16-12-2018 18:15:00 1.7 C 94 % 0.84 C
1371 16-12-2018 18:20:00 1.7 C 95 % 0.99 C
1372 16-12-2018 18:25:00 1.7 C 95 % 0.99 C
1373 16-12-2018 18:30:00 1.7 C 95 % 0.99 C
1374 16-12-2018 18:35:00 1.7 C 95 % 0.99 C
1375 16-12-2018 18:40:00 1.7 C 95 % 0.99 C
Sensor: Nr:Datum:Temp:Feuchte:Taupunkt:
Aussen-T/F 1376 16-12-2018 18:45:00 1.7 C 95 % 0.99 C
1377 16-12-2018 18:50:00 1.8 C 95 % 1.09 C
1378 16-12-2018 18:55:00 1.9 C 95 % 1.19 C
1379 16-12-2018 19:00:00 2 C 95 % 1.29 C
1380 16-12-2018 19:05:00 2.1 C 95 % 1.38 C
1381 16-12-2018 19:10:00 2.1 C 96 % 1.53 C
1382 16-12-2018 19:15:00 2.2 C 96 % 1.63 C
1383 16-12-2018 19:20:00 2.2 C 96 % 1.63 C
1384 16-12-2018 19:25:00 2.2 C 95 % 1.48 C
1385 16-12-2018 19:30:00 2.3 C 96 % 1.73 C
1386 16-12-2018 19:35:00 2.3 C 95 % 1.58 C
1387 16-12-2018 19:40:00 2.3 C 95 % 1.58 C
1388 16-12-2018 19:45:00 2.3 C 95 % 1.58 C
1389 16-12-2018 19:50:00 2.4 C 96 % 1.83 C
1390 16-12-2018 19:55:00 2.5 C 96 % 1.93 C
1391 16-12-2018 20:00:00 2.6 C 96 % 2.03 C
1392 16-12-2018 20:05:00 2.5 C 96 % 1.93 C
1393 16-12-2018 20:10:00 2.5 C 96 % 1.93 C
1394 16-12-2018 20:15:00 2.6 C 96 % 2.03 C
1395 16-12-2018 20:20:00 2.5 C 96 % 1.93 C
1396 16-12-2018 20:25:00 2.4 C 96 % 1.83 C
1397 16-12-2018 20:30:00 2.4 C 95 % 1.68 C
1398 16-12-2018 20:35:00 2.4 C 95 % 1.68 C
1399 16-12-2018 20:40:00 2.3 C 95 % 1.58 C
1400 16-12-2018 20:45:00 2.3 C 95 % 1.58 C
Sensor: Nr:Datum:Temp:Feuchte:Taupunkt:
Aussen-T/F 1401 16-12-2018 20:50:00 2.3 C 95 % 1.58 C
1402 16-12-2018 20:55:00 2.4 C 96 % 1.83 C
1403 16-12-2018 21:00:00 2.4 C 96 % 1.83 C
1404 16-12-2018 21:05:00 2.4 C 96 % 1.83 C
1405 16-12-2018 21:10:00 2.4 C 96 % 1.83 C
1406 16-12-2018 21:15:00 2.4 C 96 % 1.83 C
1407 16-12-2018 21:20:00 2.4 C 96 % 1.83 C
1408 16-12-2018 21:25:00 2.4 C 96 % 1.83 C
1409 16-12-2018 21:30:00 2.4 C 96 % 1.83 C
1410 16-12-2018 21:35:00 2.3 C 96 % 1.73 C
1411 16-12-2018 21:40:00 2.4 C 96 % 1.83 C
1412 16-12-2018 21:45:00 2.4 C 96 % 1.83 C
1413 16-12-2018 21:50:00 2.4 C 96 % 1.83 C
1414 16-12-2018 21:55:00 2.4 C 96 % 1.83 C
1415 16-12-2018 22:00:00 2.4 C 96 % 1.83 C
1416 16-12-2018 22:05:00 2.5 C 96 % 1.93 C
1417 16-12-2018 22:10:00 2.6 C 96 % 2.03 C
1418 16-12-2018 22:15:00 2.6 C 96 % 2.03 C
1419 16-12-2018 22:20:00 2.6 C 96 % 2.03 C
1420 16-12-2018 22:25:00 2.6 C 96 % 2.03 C
1421 16-12-2018 22:30:00 2.6 C 96 % 2.03 C
1422 16-12-2018 22:35:00 2.6 C 96 % 2.03 C
1423 16-12-2018 22:40:00 2.6 C 96 % 2.03 C
1424 16-12-2018 22:45:00 2.6 C 96 % 2.03 C
1425 16-12-2018 22:50:00 2.6 C 96 % 2.03 C
Sensor: Nr:Datum:Temp:Feuchte:Taupunkt:
Aussen-T/F 1426 16-12-2018 22:55:00 2.6 C 96 % 2.03 C
1427 16-12-2018 23:00:00 2.6 C 96 % 2.03 C
1428 16-12-2018 23:05:00 2.6 C 96 % 2.03 C
1429 16-12-2018 23:10:00 2.6 C 96 % 2.03 C
1430 16-12-2018 23:15:00 2.6 C 96 % 2.03 C
1431 16-12-2018 23:20:00 2.6 C 96 % 2.03 C
1432 16-12-2018 23:25:00 2.6 C 96 % 2.03 C
1433 16-12-2018 23:30:00 2.6 C 96 % 2.03 C
1434 16-12-2018 23:35:00 2.6 C 96 % 2.03 C
1435 16-12-2018 23:40:00 2.6 C 96 % 2.03 C
1436 16-12-2018 23:45:00 2.6 C 96 % 2.03 C
1437 16-12-2018 23:50:00 2.6 C 96 % 2.03 C
1438 16-12-2018 23:55:00 2.6 C 96 % 2.03 C
1439 17-12-2018 00:00:00 2.6 C 96 % 2.03 C
1440 17-12-2018 00:05:00 2.6 C 96 % 2.03 C
1441 17-12-2018 00:10:00 2.6 C 96 % 2.03 C
1442 17-12-2018 00:15:00 2.6 C 96 % 2.03 C
1443 17-12-2018 00:20:00 2.6 C 96 % 2.03 C
1444 17-12-2018 00:25:00 2.6 C 96 % 2.03 C
1445 17-12-2018 00:30:00 2.5 C 96 % 1.93 C
1446 17-12-2018 00:35:00 2.5 C 96 % 1.93 C
1447 17-12-2018 00:40:00 2.5 C 96 % 1.93 C
1448 17-12-2018 00:45:00 2.5 C 96 % 1.93 C
1449 17-12-2018 00:50:00 2.5 C 96 % 1.93 C
1450 17-12-2018 00:55:00 2.5 C 96 % 1.93 C
Sensor: Nr:Datum:Temp:Feuchte:Taupunkt:
Aussen-T/F 1451 17-12-2018 01:00:00 2.4 C 96 % 1.83 C
1452 17-12-2018 01:05:00 2.4 C 96 % 1.83 C
1453 17-12-2018 01:10:00 2.4 C 96 % 1.83 C
1454 17-12-2018 01:15:00 2.4 C 96 % 1.83 C
1455 17-12-2018 01:20:00 2.4 C 96 % 1.83 C
1456 17-12-2018 01:25:00 2.4 C 96 % 1.83 C
1457 17-12-2018 01:30:00 2.3 C 96 % 1.73 C
1458 17-12-2018 01:35:00 2.3 C 96 % 1.73 C
1459 17-12-2018 01:40:00 2.2 C 96 % 1.63 C
1460 17-12-2018 01:45:00 2.1 C 96 % 1.53 C
1461 17-12-2018 01:50:00 2.1 C 96 % 1.53 C
1462 17-12-2018 01:55:00 2.2 C 96 % 1.63 C
1463 17-12-2018 02:00:00 2.3 C 96 % 1.73 C
1464 17-12-2018 02:05:00 2.4 C 96 % 1.83 C
1465 17-12-2018 02:10:00 2.5 C 96 % 1.93 C
1466 17-12-2018 02:15:00 2.6 C 96 % 2.03 C
1467 17-12-2018 02:20:00 2.6 C 96 % 2.03 C
1468 17-12-2018 02:25:00 2.6 C 96 % 2.03 C
1469 17-12-2018 02:30:00 2.7 C 96 % 2.13 C
1470 17-12-2018 02:35:00 2.7 C 96 % 2.13 C
1471 17-12-2018 02:40:00 2.7 C 96 % 2.13 C
1472 17-12-2018 02:45:00 2.8 C 96 % 2.23 C
1473 17-12-2018 02:50:00 2.8 C 97 % 2.37 C
1474 17-12-2018 02:55:00 2.8 C 96 % 2.23 C
1475 17-12-2018 03:00:00 2.9 C 96 % 2.33 C
Sensor: Nr:Datum:Temp:Feuchte:Taupunkt:
Aussen-T/F 1476 17-12-2018 03:05:00 2.9 C 96 % 2.33 C
1477 17-12-2018 03:10:00 2.9 C 96 % 2.33 C
1478 17-12-2018 03:15:00 2.9 C 96 % 2.33 C
1479 17-12-2018 03:20:00 2.9 C 96 % 2.33 C
1480 17-12-2018 03:25:00 2.9 C 96 % 2.33 C
1481 17-12-2018 03:30:00 3 C 96 % 2.43 C
1482 17-12-2018 03:35:00 3 C 96 % 2.43 C
1483 17-12-2018 03:40:00 3 C 96 % 2.43 C
1484 17-12-2018 03:45:00 3 C 96 % 2.43 C
1485 17-12-2018 03:50:00 3.1 C 96 % 2.53 C
1486 17-12-2018 03:55:00 3.1 C 96 % 2.53 C
1487 17-12-2018 04:00:00 3.1 C 96 % 2.53 C
1488 17-12-2018 04:05:00 3.1 C 97 % 2.67 C
1489 17-12-2018 04:10:00 3.1 C 97 % 2.67 C
1490 17-12-2018 04:15:00 3.1 C 97 % 2.67 C
1491 17-12-2018 04:20:00 3.2 C 97 % 2.77 C
1492 17-12-2018 04:25:00 3.2 C 97 % 2.77 C
1493 17-12-2018 04:30:00 3.2 C 96 % 2.63 C
1494 17-12-2018 04:35:00 3.2 C 96 % 2.63 C
1495 17-12-2018 04:40:00 3.2 C 96 % 2.63 C
1496 17-12-2018 04:45:00 3.2 C 96 % 2.63 C
1497 17-12-2018 04:50:00 3.2 C 96 % 2.63 C
1498 17-12-2018 04:55:00 3.1 C 96 % 2.53 C
1499 17-12-2018 05:00:00 3.1 C 96 % 2.53 C
1500 17-12-2018 05:05:00 3 C 96 % 2.43 C
Sensor: Nr:Datum:Temp:Feuchte:Taupunkt:
Aussen-T/F 1501 17-12-2018 05:10:00 2.8 C 96 % 2.23 C
1502 17-12-2018 05:15:00 2.6 C 96 % 2.03 C
1503 17-12-2018 05:20:00 2.3 C 96 % 1.73 C
1504 17-12-2018 05:25:00 2.2 C 96 % 1.63 C
1505 17-12-2018 05:30:00 2 C 96 % 1.43 C
1506 17-12-2018 05:35:00 1.9 C 96 % 1.33 C
1507 17-12-2018 05:40:00 1.8 C 96 % 1.23 C
1508 17-12-2018 05:45:00 1.7 C 96 % 1.13 C
1509 17-12-2018 05:50:00 1.7 C 96 % 1.13 C
1510 17-12-2018 05:55:00 1.7 C 96 % 1.13 C
1511 17-12-2018 06:00:00 1.7 C 96 % 1.13 C
1512 17-12-2018 06:05:00 1.9 C 96 % 1.33 C
1513 17-12-2018 06:10:00 2.1 C 96 % 1.53 C
1514 17-12-2018 06:15:00 2.1 C 96 % 1.53 C
1515 17-12-2018 06:20:00 2 C 96 % 1.43 C
1516 17-12-2018 06:25:00 1.9 C 96 % 1.33 C
1517 17-12-2018 06:30:00 1.7 C 96 % 1.13 C
1518 17-12-2018 06:35:00 1.7 C 96 % 1.13 C
1519 17-12-2018 06:40:00 1.6 C 96 % 1.03 C
1520 17-12-2018 06:45:00 1.7 C 96 % 1.13 C
1521 17-12-2018 06:50:00 1.8 C 96 % 1.23 C
1522 17-12-2018 06:55:00 1.8 C 96 % 1.23 C
1523 17-12-2018 07:00:00 1.9 C 97 % 1.48 C
1524 17-12-2018 07:05:00 2 C 96 % 1.43 C
1525 17-12-2018 07:10:00 2 C 96 % 1.43 C
Sensor: Nr:Datum:Temp:Feuchte:Taupunkt:
Aussen-T/F 1526 17-12-2018 07:15:00 2.1 C 96 % 1.53 C
1527 17-12-2018 07:20:00 2.1 C 96 % 1.53 C
1528 17-12-2018 07:25:00 2.1 C 96 % 1.53 C
1529 17-12-2018 07:30:00 2.1 C 96 % 1.53 C
1530 17-12-2018 07:35:00 2.2 C 96 % 1.63 C
1531 17-12-2018 07:40:00 2.3 C 97 % 1.87 C
1532 17-12-2018 07:45:00 2.3 C 97 % 1.87 C
1533 17-12-2018 07:50:00 2.3 C 97 % 1.87 C
1534 17-12-2018 07:55:00 2.4 C 97 % 1.97 C
1535 17-12-2018 08:00:00 2.5 C 97 % 2.07 C
1536 17-12-2018 08:05:00 2.5 C 97 % 2.07 C
1537 17-12-2018 08:10:00 2.6 C 97 % 2.17 C
1538 17-12-2018 08:15:00 2.6 C 97 % 2.17 C
1539 17-12-2018 08:20:00 2.7 C 97 % 2.27 C
1540 17-12-2018 08:25:00 2.7 C 97 % 2.27 C
1541 17-12-2018 08:30:00 2.7 C 97 % 2.27 C
1542 17-12-2018 08:35:00 2.7 C 97 % 2.27 C
1543 17-12-2018 08:40:00 2.7 C 97 % 2.27 C
1544 17-12-2018 08:45:00 2.8 C 97 % 2.37 C
1545 17-12-2018 08:50:00 2.8 C 97 % 2.37 C
1546 17-12-2018 08:55:00 2.8 C 97 % 2.37 C
1547 17-12-2018 09:00:00 2.8 C 97 % 2.37 C
1548 17-12-2018 09:05:00 2.9 C 97 % 2.47 C
1549 17-12-2018 09:10:00 2.9 C 97 % 2.47 C
1550 17-12-2018 09:15:00 3 C 97 % 2.57 C
Sensor: Nr:Datum:Temp:Feuchte:Taupunkt:
Aussen-T/F 1551 17-12-2018 09:20:00 3 C 97 % 2.57 C
1552 17-12-2018 09:25:00 3.1 C 97 % 2.67 C
1553 17-12-2018 09:30:00 3.1 C 97 % 2.67 C
1554 17-12-2018 09:35:00 3.1 C 97 % 2.67 C
1555 17-12-2018 09:40:00 3.2 C 97 % 2.77 C
1556 17-12-2018 09:45:00 3.2 C 97 % 2.77 C
1557 17-12-2018 09:50:00 3.3 C 97 % 2.87 C
1558 17-12-2018 09:55:00 3.4 C 97 % 2.97 C
1559 17-12-2018 10:00:00 3.4 C 97 % 2.97 C
1560 17-12-2018 10:05:00 3.4 C 97 % 2.97 C
1561 17-12-2018 10:10:00 3.4 C 97 % 2.97 C
1562 17-12-2018 10:15:00 3.5 C 97 % 3.07 C
1563 17-12-2018 10:20:00 3.5 C 97 % 3.07 C
1564 17-12-2018 10:25:00 3.6 C 97 % 3.17 C
1565 17-12-2018 10:30:00 3.6 C 97 % 3.17 C
1566 17-12-2018 10:35:00 3.7 C 97 % 3.27 C
1567 17-12-2018 10:40:00 3.7 C 97 % 3.27 C
1568 17-12-2018 10:45:00 3.8 C 97 % 3.37 C
1569 17-12-2018 10:50:00 3.8 C 97 % 3.37 C
1570 17-12-2018 10:55:00 3.9 C 97 % 3.47 C
1571 17-12-2018 11:00:00 3.9 C 97 % 3.47 C
1572 17-12-2018 11:05:00 4 C 97 % 3.57 C
1573 17-12-2018 11:10:00 4.1 C 97 % 3.67 C
1574 17-12-2018 11:15:00 4.3 C 97 % 3.87 C
1575 17-12-2018 11:20:00 4.7 C 97 % 4.27 C
Sensor: Nr:Datum:Temp:Feuchte:Taupunkt:
Aussen-T/F 1576 17-12-2018 11:25:00 4.9 C 98 % 4.61 C
1577 17-12-2018 11:30:00 5.1 C 97 % 4.66 C
1578 17-12-2018 11:35:00 5.2 C 97 % 4.76 C
1579 17-12-2018 11:40:00 5.3 C 97 % 4.86 C
1580 17-12-2018 11:45:00 5.3 C 97 % 4.86 C
1581 17-12-2018 11:50:00 5.4 C 97 % 4.96 C
1582 17-12-2018 11:55:00 5.5 C 97 % 5.06 C
1583 17-12-2018 12:00:00 5.6 C 97 % 5.16 C
1584 17-12-2018 12:05:00 5.6 C 97 % 5.16 C
1585 17-12-2018 12:10:00 5.6 C 97 % 5.16 C
1586 17-12-2018 12:15:00 5.6 C 97 % 5.16 C
1587 17-12-2018 12:20:00 5.7 C 96 % 5.11 C
1588 17-12-2018 12:25:00 5.7 C 96 % 5.11 C
1589 17-12-2018 12:30:00 5.8 C 96 % 5.21 C
1590 17-12-2018 12:35:00 5.8 C 96 % 5.21 C
1591 17-12-2018 12:40:00 5.9 C 96 % 5.31 C
1592 17-12-2018 12:45:00 5.9 C 96 % 5.31 C
1593 17-12-2018 12:50:00 6 C 96 % 5.41 C
1594 17-12-2018 12:55:00 6 C 96 % 5.41 C
1595 17-12-2018 13:00:00 6 C 95 % 5.26 C
1596 17-12-2018 13:05:00 6.1 C 95 % 5.36 C
1597 17-12-2018 13:10:00 6.2 C 95 % 5.46 C
1598 17-12-2018 13:15:00 6.2 C 95 % 5.46 C
1599 17-12-2018 13:20:00 6.3 C 94 % 5.41 C
1600 17-12-2018 13:25:00 6.3 C 94 % 5.41 C
Sensor: Nr:Datum:Temp:Feuchte:Taupunkt:
Aussen-T/F 1601 17-12-2018 13:30:00 6.4 C 94 % 5.51 C
1602 17-12-2018 13:35:00 6.4 C 93 % 5.35 C
1603 17-12-2018 13:40:00 6.4 C 93 % 5.35 C
1604 17-12-2018 13:45:00 6.5 C 93 % 5.45 C
1605 17-12-2018 13:50:00 6.6 C 93 % 5.55 C
1606 17-12-2018 13:55:00 6.6 C 93 % 5.55 C
1607 17-12-2018 14:00:00 6.6 C 92 % 5.4 C
1608 17-12-2018 14:05:00 6.6 C 92 % 5.4 C
1609 17-12-2018 14:10:00 6.7 C 92 % 5.49 C
1610 17-12-2018 14:15:00 6.6 C 92 % 5.4 C
1611 17-12-2018 14:20:00 6.6 C 92 % 5.4 C
1612 17-12-2018 14:25:00 6.5 C 91 % 5.14 C
1613 17-12-2018 14:30:00 6.4 C 92 % 5.2 C
1614 17-12-2018 14:35:00 6.5 C 92 % 5.3 C
1615 17-12-2018 14:40:00 6.6 C 92 % 5.4 C
1616 17-12-2018 14:45:00 6.7 C 92 % 5.49 C
1617 17-12-2018 14:50:00 6.7 C 91 % 5.34 C
1618 17-12-2018 14:55:00 6.7 C 91 % 5.34 C
1619 17-12-2018 15:00:00 6.7 C 91 % 5.34 C
1620 17-12-2018 15:05:00 6.7 C 91 % 5.34 C
1621 17-12-2018 15:10:00 6.6 C 90 % 5.08 C
1622 17-12-2018 15:15:00 6.6 C 90 % 5.08 C
1623 17-12-2018 15:20:00 6.6 C 90 % 5.08 C
1624 17-12-2018 15:25:00 6.5 C 90 % 4.98 C
1625 17-12-2018 15:30:00 6.4 C 90 % 4.88 C
Sensor: Nr:Datum:Temp:Feuchte:Taupunkt:
Aussen-T/F 1626 17-12-2018 15:35:00 6.4 C 90 % 4.88 C
1627 17-12-2018 15:40:00 6.5 C 91 % 5.14 C
1628 17-12-2018 15:45:00 6.6 C 91 % 5.24 C
1629 17-12-2018 15:50:00 6.6 C 91 % 5.24 C
1630 17-12-2018 15:55:00 6.7 C 91 % 5.34 C
1631 17-12-2018 16:00:00 6.8 C 90 % 5.28 C
1632 17-12-2018 16:05:00 6.8 C 90 % 5.28 C
1633 17-12-2018 16:10:00 6.8 C 90 % 5.28 C
1634 17-12-2018 16:15:00 6.8 C 90 % 5.28 C
1635 17-12-2018 16:20:00 6.7 C 90 % 5.18 C
1636 17-12-2018 16:25:00 6.7 C 90 % 5.18 C
1637 17-12-2018 16:30:00 6.6 C 90 % 5.08 C
1638 17-12-2018 16:35:00 6.5 C 90 % 4.98 C
1639 17-12-2018 16:40:00 6.4 C 91 % 5.04 C
1640 17-12-2018 16:45:00 6.4 C 91 % 5.04 C
1641 17-12-2018 16:50:00 6.3 C 91 % 4.94 C
1642 17-12-2018 16:55:00 6.3 C 91 % 4.94 C
1643 17-12-2018 17:00:00 6.2 C 91 % 4.84 C
1644 17-12-2018 17:05:00 6.1 C 91 % 4.74 C
1645 17-12-2018 17:10:00 6.1 C 91 % 4.74 C
1646 17-12-2018 17:15:00 6 C 91 % 4.65 C
1647 17-12-2018 17:20:00 5.9 C 91 % 4.55 C
1648 17-12-2018 17:25:00 5.7 C 90 % 4.19 C
1649 17-12-2018 17:30:00 5.5 C 91 % 4.15 C
1650 17-12-2018 17:35:00 5.3 C 91 % 3.95 C
Sensor: Nr:Datum:Temp:Feuchte:Taupunkt:
Aussen-T/F 1651 17-12-2018 17:40:00 5.2 C 91 % 3.85 C
1652 17-12-2018 17:45:00 5.1 C 92 % 3.91 C
1653 17-12-2018 17:50:00 5.1 C 92 % 3.91 C
1654 17-12-2018 17:55:00 5.1 C 93 % 4.06 C
1655 17-12-2018 18:00:00 5.2 C 93 % 4.16 C
1656 17-12-2018 18:05:00 5.3 C 93 % 4.26 C
1657 17-12-2018 18:10:00 5.4 C 93 % 4.36 C
1658 17-12-2018 18:15:00 5.3 C 92 % 4.11 C
1659 17-12-2018 18:20:00 5.2 C 92 % 4.01 C
1660 17-12-2018 18:25:00 5.2 C 92 % 4.01 C
1661 17-12-2018 18:30:00 5.1 C 92 % 3.91 C
1662 17-12-2018 18:35:00 5 C 92 % 3.81 C
1663 17-12-2018 18:40:00 5 C 93 % 3.96 C
1664 17-12-2018 18:45:00 4.9 C 93 % 3.87 C
1665 17-12-2018 18:50:00 4.9 C 93 % 3.87 C
1666 17-12-2018 18:55:00 4.8 C 93 % 3.77 C
1667 17-12-2018 19:00:00 4.7 C 93 % 3.67 C
1668 17-12-2018 19:05:00 4.6 C 93 % 3.57 C
1669 17-12-2018 19:10:00 4.7 C 93 % 3.67 C
1670 17-12-2018 19:15:00 4.7 C 93 % 3.67 C
1671 17-12-2018 19:20:00 4.6 C 93 % 3.57 C
1672 17-12-2018 19:25:00 4.4 C 93 % 3.37 C
1673 17-12-2018 19:30:00 4.3 C 93 % 3.27 C
1674 17-12-2018 19:35:00 4.2 C 94 % 3.32 C
1675 17-12-2018 19:40:00 4.3 C 94 % 3.42 C
Sensor: Nr:Datum:Temp:Feuchte:Taupunkt:
Aussen-T/F 1676 17-12-2018 19:45:00 4.4 C 94 % 3.52 C
1677 17-12-2018 19:50:00 4.4 C 94 % 3.52 C
1678 17-12-2018 19:55:00 4.5 C 94 % 3.62 C
1679 17-12-2018 20:00:00 4.4 C 94 % 3.52 C
1680 17-12-2018 20:05:00 4.3 C 94 % 3.42 C
1681 17-12-2018 20:10:00 4.3 C 94 % 3.42 C
1682 17-12-2018 20:15:00 4.2 C 94 % 3.32 C
1683 17-12-2018 20:20:00 4.3 C 95 % 3.57 C
1684 17-12-2018 20:25:00 4.4 C 95 % 3.67 C
1685 17-12-2018 20:30:00 4.5 C 95 % 3.77 C
1686 17-12-2018 20:35:00 4.6 C 95 % 3.87 C
1687 17-12-2018 20:40:00 4.5 C 95 % 3.77 C
1688 17-12-2018 20:45:00 4.4 C 94 % 3.52 C
1689 17-12-2018 20:50:00 4.4 C 95 % 3.67 C
1690 17-12-2018 20:55:00 4.4 C 95 % 3.67 C
1691 17-12-2018 21:00:00 4.4 C 95 % 3.67 C
1692 17-12-2018 21:05:00 4.4 C 95 % 3.67 C
1693 17-12-2018 21:10:00 4.3 C 95 % 3.57 C
1694 17-12-2018 21:15:00 4.3 C 95 % 3.57 C
1695 17-12-2018 21:20:00 4.3 C 95 % 3.57 C
1696 17-12-2018 21:25:00 4.2 C 95 % 3.47 C
1697 17-12-2018 21:30:00 4.2 C 95 % 3.47 C
1698 17-12-2018 21:35:00 4.2 C 95 % 3.47 C
1699 17-12-2018 21:40:00 4.2 C 95 % 3.47 C
1700 17-12-2018 21:45:00 4.2 C 95 % 3.47 C
Sensor: Nr:Datum:Temp:Feuchte:Taupunkt:
Aussen-T/F 1701 17-12-2018 21:50:00 4.3 C 95 % 3.57 C
1702 17-12-2018 21:55:00 4.4 C 96 % 3.82 C
1703 17-12-2018 22:00:00 4.6 C 96 % 4.02 C
1704 17-12-2018 22:05:00 4.8 C 96 % 4.22 C
1705 17-12-2018 22:10:00 5.1 C 96 % 4.52 C
1706 17-12-2018 22:15:00 5.3 C 96 % 4.72 C
1707 17-12-2018 22:20:00 5.5 C 96 % 4.91 C
1708 17-12-2018 22:25:00 5.6 C 96 % 5.01 C
1709 17-12-2018 22:30:00 5.6 C 96 % 5.01 C
1710 17-12-2018 22:35:00 5.7 C 96 % 5.11 C
1711 17-12-2018 22:40:00 5.7 C 95 % 4.96 C
1712 17-12-2018 22:45:00 5.7 C 95 % 4.96 C
1713 17-12-2018 22:50:00 5.7 C 94 % 4.81 C
1714 17-12-2018 22:55:00 5.8 C 94 % 4.91 C
1715 17-12-2018 23:00:00 5.7 C 94 % 4.81 C
1716 17-12-2018 23:05:00 5.7 C 94 % 4.81 C
1717 17-12-2018 23:10:00 5.6 C 93 % 4.56 C
1718 17-12-2018 23:15:00 5.6 C 93 % 4.56 C
1719 17-12-2018 23:20:00 5.4 C 93 % 4.36 C
1720 17-12-2018 23:25:00 5.3 C 93 % 4.26 C
1721 17-12-2018 23:30:00 5.4 C 94 % 4.51 C
1722 17-12-2018 23:35:00 5.5 C 94 % 4.61 C
1723 17-12-2018 23:40:00 5.6 C 93 % 4.56 C
1724 17-12-2018 23:45:00 5.7 C 94 % 4.81 C
1725 17-12-2018 23:50:00 5.7 C 93 % 4.66 C
Sensor: Nr:Datum:Temp:Feuchte:Taupunkt:
Aussen-T/F 1726 17-12-2018 23:55:00 5.7 C 93 % 4.66 C
1727 18-12-2018 00:00:00 5.7 C 93 % 4.66 C
1728 18-12-2018 00:05:00 5.7 C 92 % 4.5 C
1729 18-12-2018 00:10:00 5.6 C 92 % 4.41 C
1730 18-12-2018 00:15:00 5.4 C 92 % 4.21 C
1731 18-12-2018 00:20:00 5.3 C 92 % 4.11 C
1732 18-12-2018 00:25:00 5.1 C 92 % 3.91 C
1733 18-12-2018 00:30:00 4.9 C 92 % 3.71 C
1734 18-12-2018 00:35:00 4.8 C 92 % 3.61 C
1735 18-12-2018 00:40:00 4.7 C 93 % 3.67 C
1736 18-12-2018 00:45:00 4.7 C 93 % 3.67 C
1737 18-12-2018 00:50:00 4.7 C 94 % 3.82 C
1738 18-12-2018 00:55:00 4.8 C 94 % 3.92 C
1739 18-12-2018 01:00:00 4.7 C 94 % 3.82 C
1740 18-12-2018 01:05:00 4.6 C 94 % 3.72 C
1741 18-12-2018 01:10:00 4.6 C 94 % 3.72 C
1742 18-12-2018 01:15:00 4.6 C 94 % 3.72 C
1743 18-12-2018 01:20:00 4.5 C 93 % 3.47 C
1744 18-12-2018 01:25:00 4.4 C 93 % 3.37 C
1745 18-12-2018 01:30:00 4.2 C 93 % 3.17 C
1746 18-12-2018 01:35:00 4.2 C 94 % 3.32 C
1747 18-12-2018 01:40:00 4.1 C 94 % 3.22 C
1748 18-12-2018 01:45:00 4.3 C 95 % 3.57 C
1749 18-12-2018 01:50:00 4.4 C 95 % 3.67 C
1750 18-12-2018 01:55:00 4.4 C 94 % 3.52 C
Sensor: Nr:Datum:Temp:Feuchte:Taupunkt:
Aussen-T/F 1751 18-12-2018 02:00:00 4.4 C 94 % 3.52 C
1752 18-12-2018 02:05:00 4.4 C 94 % 3.52 C
1753 18-12-2018 02:10:00 4.6 C 95 % 3.87 C
1754 18-12-2018 02:15:00 4.8 C 95 % 4.07 C
1755 18-12-2018 02:20:00 5 C 95 % 4.27 C
1756 18-12-2018 02:25:00 5.2 C 95 % 4.47 C
1757 18-12-2018 02:30:00 5.3 C 94 % 4.41 C
1758 18-12-2018 02:35:00 5.3 C 94 % 4.41 C
1759 18-12-2018 02:40:00 5.4 C 94 % 4.51 C
1760 18-12-2018 02:45:00 5.4 C 94 % 4.51 C
1761 18-12-2018 02:50:00 5.5 C 94 % 4.61 C
1762 18-12-2018 02:55:00 5.6 C 94 % 4.71 C
1763 18-12-2018 03:00:00 5.7 C 93 % 4.66 C
1764 18-12-2018 03:05:00 5.7 C 93 % 4.66 C
1765 18-12-2018 03:10:00 5.8 C 93 % 4.76 C
1766 18-12-2018 03:15:00 5.9 C 93 % 4.86 C
1767 18-12-2018 03:20:00 5.9 C 93 % 4.86 C
1768 18-12-2018 03:25:00 5.9 C 92 % 4.7 C
1769 18-12-2018 03:30:00 6 C 92 % 4.8 C
1770 18-12-2018 03:35:00 6 C 92 % 4.8 C
1771 18-12-2018 03:40:00 6 C 92 % 4.8 C
1772 18-12-2018 03:45:00 6 C 92 % 4.8 C
1773 18-12-2018 03:50:00 6 C 92 % 4.8 C
1774 18-12-2018 03:55:00 6 C 92 % 4.8 C
1775 18-12-2018 04:00:00 6 C 92 % 4.8 C
Sensor: Nr:Datum:Temp:Feuchte:Taupunkt:
Aussen-T/F 1776 18-12-2018 04:05:00 6 C 92 % 4.8 C
1777 18-12-2018 04:10:00 6.1 C 91 % 4.74 C
1778 18-12-2018 04:15:00 6.1 C 91 % 4.74 C
1779 18-12-2018 04:20:00 6.1 C 91 % 4.74 C
1780 18-12-2018 04:25:00 6.1 C 91 % 4.74 C
1781 18-12-2018 04:30:00 6.2 C 91 % 4.84 C
1782 18-12-2018 04:35:00 6.2 C 90 % 4.69 C
1783 18-12-2018 04:40:00 6.2 C 90 % 4.69 C
1784 18-12-2018 04:45:00 6.3 C 90 % 4.78 C
1785 18-12-2018 04:50:00 6.3 C 89 % 4.62 C
1786 18-12-2018 04:55:00 6.3 C 90 % 4.78 C
1787 18-12-2018 05:00:00 6.3 C 90 % 4.78 C
1788 18-12-2018 05:05:00 6.3 C 89 % 4.62 C
1789 18-12-2018 05:10:00 6.3 C 89 % 4.62 C
1790 18-12-2018 05:15:00 6.3 C 89 % 4.62 C
1791 18-12-2018 05:20:00 6.3 C 89 % 4.62 C
1792 18-12-2018 05:25:00 6.2 C 89 % 4.53 C
1793 18-12-2018 05:30:00 6.2 C 89 % 4.53 C
1794 18-12-2018 05:35:00 6.2 C 90 % 4.69 C
1795 18-12-2018 05:40:00 6.2 C 90 % 4.69 C
1796 18-12-2018 05:45:00 6.2 C 90 % 4.69 C
1797 18-12-2018 05:50:00 6.2 C 90 % 4.69 C
1798 18-12-2018 05:55:00 6.1 C 90 % 4.59 C
1799 18-12-2018 06:00:00 6.1 C 90 % 4.59 C
1800 18-12-2018 06:05:00 6.1 C 90 % 4.59 C
Sensor: Nr:Datum:Temp:Feuchte:Taupunkt:
Aussen-T/F 1801 18-12-2018 06:10:00 6.1 C 90 % 4.59 C
1802 18-12-2018 06:15:00 6 C 91 % 4.65 C
1803 18-12-2018 06:20:00 6 C 91 % 4.65 C
1804 18-12-2018 06:25:00 5.9 C 91 % 4.55 C
1805 18-12-2018 06:30:00 5.9 C 91 % 4.55 C
1806 18-12-2018 06:35:00 5.8 C 91 % 4.45 C
1807 18-12-2018 06:40:00 5.8 C 91 % 4.45 C
1808 18-12-2018 06:45:00 5.8 C 91 % 4.45 C
1809 18-12-2018 06:50:00 5.8 C 91 % 4.45 C
1810 18-12-2018 06:55:00 5.8 C 91 % 4.45 C
1811 18-12-2018 07:00:00 5.8 C 91 % 4.45 C
1812 18-12-2018 07:05:00 5.8 C 91 % 4.45 C
1813 18-12-2018 07:10:00 5.8 C 91 % 4.45 C
1814 18-12-2018 07:15:00 5.8 C 91 % 4.45 C
1815 18-12-2018 07:20:00 5.8 C 91 % 4.45 C
1816 18-12-2018 07:25:00 5.8 C 91 % 4.45 C
1817 18-12-2018 07:30:00 5.9 C 90 % 4.39 C
1818 18-12-2018 07:35:00 5.9 C 91 % 4.55 C
1819 18-12-2018 07:40:00 5.9 C 91 % 4.55 C
1820 18-12-2018 07:45:00 5.9 C 90 % 4.39 C
1821 18-12-2018 07:50:00 5.9 C 90 % 4.39 C
1822 18-12-2018 07:55:00 5.9 C 90 % 4.39 C
1823 18-12-2018 08:00:00 6 C 90 % 4.49 C
1824 18-12-2018 08:05:00 6 C 89 % 4.33 C
1825 18-12-2018 08:10:00 6.1 C 89 % 4.43 C
Sensor: Nr:Datum:Temp:Feuchte:Taupunkt:
Aussen-T/F 1826 18-12-2018 08:15:00 6.1 C 89 % 4.43 C
1827 18-12-2018 08:20:00 6.2 C 89 % 4.53 C
1828 18-12-2018 08:25:00 6.2 C 88 % 4.36 C
1829 18-12-2018 08:30:00 6.2 C 89 % 4.53 C
1830 18-12-2018 08:35:00 6.2 C 88 % 4.36 C
1831 18-12-2018 08:40:00 6.2 C 88 % 4.36 C
1832 18-12-2018 08:45:00 6.2 C 87 % 4.2 C
1833 18-12-2018 08:50:00 6.3 C 87 % 4.3 C
1834 18-12-2018 08:55:00 6.3 C 86 % 4.14 C
1835 18-12-2018 09:00:00 6.4 C 86 % 4.23 C
1836 18-12-2018 09:05:00 6.5 C 86 % 4.33 C
1837 18-12-2018 09:10:00 6.5 C 85 % 4.17 C
1838 18-12-2018 09:15:00 6.6 C 85 % 4.26 C
1839 18-12-2018 09:20:00 6.5 C 84 % 4 C
1840 18-12-2018 09:25:00 6.5 C 84 % 4 C
1841 18-12-2018 09:30:00 6.5 C 85 % 4.17 C
1842 18-12-2018 09:35:00 6.5 C 84 % 4 C
1843 18-12-2018 09:40:00 6.4 C 85 % 4.07 C
1844 18-12-2018 09:45:00 6.4 C 85 % 4.07 C
1845 18-12-2018 09:50:00 6.4 C 85 % 4.07 C
1846 18-12-2018 09:55:00 6.4 C 85 % 4.07 C
1847 18-12-2018 10:00:00 6.3 C 85 % 3.97 C
1848 18-12-2018 10:05:00 6.3 C 85 % 3.97 C
1849 18-12-2018 10:10:00 6.2 C 86 % 4.04 C
1850 18-12-2018 10:15:00 6.2 C 86 % 4.04 C
Sensor: Nr:Datum:Temp:Feuchte:Taupunkt:
Aussen-T/F 1851 18-12-2018 10:20:00 6.1 C 86 % 3.94 C
1852 18-12-2018 10:25:00 6.1 C 86 % 3.94 C
1853 18-12-2018 10:30:00 6 C 86 % 3.84 C
1854 18-12-2018 10:35:00 5.9 C 87 % 3.91 C
1855 18-12-2018 10:40:00 5.8 C 87 % 3.81 C
1856 18-12-2018 10:45:00 5.8 C 87 % 3.81 C
1857 18-12-2018 10:50:00 5.7 C 87 % 3.71 C
1858 18-12-2018 10:55:00 5.6 C 88 % 3.77 C
1859 18-12-2018 11:00:00 5.5 C 88 % 3.67 C
1860 18-12-2018 11:05:00 5.4 C 88 % 3.58 C
1861 18-12-2018 11:10:00 5.4 C 88 % 3.58 C
1862 18-12-2018 11:15:00 5.3 C 89 % 3.64 C
1863 18-12-2018 11:20:00 5.3 C 89 % 3.64 C
1864 18-12-2018 11:25:00 5.3 C 89 % 3.64 C
1865 18-12-2018 11:30:00 5.3 C 89 % 3.64 C
1866 18-12-2018 11:35:00 5.3 C 89 % 3.64 C
1867 18-12-2018 11:40:00 5.3 C 89 % 3.64 C
1868 18-12-2018 11:45:00 5.3 C 89 % 3.64 C
1869 18-12-2018 11:50:00 5.3 C 89 % 3.64 C
1870 18-12-2018 11:55:00 5.3 C 89 % 3.64 C
1871 18-12-2018 12:00:00 5.3 C 89 % 3.64 C
1872 18-12-2018 12:05:00 5.4 C 89 % 3.74 C
1873 18-12-2018 12:10:00 5.4 C 89 % 3.74 C
1874 18-12-2018 12:15:00 5.4 C 89 % 3.74 C
1875 18-12-2018 12:20:00 5.5 C 89 % 3.84 C
Sensor: Nr:Datum:Temp:Feuchte:Taupunkt:
Aussen-T/F 1876 18-12-2018 12:25:00 5.6 C 89 % 3.93 C
1877 18-12-2018 12:30:00 5.7 C 88 % 3.87 C
1878 18-12-2018 12:35:00 5.7 C 88 % 3.87 C
1879 18-12-2018 12:40:00 5.8 C 88 % 3.97 C
1880 18-12-2018 12:45:00 5.9 C 88 % 4.07 C
1881 18-12-2018 12:50:00 5.9 C 88 % 4.07 C
1882 18-12-2018 12:55:00 6 C 88 % 4.17 C
1883 18-12-2018 13:00:00 6.1 C 87 % 4.1 C
1884 18-12-2018 13:05:00 6.2 C 86 % 4.04 C
1885 18-12-2018 13:10:00 6.2 C 86 % 4.04 C
1886 18-12-2018 13:15:00 6.3 C 87 % 4.3 C
1887 18-12-2018 13:20:00 6.4 C 86 % 4.23 C
1888 18-12-2018 13:25:00 6.5 C 87 % 4.5 C
1889 18-12-2018 13:30:00 6.5 C 86 % 4.33 C
1890 18-12-2018 13:35:00 6.6 C 86 % 4.43 C
1891 18-12-2018 13:40:00 6.6 C 85 % 4.26 C
1892 18-12-2018 13:45:00 6.6 C 85 % 4.26 C
1893 18-12-2018 13:50:00 6.6 C 85 % 4.26 C
1894 18-12-2018 13:55:00 6.6 C 85 % 4.26 C
1895 18-12-2018 14:00:00 6.6 C 85 % 4.26 C
1896 18-12-2018 14:05:00 6.6 C 86 % 4.43 C
1897 18-12-2018 14:10:00 6.6 C 86 % 4.43 C
1898 18-12-2018 14:15:00 6.6 C 86 % 4.43 C
1899 18-12-2018 14:20:00 6.6 C 86 % 4.43 C
1900 18-12-2018 14:25:00 6.6 C 86 % 4.43 C
Sensor: Nr:Datum:Temp:Feuchte:Taupunkt:
Aussen-T/F 1901 18-12-2018 14:30:00 6.5 C 86 % 4.33 C
1902 18-12-2018 14:35:00 6.6 C 86 % 4.43 C
1903 18-12-2018 14:40:00 6.5 C 87 % 4.5 C
1904 18-12-2018 14:45:00 6.4 C 87 % 4.4 C
1905 18-12-2018 14:50:00 6.3 C 87 % 4.3 C
1906 18-12-2018 14:55:00 6.3 C 87 % 4.3 C
1907 18-12-2018 15:00:00 6.3 C 87 % 4.3 C
1908 18-12-2018 15:05:00 6.3 C 87 % 4.3 C
1909 18-12-2018 15:10:00 6.2 C 87 % 4.2 C
1910 18-12-2018 15:15:00 6.1 C 88 % 4.27 C
1911 18-12-2018 15:20:00 5.9 C 88 % 4.07 C
1912 18-12-2018 15:25:00 5.8 C 89 % 4.13 C
1913 18-12-2018 15:30:00 5.7 C 89 % 4.03 C
1914 18-12-2018 15:35:00 5.6 C 89 % 3.93 C
1915 18-12-2018 15:40:00 5.4 C 89 % 3.74 C
1916 18-12-2018 15:45:00 5.3 C 89 % 3.64 C
1917 18-12-2018 15:50:00 5.2 C 90 % 3.7 C
1918 18-12-2018 15:55:00 5.2 C 90 % 3.7 C
1919 18-12-2018 16:00:00 5 C 90 % 3.5 C
1920 18-12-2018 16:05:00 4.9 C 90 % 3.4 C
1921 18-12-2018 16:10:00 4.8 C 90 % 3.3 C
1922 18-12-2018 16:15:00 4.6 C 90 % 3.1 C
1923 18-12-2018 16:20:00 4.4 C 90 % 2.91 C
1924 18-12-2018 16:25:00 4.3 C 90 % 2.81 C
1925 18-12-2018 16:30:00 4.2 C 91 % 2.87 C
Sensor: Nr:Datum:Temp:Feuchte:Taupunkt:
Aussen-T/F 1926 18-12-2018 16:35:00 4.1 C 91 % 2.77 C
1927 18-12-2018 16:40:00 3.9 C 91 % 2.57 C
1928 18-12-2018 16:45:00 3.8 C 92 % 2.62 C
1929 18-12-2018 16:50:00 3.7 C 92 % 2.52 C
1930 18-12-2018 16:55:00 3.7 C 92 % 2.52 C
1931 18-12-2018 17:00:00 3.6 C 92 % 2.42 C
1932 18-12-2018 17:05:00 3.6 C 93 % 2.58 C
1933 18-12-2018 17:10:00 3.6 C 93 % 2.58 C
1934 18-12-2018 17:15:00 3.6 C 93 % 2.58 C
1935 18-12-2018 17:20:00 3.5 C 93 % 2.48 C
1936 18-12-2018 17:25:00 3.4 C 93 % 2.38 C
1937 18-12-2018 17:30:00 3.3 C 93 % 2.28 C
1938 18-12-2018 17:35:00 3.3 C 93 % 2.28 C
1939 18-12-2018 17:40:00 3.3 C 94 % 2.43 C
1940 18-12-2018 17:45:00 3.3 C 94 % 2.43 C
1941 18-12-2018 17:50:00 3.2 C 94 % 2.33 C
1942 18-12-2018 17:55:00 3.2 C 94 % 2.33 C
1943 18-12-2018 18:00:00 3.2 C 94 % 2.33 C
1944 18-12-2018 18:05:00 3.1 C 94 % 2.23 C
1945 18-12-2018 18:10:00 3 C 94 % 2.13 C
1946 18-12-2018 18:15:00 2.9 C 93 % 1.88 C
1947 18-12-2018 18:20:00 2.8 C 94 % 1.93 C
1948 18-12-2018 18:25:00 2.7 C 94 % 1.83 C
1949 18-12-2018 18:30:00 2.7 C 94 % 1.83 C
1950 18-12-2018 18:35:00 2.7 C 94 % 1.83 C
Sensor: Nr:Datum:Temp:Feuchte:Taupunkt:
Aussen-T/F 1951 18-12-2018 18:40:00 2.7 C 94 % 1.83 C
1952 18-12-2018 18:45:00 2.8 C 95 % 2.08 C
1953 18-12-2018 18:50:00 2.7 C 94 % 1.83 C
1954 18-12-2018 18:55:00 2.6 C 94 % 1.73 C
1955 18-12-2018 19:00:00 2.6 C 95 % 1.88 C
1956 18-12-2018 19:05:00 2.6 C 95 % 1.88 C
1957 18-12-2018 19:10:00 2.6 C 95 % 1.88 C
1958 18-12-2018 19:15:00 2.6 C 95 % 1.88 C
1959 18-12-2018 19:20:00 2.6 C 95 % 1.88 C
1960 18-12-2018 19:25:00 2.7 C 95 % 1.98 C
1961 18-12-2018 19:30:00 2.6 C 95 % 1.88 C
1962 18-12-2018 19:35:00 2.6 C 95 % 1.88 C
1963 18-12-2018 19:40:00 2.5 C 95 % 1.78 C
1964 18-12-2018 19:45:00 2.4 C 95 % 1.68 C
1965 18-12-2018 19:50:00 2.4 C 95 % 1.68 C
1966 18-12-2018 19:55:00 2.3 C 95 % 1.58 C
1967 18-12-2018 20:00:00 2.3 C 95 % 1.58 C
1968 18-12-2018 20:05:00 2.3 C 95 % 1.58 C
1969 18-12-2018 20:10:00 2.4 C 95 % 1.68 C
1970 18-12-2018 20:15:00 2.4 C 95 % 1.68 C
1971 18-12-2018 20:20:00 2.3 C 95 % 1.58 C
1972 18-12-2018 20:25:00 2.3 C 95 % 1.58 C
1973 18-12-2018 20:30:00 2.3 C 95 % 1.58 C
1974 18-12-2018 20:35:00 2.2 C 95 % 1.48 C
1975 18-12-2018 20:40:00 2.2 C 95 % 1.48 C
Sensor: Nr:Datum:Temp:Feuchte:Taupunkt:
Aussen-T/F 1976 18-12-2018 20:45:00 2.2 C 95 % 1.48 C
1977 18-12-2018 20:50:00 2.2 C 95 % 1.48 C
1978 18-12-2018 20:55:00 2.3 C 96 % 1.73 C
1979 18-12-2018 21:00:00 2.6 C 96 % 2.03 C
1980 18-12-2018 21:05:00 2.9 C 96 % 2.33 C
1981 18-12-2018 21:10:00 3.3 C 96 % 2.72 C
1982 18-12-2018 21:15:00 3.4 C 96 % 2.82 C
1983 18-12-2018 21:20:00 3.6 C 96 % 3.02 C
1984 18-12-2018 21:25:00 3.7 C 96 % 3.12 C
1985 18-12-2018 21:30:00 3.8 C 96 % 3.22 C
1986 18-12-2018 21:35:00 4 C 95 % 3.27 C
1987 18-12-2018 21:40:00 4.2 C 95 % 3.47 C
1988 18-12-2018 21:45:00 4.3 C 94 % 3.42 C
1989 18-12-2018 21:50:00 4.3 C 93 % 3.27 C
1990 18-12-2018 21:55:00 4.4 C 93 % 3.37 C
1991 18-12-2018 22:00:00 4.6 C 92 % 3.42 C
1992 18-12-2018 22:05:00 4.7 C 91 % 3.36 C
1993 18-12-2018 22:10:00 4.8 C 90 % 3.3 C
1994 18-12-2018 22:15:00 4.9 C 89 % 3.24 C
1995 18-12-2018 22:20:00 5 C 88 % 3.18 C
1996 18-12-2018 22:25:00 5.1 C 87 % 3.12 C
1997 18-12-2018 22:30:00 5 C 87 % 3.02 C
1998 18-12-2018 22:35:00 5 C 86 % 2.86 C
1999 18-12-2018 22:40:00 5.1 C 86 % 2.96 C
2000 18-12-2018 22:45:00 5.1 C 86 % 2.96 C
Sensor: Nr:Datum:Temp:Feuchte:Taupunkt:
Aussen-T/F 2001 18-12-2018 22:50:00 5.1 C 85 % 2.79 C
2002 18-12-2018 22:55:00 5.1 C 85 % 2.79 C
2003 18-12-2018 23:00:00 5 C 85 % 2.69 C
2004 18-12-2018 23:05:00 5.1 C 84 % 2.63 C
2005 18-12-2018 23:10:00 5.1 C 85 % 2.79 C
2006 18-12-2018 23:15:00 5 C 84 % 2.53 C
2007 18-12-2018 23:20:00 4.9 C 84 % 2.43 C
2008 18-12-2018 23:25:00 4.9 C 84 % 2.43 C
2009 18-12-2018 23:30:00 4.9 C 84 % 2.43 C
2010 18-12-2018 23:35:00 4.9 C 84 % 2.43 C
2011 18-12-2018 23:40:00 4.9 C 83 % 2.26 C
2012 18-12-2018 23:45:00 5.1 C 83 % 2.46 C
2013 18-12-2018 23:50:00 5 C 83 % 2.36 C
2014 18-12-2018 23:55:00 5 C 83 % 2.36 C
2015 19-12-2018 00:00:00 4.9 C 83 % 2.26 C
2016 19-12-2018 00:05:00 4.9 C 83 % 2.26 C
2017 19-12-2018 00:10:00 4.8 C 84 % 2.33 C
2018 19-12-2018 00:15:00 4.8 C 84 % 2.33 C
2019 19-12-2018 00:20:00 4.8 C 84 % 2.33 C
2020 19-12-2018 00:25:00 4.7 C 84 % 2.23 C
2021 19-12-2018 00:30:00 4.7 C 85 % 2.4 C
2022 19-12-2018 00:35:00 4.6 C 85 % 2.3 C
2023 19-12-2018 00:40:00 4.6 C 85 % 2.3 C
2024 19-12-2018 00:45:00 4.5 C 85 % 2.2 C
2025 19-12-2018 00:50:00 4.4 C 85 % 2.11 C
Sensor: Nr:Datum:Temp:Feuchte:Taupunkt:
Aussen-T/F 2026 19-12-2018 00:55:00 4.4 C 85 % 2.11 C
2027 19-12-2018 01:00:00 4.4 C 85 % 2.11 C
2028 19-12-2018 01:05:00 4.4 C 85 % 2.11 C
2029 19-12-2018 01:10:00 4.4 C 85 % 2.11 C
2030 19-12-2018 01:15:00 4.4 C 85 % 2.11 C
2031 19-12-2018 01:20:00 4.3 C 85 % 2.01 C
2032 19-12-2018 01:25:00 4.3 C 85 % 2.01 C
2033 19-12-2018 01:30:00 4.3 C 85 % 2.01 C
2034 19-12-2018 01:35:00 4.3 C 86 % 2.17 C
2035 19-12-2018 01:40:00 4.3 C 86 % 2.17 C
2036 19-12-2018 01:45:00 4.2 C 86 % 2.07 C
2037 19-12-2018 01:50:00 4.2 C 86 % 2.07 C
2038 19-12-2018 01:55:00 4.2 C 86 % 2.07 C
2039 19-12-2018 02:00:00 4.2 C 86 % 2.07 C
2040 19-12-2018 02:05:00 4.2 C 86 % 2.07 C
2041 19-12-2018 02:10:00 4.2 C 86 % 2.07 C
2042 19-12-2018 02:15:00 4.2 C 86 % 2.07 C
2043 19-12-2018 02:20:00 4.2 C 86 % 2.07 C
2044 19-12-2018 02:25:00 4.2 C 86 % 2.07 C
2045 19-12-2018 02:30:00 4.2 C 86 % 2.07 C
2046 19-12-2018 02:35:00 4.2 C 86 % 2.07 C
2047 19-12-2018 02:40:00 4.1 C 86 % 1.97 C
2048 19-12-2018 02:45:00 4.1 C 87 % 2.14 C
2049 19-12-2018 02:50:00 4.1 C 87 % 2.14 C
2050 19-12-2018 02:55:00 4 C 87 % 2.04 C
Sensor: Nr:Datum:Temp:Feuchte:Taupunkt:
Aussen-T/F 2051 19-12-2018 03:00:00 3.9 C 87 % 1.94 C
2052 19-12-2018 03:05:00 3.9 C 87 % 1.94 C
2053 19-12-2018 03:10:00 3.9 C 87 % 1.94 C
2054 19-12-2018 03:15:00 3.9 C 88 % 2.1 C
2055 19-12-2018 03:20:00 3.9 C 88 % 2.1 C
2056 19-12-2018 03:25:00 3.9 C 88 % 2.1 C
2057 19-12-2018 03:30:00 3.9 C 89 % 2.26 C
2058 19-12-2018 03:35:00 3.9 C 88 % 2.1 C
2059 19-12-2018 03:40:00 3.9 C 88 % 2.1 C
2060 19-12-2018 03:45:00 3.9 C 89 % 2.26 C
2061 19-12-2018 03:50:00 4 C 89 % 2.36 C
2062 19-12-2018 03:55:00 4 C 89 % 2.36 C
2063 19-12-2018 04:00:00 4.1 C 89 % 2.45 C
2064 19-12-2018 04:05:00 4.1 C 89 % 2.45 C
2065 19-12-2018 04:10:00 4.1 C 89 % 2.45 C
2066 19-12-2018 04:15:00 4.1 C 89 % 2.45 C
2067 19-12-2018 04:20:00 4.1 C 89 % 2.45 C
2068 19-12-2018 04:25:00 4.2 C 89 % 2.55 C
2069 19-12-2018 04:30:00 4.2 C 88 % 2.39 C
2070 19-12-2018 04:35:00 4.3 C 88 % 2.49 C
2071 19-12-2018 04:40:00 4.3 C 88 % 2.49 C
2072 19-12-2018 04:45:00 4.4 C 88 % 2.59 C
2073 19-12-2018 04:50:00 4.6 C 87 % 2.63 C
2074 19-12-2018 04:55:00 4.7 C 87 % 2.73 C
2075 19-12-2018 05:00:00 4.8 C 86 % 2.66 C
Sensor: Nr:Datum:Temp:Feuchte:Taupunkt:
Aussen-T/F 2076 19-12-2018 05:05:00 4.9 C 86 % 2.76 C
2077 19-12-2018 05:10:00 5 C 86 % 2.86 C
2078 19-12-2018 05:15:00 5.1 C 87 % 3.12 C
2079 19-12-2018 05:20:00 5.1 C 88 % 3.28 C
2080 19-12-2018 05:25:00 5.1 C 89 % 3.44 C
2081 19-12-2018 05:30:00 5 C 90 % 3.5 C
2082 19-12-2018 05:35:00 5 C 90 % 3.5 C
2083 19-12-2018 05:40:00 4.9 C 91 % 3.56 C
2084 19-12-2018 05:45:00 4.9 C 91 % 3.56 C
2085 19-12-2018 05:50:00 4.9 C 91 % 3.56 C
2086 19-12-2018 05:55:00 4.9 C 92 % 3.71 C
2087 19-12-2018 06:00:00 4.8 C 92 % 3.61 C
2088 19-12-2018 06:05:00 4.8 C 92 % 3.61 C
2089 19-12-2018 06:10:00 4.9 C 91 % 3.56 C
2090 19-12-2018 06:15:00 4.9 C 92 % 3.71 C
2091 19-12-2018 06:20:00 4.9 C 91 % 3.56 C
2092 19-12-2018 06:25:00 4.9 C 91 % 3.56 C
2093 19-12-2018 06:30:00 5 C 91 % 3.66 C
2094 19-12-2018 06:35:00 5.1 C 91 % 3.76 C
2095 19-12-2018 06:40:00 5.1 C 91 % 3.76 C
2096 19-12-2018 06:45:00 5.2 C 91 % 3.85 C
2097 19-12-2018 06:50:00 5.4 C 90 % 3.89 C
2098 19-12-2018 06:55:00 5.5 C 90 % 3.99 C
2099 19-12-2018 07:00:00 5.6 C 90 % 4.09 C
2100 19-12-2018 07:05:00 5.7 C 90 % 4.19 C
Sensor: Nr:Datum:Temp:Feuchte:Taupunkt:
Aussen-T/F 2101 19-12-2018 07:10:00 5.8 C 89 % 4.13 C
2102 19-12-2018 07:15:00 5.9 C 89 % 4.23 C
2103 19-12-2018 07:20:00 5.9 C 88 % 4.07 C
2104 19-12-2018 07:25:00 6 C 88 % 4.17 C
2105 19-12-2018 07:30:00 6 C 89 % 4.33 C
2106 19-12-2018 07:35:00 6.1 C 88 % 4.27 C
2107 19-12-2018 07:40:00 6.2 C 88 % 4.36 C
2108 19-12-2018 07:45:00 6.2 C 88 % 4.36 C
2109 19-12-2018 07:50:00 6.2 C 88 % 4.36 C
2110 19-12-2018 07:55:00 6.2 C 88 % 4.36 C
2111 19-12-2018 08:00:00 6.2 C 89 % 4.53 C
2112 19-12-2018 08:05:00 6.2 C 89 % 4.53 C
2113 19-12-2018 08:10:00 6.2 C 89 % 4.53 C
2114 19-12-2018 08:15:00 6.2 C 89 % 4.53 C
2115 19-12-2018 08:20:00 6.2 C 90 % 4.69 C
2116 19-12-2018 08:25:00 6.2 C 90 % 4.69 C
2117 19-12-2018 08:30:00 6.3 C 91 % 4.94 C
2118 19-12-2018 08:35:00 6.4 C 91 % 5.04 C
2119 19-12-2018 08:40:00 6.5 C 91 % 5.14 C
2120 19-12-2018 08:45:00 6.6 C 91 % 5.24 C
2121 19-12-2018 08:50:00 6.6 C 91 % 5.24 C
2122 19-12-2018 08:55:00 6.7 C 91 % 5.34 C
2123 19-12-2018 09:00:00 6.7 C 91 % 5.34 C
2124 19-12-2018 09:05:00 6.8 C 91 % 5.44 C
2125 19-12-2018 09:10:00 6.8 C 91 % 5.44 C
Sensor: Nr:Datum:Temp:Feuchte:Taupunkt:
Aussen-T/F 2126 19-12-2018 09:15:00 6.8 C 91 % 5.44 C
2127 19-12-2018 09:20:00 6.9 C 91 % 5.54 C
2128 19-12-2018 09:25:00 6.9 C 91 % 5.54 C
2129 19-12-2018 09:30:00 7 C 91 % 5.63 C
2130 19-12-2018 09:35:00 6.9 C 91 % 5.54 C
2131 19-12-2018 09:40:00 6.9 C 91 % 5.54 C
2132 19-12-2018 09:45:00 6.8 C 91 % 5.44 C
2133 19-12-2018 09:50:00 6.8 C 92 % 5.59 C
2134 19-12-2018 09:55:00 6.9 C 92 % 5.69 C
2135 19-12-2018 10:00:00 6.9 C 92 % 5.69 C
2136 19-12-2018 10:05:00 7.1 C 92 % 5.89 C
2137 19-12-2018 10:10:00 7.2 C 93 % 6.15 C
2138 19-12-2018 10:15:00 7.2 C 92 % 5.99 C
2139 19-12-2018 10:20:00 7.2 C 91 % 5.83 C
2140 19-12-2018 10:25:00 7.1 C 91 % 5.73 C
2141 19-12-2018 10:30:00 7.1 C 91 % 5.73 C
2142 19-12-2018 10:35:00 7.1 C 91 % 5.73 C
2143 19-12-2018 10:40:00 7.1 C 91 % 5.73 C
2144 19-12-2018 10:45:00 7.2 C 91 % 5.83 C
2145 19-12-2018 10:50:00 7.2 C 91 % 5.83 C
2146 19-12-2018 10:55:00 7.2 C 91 % 5.83 C
2147 19-12-2018 11:00:00 7.2 C 90 % 5.67 C
2148 19-12-2018 11:05:00 7.3 C 91 % 5.93 C
2149 19-12-2018 11:10:00 7.3 C 91 % 5.93 C
2150 19-12-2018 11:15:00 7.4 C 91 % 6.03 C
Sensor: Nr:Datum:Temp:Feuchte:Taupunkt:
Aussen-T/F 2151 19-12-2018 11:20:00 7.5 C 91 % 6.13 C
2152 19-12-2018 11:25:00 7.6 C 91 % 6.23 C
2153 19-12-2018 11:30:00 7.7 C 92 % 6.48 C
2154 19-12-2018 11:35:00 7.8 C 92 % 6.58 C
2155 19-12-2018 11:40:00 7.9 C 91 % 6.52 C
2156 19-12-2018 11:45:00 7.9 C 91 % 6.52 C
2157 19-12-2018 11:50:00 8 C 92 % 6.78 C
2158 19-12-2018 11:55:00 8.2 C 92 % 6.98 C
2159 19-12-2018 12:00:00 8.3 C 92 % 7.08 C
2160 19-12-2018 12:05:00 8.4 C 92 % 7.18 C
2161 19-12-2018 12:10:00 8.6 C 92 % 7.38 C
2162 19-12-2018 12:15:00 8.6 C 91 % 7.22 C
2163 19-12-2018 12:20:00 8.7 C 90 % 7.15 C
2164 19-12-2018 12:25:00 8.8 C 89 % 7.09 C
2165 19-12-2018 12:30:00 8.8 C 88 % 6.93 C
2166 19-12-2018 12:35:00 8.9 C 88 % 7.02 C
2167 19-12-2018 12:40:00 9 C 88 % 7.12 C
2168 19-12-2018 12:45:00 9.1 C 87 % 7.05 C
2169 19-12-2018 12:50:00 9.2 C 86 % 6.98 C
2170 19-12-2018 12:55:00 9.3 C 86 % 7.08 C
2171 19-12-2018 13:00:00 9.3 C 86 % 7.08 C
2172 19-12-2018 13:05:00 9.4 C 86 % 7.18 C
2173 19-12-2018 13:10:00 9.4 C 86 % 7.18 C
2174 19-12-2018 13:15:00 9.4 C 85 % 7.01 C
2175 19-12-2018 13:20:00 9.4 C 85 % 7.01 C
Sensor: Nr:Datum:Temp:Feuchte:Taupunkt:
Aussen-T/F 2176 19-12-2018 13:25:00 9.3 C 85 % 6.91 C
2177 19-12-2018 13:30:00 9.3 C 84 % 6.74 C
2178 19-12-2018 13:35:00 9.3 C 84 % 6.74 C
2179 19-12-2018 13:40:00 9.2 C 83 % 6.47 C
2180 19-12-2018 13:45:00 9.2 C 84 % 6.64 C
2181 19-12-2018 13:50:00 9.2 C 84 % 6.64 C
2182 19-12-2018 13:55:00 9.2 C 84 % 6.64 C
2183 19-12-2018 14:00:00 9.2 C 84 % 6.64 C
2184 19-12-2018 14:05:00 9.2 C 84 % 6.64 C
2185 19-12-2018 14:10:00 9.2 C 84 % 6.64 C
2186 19-12-2018 14:15:00 9.2 C 84 % 6.64 C
2187 19-12-2018 14:20:00 9.3 C 84 % 6.74 C
2188 19-12-2018 14:30:00 9.3 C 83 % 6.57 C
2189 19-12-2018 14:35:00 9.3 C 83 % 6.57 C
2190 19-12-2018 14:40:00 9.3 C 83 % 6.57 C
2191 19-12-2018 14:45:00 9.3 C 84 % 6.74 C
2192 19-12-2018 14:50:00 9.2 C 84 % 6.64 C
2193 19-12-2018 14:55:00 9.2 C 84 % 6.64 C
2194 19-12-2018 15:00:00 9.2 C 84 % 6.64 C
2195 19-12-2018 15:05:00 9.2 C 84 % 6.64 C
2196 19-12-2018 15:10:00 9.1 C 85 % 6.72 C
2197 19-12-2018 15:15:00 9.1 C 85 % 6.72 C
2198 19-12-2018 15:20:00 9.1 C 84 % 6.54 C
2199 19-12-2018 15:25:00 9.1 C 84 % 6.54 C
2200 19-12-2018 15:30:00 9 C 84 % 6.45 C
Sensor: Nr:Datum:Temp:Feuchte:Taupunkt:
Aussen-T/F 2201 19-12-2018 15:35:00 8.9 C 84 % 6.35 C
2202 19-12-2018 15:40:00 8.9 C 84 % 6.35 C
2203 19-12-2018 15:45:00 8.8 C 85 % 6.42 C
2204 19-12-2018 15:50:00 8.7 C 85 % 6.32 C
2205 19-12-2018 15:55:00 8.7 C 85 % 6.32 C
2206 19-12-2018 16:00:00 8.6 C 85 % 6.23 C
2207 19-12-2018 16:05:00 8.5 C 85 % 6.13 C
2208 19-12-2018 16:10:00 8.4 C 86 % 6.2 C
2209 19-12-2018 16:15:00 8.3 C 86 % 6.1 C
2210 19-12-2018 16:20:00 8.2 C 86 % 6 C
2211 19-12-2018 16:25:00 8.2 C 86 % 6 C
2212 19-12-2018 16:30:00 8.1 C 86 % 5.9 C
2213 19-12-2018 16:35:00 7.9 C 86 % 5.71 C
2214 19-12-2018 16:40:00 7.8 C 87 % 5.78 C
2215 19-12-2018 16:45:00 7.7 C 87 % 5.68 C
2216 19-12-2018 16:50:00 7.6 C 88 % 5.74 C
2217 19-12-2018 16:55:00 7.6 C 88 % 5.74 C
2218 19-12-2018 17:00:00 7.6 C 88 % 5.74 C
2219 19-12-2018 17:05:00 7.6 C 88 % 5.74 C
2220 19-12-2018 17:10:00 7.6 C 88 % 5.74 C
2221 19-12-2018 17:15:00 7.5 C 88 % 5.64 C
2222 19-12-2018 17:20:00 7.4 C 88 % 5.55 C
2223 19-12-2018 17:25:00 7.3 C 89 % 5.61 C
2224 19-12-2018 17:30:00 7.4 C 89 % 5.71 C
2225 19-12-2018 17:35:00 7.4 C 89 % 5.71 C
Sensor: Nr:Datum:Temp:Feuchte:Taupunkt:
Aussen-T/F 2226 19-12-2018 17:40:00 7.3 C 89 % 5.61 C
2227 19-12-2018 17:45:00 7.3 C 89 % 5.61 C
2228 19-12-2018 17:50:00 7.2 C 89 % 5.51 C
2229 19-12-2018 17:55:00 7.2 C 90 % 5.67 C
2230 19-12-2018 18:00:00 7.2 C 90 % 5.67 C
2231 19-12-2018 18:05:00 7.2 C 90 % 5.67 C
2232 19-12-2018 18:10:00 7.3 C 90 % 5.77 C
2233 19-12-2018 18:15:00 7.3 C 90 % 5.77 C
2234 19-12-2018 18:20:00 7.3 C 90 % 5.77 C
2235 19-12-2018 18:25:00 7.3 C 90 % 5.77 C
2236 19-12-2018 18:30:00 7.4 C 90 % 5.87 C
2237 19-12-2018 18:35:00 7.4 C 90 % 5.87 C
2238 19-12-2018 18:40:00 7.4 C 90 % 5.87 C
2239 19-12-2018 18:45:00 7.5 C 90 % 5.97 C
2240 19-12-2018 18:50:00 7.5 C 90 % 5.97 C
2241 19-12-2018 18:55:00 7.4 C 89 % 5.71 C
2242 19-12-2018 19:00:00 7.4 C 89 % 5.71 C
2243 19-12-2018 19:05:00 7.4 C 89 % 5.71 C
2244 19-12-2018 19:10:00 7.3 C 89 % 5.61 C
2245 19-12-2018 19:15:00 7.3 C 89 % 5.61 C
2246 19-12-2018 19:20:00 7.2 C 89 % 5.51 C
2247 19-12-2018 19:25:00 7 C 89 % 5.31 C
2248 19-12-2018 19:30:00 6.8 C 89 % 5.12 C
2249 19-12-2018 19:35:00 6.7 C 89 % 5.02 C
2250 19-12-2018 19:40:00 6.5 C 89 % 4.82 C
Sensor: Nr:Datum:Temp:Feuchte:Taupunkt:
Aussen-T/F 2251 19-12-2018 19:45:00 6.3 C 90 % 4.78 C
2252 19-12-2018 19:50:00 6.3 C 91 % 4.94 C
2253 19-12-2018 19:55:00 6.2 C 91 % 4.84 C
2254 19-12-2018 20:00:00 6.1 C 91 % 4.74 C
2255 19-12-2018 20:05:00 6 C 91 % 4.65 C
2256 19-12-2018 20:10:00 6.1 C 92 % 4.9 C
2257 19-12-2018 20:15:00 6.1 C 92 % 4.9 C
2258 19-12-2018 20:20:00 6.1 C 93 % 5.06 C
2259 19-12-2018 20:25:00 6.3 C 93 % 5.25 C
2260 19-12-2018 20:30:00 6.4 C 93 % 5.35 C
2261 19-12-2018 20:35:00 6.6 C 93 % 5.55 C
2262 19-12-2018 20:40:00 6.6 C 92 % 5.4 C
2263 19-12-2018 20:45:00 6.6 C 92 % 5.4 C
2264 19-12-2018 20:50:00 6.6 C 92 % 5.4 C
2265 19-12-2018 20:55:00 6.5 C 92 % 5.3 C
2266 19-12-2018 21:00:00 6.5 C 92 % 5.3 C
2267 19-12-2018 21:05:00 6.5 C 92 % 5.3 C
2268 19-12-2018 21:10:00 6.5 C 92 % 5.3 C
2269 19-12-2018 21:15:00 6.5 C 92 % 5.3 C
2270 19-12-2018 21:20:00 6.6 C 92 % 5.4 C
2271 19-12-2018 21:25:00 6.6 C 92 % 5.4 C
2272 19-12-2018 21:30:00 6.6 C 92 % 5.4 C
2273 19-12-2018 21:35:00 6.6 C 92 % 5.4 C
2274 19-12-2018 21:40:00 6.6 C 92 % 5.4 C
2275 19-12-2018 21:45:00 6.7 C 92 % 5.49 C
Sensor: Nr:Datum:Temp:Feuchte:Taupunkt:
Aussen-T/F 2276 19-12-2018 21:50:00 6.6 C 92 % 5.4 C
2277 19-12-2018 21:55:00 6.6 C 92 % 5.4 C
2278 19-12-2018 22:00:00 6.6 C 92 % 5.4 C
2279 19-12-2018 22:05:00 6.6 C 92 % 5.4 C
2280 19-12-2018 22:10:00 6.6 C 93 % 5.55 C
2281 19-12-2018 22:15:00 6.6 C 93 % 5.55 C
2282 19-12-2018 22:20:00 6.6 C 93 % 5.55 C
2283 19-12-2018 22:25:00 6.6 C 93 % 5.55 C
2284 19-12-2018 22:30:00 6.7 C 93 % 5.65 C
2285 19-12-2018 22:35:00 6.7 C 93 % 5.65 C
2286 19-12-2018 22:40:00 6.7 C 93 % 5.65 C
2287 19-12-2018 22:45:00 6.7 C 94 % 5.8 C
2288 19-12-2018 22:50:00 6.7 C 94 % 5.8 C
2289 19-12-2018 22:55:00 6.7 C 93 % 5.65 C
2290 19-12-2018 23:00:00 6.6 C 93 % 5.55 C
2291 19-12-2018 23:05:00 6.4 C 93 % 5.35 C
2292 19-12-2018 23:10:00 6.3 C 93 % 5.25 C
2293 19-12-2018 23:15:00 6.3 C 93 % 5.25 C
2294 19-12-2018 23:20:00 6.3 C 94 % 5.41 C
2295 19-12-2018 23:25:00 6.3 C 94 % 5.41 C
2296 19-12-2018 23:30:00 6.3 C 94 % 5.41 C
2297 19-12-2018 23:35:00 6.4 C 94 % 5.51 C
2298 19-12-2018 23:40:00 6.5 C 94 % 5.61 C
2299 19-12-2018 23:45:00 6.5 C 94 % 5.61 C
2300 19-12-2018 23:50:00 6.5 C 94 % 5.61 C
Sensor: Nr:Datum:Temp:Feuchte:Taupunkt:
Aussen-T/F 2301 19-12-2018 23:55:00 6.5 C 94 % 5.61 C
2302 20-12-2018 00:00:00 6.5 C 94 % 5.61 C
2303 20-12-2018 00:05:00 6.5 C 94 % 5.61 C
2304 20-12-2018 00:10:00 6.4 C 94 % 5.51 C
2305 20-12-2018 00:15:00 6.4 C 94 % 5.51 C
2306 20-12-2018 00:20:00 6.4 C 94 % 5.51 C
2307 20-12-2018 00:25:00 6.3 C 94 % 5.41 C
2308 20-12-2018 00:30:00 6.3 C 94 % 5.41 C
2309 20-12-2018 00:35:00 6.3 C 94 % 5.41 C
2310 20-12-2018 00:40:00 6.3 C 94 % 5.41 C
2311 20-12-2018 00:45:00 6.3 C 94 % 5.41 C
2312 20-12-2018 00:50:00 6.3 C 94 % 5.41 C
2313 20-12-2018 00:55:00 6.3 C 94 % 5.41 C
2314 20-12-2018 01:00:00 6.2 C 94 % 5.31 C
2315 20-12-2018 01:05:00 6.3 C 94 % 5.41 C
2316 20-12-2018 01:10:00 6.3 C 94 % 5.41 C
2317 20-12-2018 01:15:00 6.3 C 94 % 5.41 C
2318 20-12-2018 01:20:00 6.3 C 94 % 5.41 C
2319 20-12-2018 01:25:00 6.3 C 94 % 5.41 C
2320 20-12-2018 01:30:00 6.2 C 94 % 5.31 C
2321 20-12-2018 01:35:00 6.2 C 94 % 5.31 C
2322 20-12-2018 01:40:00 6.2 C 94 % 5.31 C
2323 20-12-2018 01:45:00 6.3 C 95 % 5.56 C
2324 20-12-2018 01:50:00 6.3 C 95 % 5.56 C
2325 20-12-2018 01:55:00 6.3 C 95 % 5.56 C
Sensor: Nr:Datum:Temp:Feuchte:Taupunkt:
Aussen-T/F 2326 20-12-2018 02:00:00 6.3 C 95 % 5.56 C
2327 20-12-2018 02:05:00 6.3 C 95 % 5.56 C
2328 20-12-2018 02:10:00 6.3 C 95 % 5.56 C
2329 20-12-2018 02:15:00 6.3 C 94 % 5.41 C
2330 20-12-2018 02:20:00 6.2 C 94 % 5.31 C
2331 20-12-2018 02:25:00 6.2 C 95 % 5.46 C
2332 20-12-2018 02:30:00 6.3 C 95 % 5.56 C
2333 20-12-2018 02:35:00 6.4 C 95 % 5.66 C
2334 20-12-2018 02:40:00 6.4 C 95 % 5.66 C
2335 20-12-2018 02:45:00 6.4 C 95 % 5.66 C
2336 20-12-2018 02:50:00 6.5 C 95 % 5.76 C
2337 20-12-2018 02:55:00 6.6 C 95 % 5.86 C
2338 20-12-2018 03:00:00 6.6 C 95 % 5.86 C
2339 20-12-2018 03:05:00 6.7 C 95 % 5.96 C
2340 20-12-2018 03:10:00 6.7 C 95 % 5.96 C
2341 20-12-2018 03:15:00 6.6 C 94 % 5.71 C
2342 20-12-2018 03:20:00 6.5 C 94 % 5.61 C
2343 20-12-2018 03:25:00 6.5 C 94 % 5.61 C
2344 20-12-2018 03:30:00 6.5 C 94 % 5.61 C
2345 20-12-2018 03:35:00 6.5 C 95 % 5.76 C
2346 20-12-2018 03:40:00 6.6 C 94 % 5.71 C
2347 20-12-2018 03:45:00 6.6 C 94 % 5.71 C
2348 20-12-2018 03:50:00 6.7 C 94 % 5.8 C
2349 20-12-2018 03:55:00 6.7 C 94 % 5.8 C
2350 20-12-2018 04:00:00 6.8 C 93 % 5.75 C
Sensor: Nr:Datum:Temp:Feuchte:Taupunkt:
Aussen-T/F 2351 20-12-2018 04:05:00 6.8 C 93 % 5.75 C
2352 20-12-2018 04:10:00 6.8 C 93 % 5.75 C
2353 20-12-2018 04:15:00 6.7 C 93 % 5.65 C
2354 20-12-2018 04:20:00 6.7 C 93 % 5.65 C
2355 20-12-2018 04:25:00 6.7 C 93 % 5.65 C
2356 20-12-2018 04:30:00 6.7 C 93 % 5.65 C
2357 20-12-2018 04:35:00 6.7 C 93 % 5.65 C
2358 20-12-2018 04:40:00 6.7 C 93 % 5.65 C
2359 20-12-2018 04:45:00 6.7 C 94 % 5.8 C
2360 20-12-2018 04:50:00 6.7 C 93 % 5.65 C
2361 20-12-2018 04:55:00 6.7 C 93 % 5.65 C
2362 20-12-2018 05:00:00 6.7 C 93 % 5.65 C
2363 20-12-2018 05:05:00 6.7 C 93 % 5.65 C
2364 20-12-2018 05:10:00 6.7 C 93 % 5.65 C
2365 20-12-2018 05:15:00 6.8 C 93 % 5.75 C
2366 20-12-2018 05:20:00 6.8 C 93 % 5.75 C
2367 20-12-2018 05:25:00 6.8 C 93 % 5.75 C
2368 20-12-2018 05:30:00 6.8 C 93 % 5.75 C
2369 20-12-2018 05:35:00 6.8 C 93 % 5.75 C
2370 20-12-2018 05:40:00 6.9 C 93 % 5.85 C
2371 20-12-2018 05:45:00 6.9 C 93 % 5.85 C
2372 20-12-2018 05:50:00 6.9 C 93 % 5.85 C
2373 20-12-2018 05:55:00 6.9 C 93 % 5.85 C
2374 20-12-2018 06:00:00 7 C 93 % 5.95 C
2375 20-12-2018 06:05:00 7 C 93 % 5.95 C
Sensor: Nr:Datum:Temp:Feuchte:Taupunkt:
Aussen-T/F 2376 20-12-2018 06:10:00 7 C 92 % 5.79 C
2377 20-12-2018 06:15:00 7.1 C 93 % 6.05 C
2378 20-12-2018 06:20:00 7.1 C 93 % 6.05 C
2379 20-12-2018 06:30:00 7.2 C 92 % 5.99 C
2380 20-12-2018 06:35:00 7.2 C 92 % 5.99 C
2381 20-12-2018 06:40:00 7.3 C 92 % 6.09 C
2382 20-12-2018 06:45:00 7.3 C 92 % 6.09 C
2383 20-12-2018 06:50:00 7.3 C 92 % 6.09 C
2384 20-12-2018 06:55:00 7.4 C 92 % 6.19 C
2385 20-12-2018 07:00:00 7.4 C 93 % 6.34 C
2386 20-12-2018 07:05:00 7.4 C 93 % 6.34 C
2387 20-12-2018 07:10:00 7.4 C 93 % 6.34 C
2388 20-12-2018 07:15:00 7.4 C 92 % 6.19 C
2389 20-12-2018 07:20:00 7.3 C 92 % 6.09 C
2390 20-12-2018 07:25:00 7.3 C 92 % 6.09 C
2391 20-12-2018 07:30:00 7.2 C 92 % 5.99 C
2392 20-12-2018 07:35:00 7.2 C 92 % 5.99 C
2393 20-12-2018 07:40:00 7.1 C 92 % 5.89 C
2394 20-12-2018 07:45:00 6.9 C 92 % 5.69 C
2395 20-12-2018 07:50:00 6.8 C 92 % 5.59 C
2396 20-12-2018 07:55:00 6.8 C 93 % 5.75 C
2397 20-12-2018 08:00:00 6.7 C 93 % 5.65 C
2398 20-12-2018 08:05:00 6.6 C 92 % 5.4 C
2399 20-12-2018 08:10:00 6.5 C 93 % 5.45 C
2400 20-12-2018 08:15:00 6.4 C 93 % 5.35 C
Sensor: Nr:Datum:Temp:Feuchte:Taupunkt:
Aussen-T/F 2401 20-12-2018 08:20:00 6.4 C 93 % 5.35 C
2402 20-12-2018 08:25:00 6.4 C 93 % 5.35 C
2403 20-12-2018 08:30:00 6.6 C 94 % 5.71 C
2404 20-12-2018 08:35:00 6.7 C 94 % 5.8 C
2405 20-12-2018 08:40:00 6.7 C 93 % 5.65 C
2406 20-12-2018 08:45:00 6.8 C 93 % 5.75 C
2407 20-12-2018 08:50:00 6.8 C 93 % 5.75 C
2408 20-12-2018 08:55:00 6.9 C 92 % 5.69 C
2409 20-12-2018 09:00:00 7.1 C 92 % 5.89 C
2410 20-12-2018 09:05:00 7.2 C 92 % 5.99 C
2411 20-12-2018 09:10:00 7.2 C 92 % 5.99 C
2412 20-12-2018 09:15:00 7.2 C 92 % 5.99 C
2413 20-12-2018 09:20:00 7.2 C 92 % 5.99 C
2414 20-12-2018 09:25:00 7.2 C 92 % 5.99 C
2415 20-12-2018 09:30:00 7.2 C 92 % 5.99 C
2416 20-12-2018 09:35:00 7.3 C 91 % 5.93 C
2417 20-12-2018 09:40:00 7.3 C 91 % 5.93 C
2418 20-12-2018 09:45:00 7.4 C 91 % 6.03 C
2419 20-12-2018 09:50:00 7.5 C 91 % 6.13 C
2420 20-12-2018 09:55:00 7.6 C 90 % 6.07 C
2421 20-12-2018 10:00:00 7.6 C 90 % 6.07 C
2422 20-12-2018 10:05:00 7.7 C 90 % 6.17 C
2423 20-12-2018 10:10:00 7.8 C 90 % 6.27 C
2424 20-12-2018 10:15:00 7.8 C 90 % 6.27 C
2425 20-12-2018 10:20:00 7.8 C 89 % 6.1 C
Sensor: Nr:Datum:Temp:Feuchte:Taupunkt:
Aussen-T/F 2426 20-12-2018 10:25:00 7.9 C 89 % 6.2 C
2427 20-12-2018 10:30:00 8 C 89 % 6.3 C
2428 20-12-2018 10:35:00 8 C 89 % 6.3 C
2429 20-12-2018 10:40:00 8.1 C 89 % 6.4 C
2430 20-12-2018 10:45:00 8.1 C 89 % 6.4 C
2431 20-12-2018 10:50:00 8.1 C 88 % 6.24 C
2432 20-12-2018 10:55:00 8.1 C 89 % 6.4 C
2433 20-12-2018 11:00:00 8.1 C 89 % 6.4 C
2434 20-12-2018 11:05:00 8.1 C 89 % 6.4 C
2435 20-12-2018 11:10:00 8.1 C 89 % 6.4 C
2436 20-12-2018 11:15:00 8 C 89 % 6.3 C
2437 20-12-2018 11:20:00 8.1 C 89 % 6.4 C
2438 20-12-2018 11:25:00 8 C 89 % 6.3 C
2439 20-12-2018 11:30:00 8.1 C 89 % 6.4 C
2440 20-12-2018 11:35:00 8.1 C 88 % 6.24 C
2441 20-12-2018 11:40:00 8.1 C 88 % 6.24 C
2442 20-12-2018 11:45:00 8.1 C 88 % 6.24 C
2443 20-12-2018 11:50:00 8.2 C 88 % 6.33 C
2444 20-12-2018 11:55:00 8.2 C 88 % 6.33 C
2445 20-12-2018 12:00:00 8.3 C 88 % 6.43 C
2446 20-12-2018 12:05:00 8.3 C 88 % 6.43 C
2447 20-12-2018 12:10:00 8.4 C 88 % 6.53 C
2448 20-12-2018 12:15:00 8.4 C 87 % 6.37 C
2449 20-12-2018 12:20:00 8.4 C 88 % 6.53 C
2450 20-12-2018 12:25:00 8.4 C 87 % 6.37 C
Sensor: Nr:Datum:Temp:Feuchte:Taupunkt:
Aussen-T/F 2451 20-12-2018 12:30:00 8.4 C 87 % 6.37 C
2452 20-12-2018 12:35:00 8.4 C 87 % 6.37 C
2453 20-12-2018 12:40:00 8.5 C 87 % 6.46 C
2454 20-12-2018 12:45:00 8.5 C 87 % 6.46 C
2455 20-12-2018 12:50:00 8.6 C 87 % 6.56 C
2456 20-12-2018 12:55:00 8.6 C 87 % 6.56 C
2457 20-12-2018 13:00:00 8.7 C 86 % 6.49 C
2458 20-12-2018 13:05:00 8.7 C 86 % 6.49 C
2459 20-12-2018 13:10:00 8.8 C 86 % 6.59 C
2460 20-12-2018 13:15:00 8.8 C 86 % 6.59 C
2461 20-12-2018 13:20:00 8.9 C 86 % 6.69 C
2462 20-12-2018 13:25:00 9 C 86 % 6.79 C
2463 20-12-2018 13:30:00 9.1 C 85 % 6.72 C
2464 20-12-2018 13:35:00 9.1 C 85 % 6.72 C
2465 20-12-2018 13:40:00 9.1 C 85 % 6.72 C
2466 20-12-2018 13:45:00 9.1 C 85 % 6.72 C
2467 20-12-2018 13:50:00 9.1 C 85 % 6.72 C
2468 20-12-2018 13:55:00 9 C 85 % 6.62 C
2469 20-12-2018 14:00:00 8.9 C 85 % 6.52 C
2470 20-12-2018 14:05:00 9 C 85 % 6.62 C
2471 20-12-2018 14:10:00 9 C 85 % 6.62 C
2472 20-12-2018 14:15:00 8.9 C 84 % 6.35 C
2473 20-12-2018 14:20:00 8.8 C 84 % 6.25 C
2474 20-12-2018 14:30:00 8.6 C 85 % 6.23 C
2475 20-12-2018 14:35:00 8.7 C 85 % 6.32 C
Sensor: Nr:Datum:Temp:Feuchte:Taupunkt:
Aussen-T/F 2476 20-12-2018 14:40:00 8.7 C 86 % 6.49 C
2477 20-12-2018 14:45:00 8.7 C 86 % 6.49 C
2478 20-12-2018 14:50:00 8.7 C 86 % 6.49 C
2479 20-12-2018 14:55:00 8.7 C 85 % 6.32 C
2480 20-12-2018 15:00:00 8.7 C 85 % 6.32 C
2481 20-12-2018 15:05:00 8.7 C 85 % 6.32 C
2482 20-12-2018 15:10:00 8.6 C 86 % 6.39 C
2483 20-12-2018 15:15:00 8.6 C 86 % 6.39 C
2484 20-12-2018 15:20:00 8.5 C 85 % 6.13 C
2485 20-12-2018 15:25:00 8.5 C 86 % 6.3 C
2486 20-12-2018 15:30:00 8.4 C 86 % 6.2 C
2487 20-12-2018 15:35:00 8.4 C 86 % 6.2 C
2488 20-12-2018 15:40:00 8.4 C 86 % 6.2 C
2489 20-12-2018 15:45:00 8.3 C 86 % 6.1 C
2490 20-12-2018 15:50:00 8.3 C 86 % 6.1 C
2491 20-12-2018 15:55:00 8.3 C 86 % 6.1 C
2492 20-12-2018 16:00:00 8.3 C 86 % 6.1 C
2493 20-12-2018 16:05:00 8.3 C 86 % 6.1 C
2494 20-12-2018 16:10:00 8.3 C 86 % 6.1 C
2495 20-12-2018 16:15:00 8.2 C 86 % 6 C
2496 20-12-2018 16:20:00 8.2 C 86 % 6 C
2497 20-12-2018 16:25:00 8.2 C 86 % 6 C
2498 20-12-2018 16:30:00 8.1 C 86 % 5.9 C
2499 20-12-2018 16:35:00 8.1 C 86 % 5.9 C
2500 20-12-2018 16:40:00 8.1 C 86 % 5.9 C
Sensor: Nr:Datum:Temp:Feuchte:Taupunkt:
Aussen-T/F 2501 20-12-2018 16:45:00 7.9 C 86 % 5.71 C
2502 20-12-2018 16:50:00 7.9 C 86 % 5.71 C
2503 20-12-2018 16:55:00 7.8 C 86 % 5.61 C
2504 20-12-2018 17:00:00 7.7 C 87 % 5.68 C
2505 20-12-2018 17:05:00 7.7 C 87 % 5.68 C
2506 20-12-2018 17:10:00 7.7 C 87 % 5.68 C
2507 20-12-2018 17:15:00 7.7 C 87 % 5.68 C
2508 20-12-2018 17:20:00 7.7 C 87 % 5.68 C
2509 20-12-2018 17:25:00 7.7 C 87 % 5.68 C
2510 20-12-2018 17:30:00 7.6 C 87 % 5.58 C
2511 20-12-2018 17:35:00 7.6 C 87 % 5.58 C
2512 20-12-2018 17:40:00 7.7 C 88 % 5.84 C
2513 20-12-2018 17:45:00 7.7 C 88 % 5.84 C
2514 20-12-2018 17:50:00 7.7 C 88 % 5.84 C
2515 20-12-2018 17:55:00 7.7 C 88 % 5.84 C
2516 20-12-2018 18:00:00 7.7 C 88 % 5.84 C
2517 20-12-2018 18:05:00 7.7 C 88 % 5.84 C
2518 20-12-2018 18:10:00 7.7 C 88 % 5.84 C
2519 20-12-2018 18:15:00 7.8 C 89 % 6.1 C
2520 20-12-2018 18:20:00 7.8 C 89 % 6.1 C
2521 20-12-2018 18:25:00 7.8 C 89 % 6.1 C
2522 20-12-2018 18:30:00 7.7 C 89 % 6 C
2523 20-12-2018 18:35:00 7.7 C 89 % 6 C
2524 20-12-2018 18:40:00 7.7 C 89 % 6 C
2525 20-12-2018 18:45:00 7.7 C 89 % 6 C
Sensor: Nr:Datum:Temp:Feuchte:Taupunkt:
Aussen-T/F 2526 20-12-2018 18:50:00 7.7 C 89 % 6 C
2527 20-12-2018 18:55:00 7.7 C 89 % 6 C
2528 20-12-2018 19:00:00 7.7 C 89 % 6 C
2529 20-12-2018 19:05:00 7.7 C 89 % 6 C
2530 20-12-2018 19:10:00 7.8 C 89 % 6.1 C
2531 20-12-2018 19:15:00 7.8 C 89 % 6.1 C
2532 20-12-2018 19:20:00 7.8 C 89 % 6.1 C
2533 20-12-2018 19:25:00 7.9 C 89 % 6.2 C
2534 20-12-2018 19:30:00 7.9 C 88 % 6.04 C
2535 20-12-2018 19:35:00 7.8 C 88 % 5.94 C
2536 20-12-2018 19:40:00 7.8 C 88 % 5.94 C
2537 20-12-2018 19:45:00 7.8 C 88 % 5.94 C
2538 20-12-2018 19:50:00 7.8 C 88 % 5.94 C
2539 20-12-2018 19:55:00 7.8 C 88 % 5.94 C
2540 20-12-2018 20:00:00 7.7 C 88 % 5.84 C
2541 20-12-2018 20:05:00 7.7 C 89 % 6 C
2542 20-12-2018 20:10:00 7.7 C 89 % 6 C
2543 20-12-2018 20:15:00 7.7 C 89 % 6 C
2544 20-12-2018 20:20:00 7.7 C 89 % 6 C
2545 20-12-2018 20:25:00 7.7 C 88 % 5.84 C
2546 20-12-2018 20:30:00 7.7 C 88 % 5.84 C
2547 20-12-2018 20:35:00 7.8 C 88 % 5.94 C
2548 20-12-2018 20:40:00 7.8 C 88 % 5.94 C
2549 20-12-2018 20:45:00 7.9 C 88 % 6.04 C
2550 20-12-2018 20:50:00 8 C 88 % 6.14 C
Sensor: Nr:Datum:Temp:Feuchte:Taupunkt:
Aussen-T/F 2551 20-12-2018 20:55:00 8 C 88 % 6.14 C
2552 20-12-2018 21:00:00 8.1 C 87 % 6.07 C
2553 20-12-2018 21:05:00 8.1 C 88 % 6.24 C
2554 20-12-2018 21:10:00 8.1 C 88 % 6.24 C
2555 20-12-2018 21:15:00 8.2 C 88 % 6.33 C
2556 20-12-2018 21:20:00 8.2 C 88 % 6.33 C
2557 20-12-2018 21:25:00 8.2 C 88 % 6.33 C
2558 20-12-2018 21:30:00 8.3 C 87 % 6.27 C
2559 20-12-2018 21:35:00 8.3 C 87 % 6.27 C
2560 20-12-2018 21:40:00 8.3 C 87 % 6.27 C
2561 20-12-2018 21:45:00 8.3 C 87 % 6.27 C
2562 20-12-2018 21:50:00 8.3 C 87 % 6.27 C
2563 20-12-2018 21:55:00 8.3 C 87 % 6.27 C
2564 20-12-2018 22:00:00 8.3 C 86 % 6.1 C
2565 20-12-2018 22:05:00 8.3 C 87 % 6.27 C
2566 20-12-2018 22:10:00 8.3 C 86 % 6.1 C
2567 20-12-2018 22:15:00 8.3 C 86 % 6.1 C
2568 20-12-2018 22:20:00 8.4 C 86 % 6.2 C
2569 20-12-2018 22:25:00 8.4 C 86 % 6.2 C
2570 20-12-2018 22:30:00 8.4 C 86 % 6.2 C
2571 20-12-2018 22:35:00 8.4 C 86 % 6.2 C
2572 20-12-2018 22:40:00 8.4 C 86 % 6.2 C
2573 20-12-2018 22:45:00 8.3 C 86 % 6.1 C
2574 20-12-2018 22:50:00 8.3 C 86 % 6.1 C
2575 20-12-2018 22:55:00 8.3 C 86 % 6.1 C
Sensor: Nr:Datum:Temp:Feuchte:Taupunkt:
Aussen-T/F 2576 20-12-2018 23:00:00 8.3 C 86 % 6.1 C
2577 20-12-2018 23:05:00 8.3 C 86 % 6.1 C
2578 20-12-2018 23:10:00 8.4 C 86 % 6.2 C
2579 20-12-2018 23:15:00 8.4 C 86 % 6.2 C
2580 20-12-2018 23:20:00 8.4 C 86 % 6.2 C
2581 20-12-2018 23:25:00 8.4 C 86 % 6.2 C
2582 20-12-2018 23:30:00 8.4 C 86 % 6.2 C
2583 20-12-2018 23:35:00 8.5 C 85 % 6.13 C
2584 20-12-2018 23:40:00 8.5 C 85 % 6.13 C
2585 20-12-2018 23:45:00 8.6 C 85 % 6.23 C
2586 20-12-2018 23:50:00 8.6 C 85 % 6.23 C
2587 20-12-2018 23:55:00 8.6 C 85 % 6.23 C
2588 21-12-2018 00:00:00 8.6 C 86 % 6.39 C
2589 21-12-2018 00:05:00 8.6 C 86 % 6.39 C
2590 21-12-2018 00:10:00 8.6 C 86 % 6.39 C
2591 21-12-2018 00:15:00 8.6 C 86 % 6.39 C
2592 21-12-2018 00:20:00 8.6 C 86 % 6.39 C
2593 21-12-2018 00:25:00 8.6 C 86 % 6.39 C
2594 21-12-2018 00:30:00 8.6 C 85 % 6.23 C
2595 21-12-2018 00:35:00 8.7 C 85 % 6.32 C
2596 21-12-2018 00:40:00 8.7 C 85 % 6.32 C
2597 21-12-2018 00:45:00 8.7 C 85 % 6.32 C
2598 21-12-2018 00:50:00 8.7 C 85 % 6.32 C
2599 21-12-2018 00:55:00 8.7 C 85 % 6.32 C
2600 21-12-2018 01:00:00 8.7 C 85 % 6.32 C
Sensor: Nr:Datum:Temp:Feuchte:Taupunkt:
Aussen-T/F 2601 21-12-2018 01:05:00 8.7 C 85 % 6.32 C
2602 21-12-2018 01:10:00 8.7 C 85 % 6.32 C
2603 21-12-2018 01:15:00 8.7 C 84 % 6.15 C
2604 21-12-2018 01:20:00 8.8 C 84 % 6.25 C
2605 21-12-2018 01:25:00 8.8 C 84 % 6.25 C
2606 21-12-2018 01:30:00 8.8 C 84 % 6.25 C
2607 21-12-2018 01:35:00 8.8 C 84 % 6.25 C
2608 21-12-2018 01:40:00 8.8 C 85 % 6.42 C
2609 21-12-2018 01:45:00 8.7 C 85 % 6.32 C
2610 21-12-2018 01:50:00 8.6 C 85 % 6.23 C
2611 21-12-2018 01:55:00 8.6 C 85 % 6.23 C
2612 21-12-2018 02:00:00 8.6 C 84 % 6.05 C
2613 21-12-2018 02:05:00 8.6 C 84 % 6.05 C
2614 21-12-2018 02:10:00 8.7 C 84 % 6.15 C
2615 21-12-2018 02:15:00 8.7 C 83 % 5.98 C
2616 21-12-2018 02:20:00 8.7 C 83 % 5.98 C
2617 21-12-2018 02:25:00 8.8 C 83 % 6.08 C
2618 21-12-2018 02:30:00 8.8 C 83 % 6.08 C
2619 21-12-2018 02:35:00 8.8 C 83 % 6.08 C
2620 21-12-2018 02:40:00 8.9 C 82 % 6 C
2621 21-12-2018 02:45:00 8.9 C 82 % 6 C
2622 21-12-2018 02:50:00 8.9 C 83 % 6.17 C
2623 21-12-2018 02:55:00 8.9 C 82 % 6 C
2624 21-12-2018 03:00:00 9 C 83 % 6.27 C
2625 21-12-2018 03:05:00 9 C 82 % 6.1 C
Sensor: Nr:Datum:Temp:Feuchte:Taupunkt:
Aussen-T/F 2626 21-12-2018 03:10:00 9.1 C 83 % 6.37 C
2627 21-12-2018 03:15:00 9 C 82 % 6.1 C
2628 21-12-2018 03:20:00 9.1 C 82 % 6.19 C
2629 21-12-2018 03:25:00 9.1 C 82 % 6.19 C
2630 21-12-2018 03:30:00 9.1 C 82 % 6.19 C
2631 21-12-2018 03:35:00 9.1 C 83 % 6.37 C
2632 21-12-2018 03:40:00 9.1 C 82 % 6.19 C
2633 21-12-2018 03:45:00 9.1 C 82 % 6.19 C
2634 21-12-2018 03:50:00 9.1 C 82 % 6.19 C
2635 21-12-2018 03:55:00 9.1 C 82 % 6.19 C
2636 21-12-2018 04:00:00 9.1 C 82 % 6.19 C
2637 21-12-2018 04:05:00 9.1 C 82 % 6.19 C
2638 21-12-2018 04:10:00 9.1 C 82 % 6.19 C
2639 21-12-2018 04:15:00 9.2 C 82 % 6.29 C
2640 21-12-2018 04:20:00 9.2 C 82 % 6.29 C
2641 21-12-2018 04:25:00 9.2 C 82 % 6.29 C
2642 21-12-2018 04:30:00 9.2 C 82 % 6.29 C
2643 21-12-2018 04:35:00 9.2 C 82 % 6.29 C
2644 21-12-2018 04:40:00 9.2 C 82 % 6.29 C
2645 21-12-2018 04:45:00 9.2 C 82 % 6.29 C
2646 21-12-2018 04:50:00 9.2 C 82 % 6.29 C
2647 21-12-2018 04:55:00 9.2 C 82 % 6.29 C
2648 21-12-2018 05:00:00 9.2 C 82 % 6.29 C
2649 21-12-2018 05:05:00 9.2 C 82 % 6.29 C
2650 21-12-2018 05:10:00 9.2 C 82 % 6.29 C
Sensor: Nr:Datum:Temp:Feuchte:Taupunkt:
Aussen-T/F 2651 21-12-2018 05:15:00 9.1 C 82 % 6.19 C
2652 21-12-2018 05:20:00 9.1 C 83 % 6.37 C
2653 21-12-2018 05:25:00 9.1 C 83 % 6.37 C
2654 21-12-2018 05:30:00 9.1 C 83 % 6.37 C
2655 21-12-2018 05:35:00 9.2 C 84 % 6.64 C
2656 21-12-2018 05:40:00 9.2 C 84 % 6.64 C
2657 21-12-2018 05:45:00 9.2 C 84 % 6.64 C
2658 21-12-2018 05:50:00 9.2 C 85 % 6.81 C
2659 21-12-2018 05:55:00 9.1 C 86 % 6.89 C
2660 21-12-2018 06:00:00 9 C 87 % 6.96 C
2661 21-12-2018 06:05:00 8.9 C 88 % 7.02 C
2662 21-12-2018 06:10:00 8.8 C 89 % 7.09 C
2663 21-12-2018 06:15:00 8.7 C 90 % 7.15 C
2664 21-12-2018 06:20:00 8.6 C 90 % 7.06 C
2665 21-12-2018 06:25:00 8.6 C 91 % 7.22 C
2666 21-12-2018 06:30:00 8.5 C 91 % 7.12 C
2667 21-12-2018 06:35:00 8.4 C 92 % 7.18 C
2668 21-12-2018 06:40:00 8.3 C 92 % 7.08 C
2669 21-12-2018 06:45:00 8.3 C 92 % 7.08 C
2670 21-12-2018 06:50:00 8.2 C 93 % 7.14 C
2671 21-12-2018 06:55:00 8.2 C 93 % 7.14 C
2672 21-12-2018 07:00:00 8.1 C 93 % 7.04 C
2673 21-12-2018 07:05:00 8.1 C 93 % 7.04 C
2674 21-12-2018 07:10:00 8 C 93 % 6.94 C
2675 21-12-2018 07:15:00 7.9 C 93 % 6.84 C
Sensor: Nr:Datum:Temp:Feuchte:Taupunkt:
Aussen-T/F 2676 21-12-2018 07:20:00 7.8 C 94 % 6.9 C
2677 21-12-2018 07:25:00 7.8 C 94 % 6.9 C
2678 21-12-2018 07:30:00 7.8 C 94 % 6.9 C
2679 21-12-2018 07:35:00 7.8 C 94 % 6.9 C
2680 21-12-2018 07:40:00 7.8 C 94 % 6.9 C
2681 21-12-2018 07:45:00 7.8 C 94 % 6.9 C
2682 21-12-2018 07:50:00 7.8 C 94 % 6.9 C
2683 21-12-2018 07:55:00 7.8 C 94 % 6.9 C
2684 21-12-2018 08:00:00 7.8 C 94 % 6.9 C
2685 21-12-2018 08:05:00 7.9 C 95 % 7.15 C
2686 21-12-2018 08:10:00 8 C 95 % 7.25 C
2687 21-12-2018 08:15:00 8.1 C 95 % 7.35 C
2688 21-12-2018 08:20:00 8.1 C 94 % 7.19 C
2689 21-12-2018 08:25:00 8.1 C 95 % 7.35 C
2690 21-12-2018 08:30:00 8.1 C 95 % 7.35 C
2691 21-12-2018 08:35:00 8.2 C 95 % 7.45 C
2692 21-12-2018 08:40:00 8.2 C 95 % 7.45 C
2693 21-12-2018 08:45:00 8.3 C 95 % 7.55 C
2694 21-12-2018 08:50:00 8.4 C 95 % 7.65 C
2695 21-12-2018 08:55:00 8.5 C 95 % 7.75 C
2696 21-12-2018 09:00:00 8.6 C 95 % 7.85 C
2697 21-12-2018 09:05:00 8.7 C 95 % 7.94 C
2698 21-12-2018 09:10:00 8.8 C 95 % 8.04 C
2699 21-12-2018 09:15:00 8.8 C 95 % 8.04 C
2700 21-12-2018 09:20:00 8.8 C 95 % 8.04 C
Sensor: Nr:Datum:Temp:Feuchte:Taupunkt:
Aussen-T/F 2701 21-12-2018 09:25:00 8.9 C 95 % 8.14 C
2702 21-12-2018 09:30:00 8.9 C 95 % 8.14 C
2703 21-12-2018 09:35:00 8.9 C 95 % 8.14 C
2704 21-12-2018 09:40:00 9.1 C 95 % 8.34 C
2705 21-12-2018 09:45:00 9.1 C 94 % 8.19 C
2706 21-12-2018 09:50:00 9.2 C 94 % 8.29 C
2707 21-12-2018 09:55:00 9.2 C 94 % 8.29 C
2708 21-12-2018 10:00:00 9.3 C 94 % 8.39 C
2709 21-12-2018 10:05:00 9.3 C 94 % 8.39 C
2710 21-12-2018 10:10:00 9.3 C 94 % 8.39 C
2711 21-12-2018 10:15:00 9.4 C 94 % 8.48 C
2712 21-12-2018 10:20:00 9.5 C 94 % 8.58 C
2713 21-12-2018 10:25:00 9.6 C 94 % 8.68 C
2714 21-12-2018 10:30:00 9.7 C 94 % 8.78 C
2715 21-12-2018 10:35:00 9.8 C 94 % 8.88 C
2716 21-12-2018 10:40:00 9.8 C 94 % 8.88 C
2717 21-12-2018 10:45:00 9.9 C 93 % 8.82 C
2718 21-12-2018 10:50:00 10.1 C 93 % 9.02 C
2719 21-12-2018 10:55:00 10.1 C 93 % 9.02 C
2720 21-12-2018 11:00:00 10.2 C 93 % 9.12 C
2721 21-12-2018 11:05:00 10.2 C 93 % 9.12 C
2722 21-12-2018 11:10:00 10.3 C 93 % 9.22 C
2723 21-12-2018 11:15:00 10.3 C 93 % 9.22 C
2724 21-12-2018 11:20:00 10.4 C 93 % 9.32 C
2725 21-12-2018 11:25:00 10.5 C 92 % 9.26 C
Sensor: Nr:Datum:Temp:Feuchte:Taupunkt:
Aussen-T/F 2726 21-12-2018 11:30:00 10.6 C 92 % 9.36 C
2727 21-12-2018 11:35:00 10.7 C 92 % 9.45 C
2728 21-12-2018 11:40:00 10.7 C 92 % 9.45 C
2729 21-12-2018 11:45:00 10.8 C 92 % 9.55 C
2730 21-12-2018 11:50:00 10.9 C 91 % 9.49 C
2731 21-12-2018 11:55:00 10.9 C 91 % 9.49 C
2732 21-12-2018 12:00:00 11 C 91 % 9.59 C
2733 21-12-2018 12:05:00 11 C 91 % 9.59 C
2734 21-12-2018 12:10:00 11.1 C 91 % 9.69 C
2735 21-12-2018 12:15:00 11.2 C 91 % 9.79 C
2736 21-12-2018 12:20:00 11.2 C 91 % 9.79 C
2737 21-12-2018 12:25:00 11.3 C 91 % 9.89 C
2738 21-12-2018 12:30:00 11.4 C 91 % 9.98 C
2739 21-12-2018 12:35:00 11.4 C 91 % 9.98 C
2740 21-12-2018 12:40:00 11.5 C 91 % 10.08 C
2741 21-12-2018 12:45:00 11.6 C 91 % 10.18 C
2742 21-12-2018 12:50:00 11.7 C 91 % 10.28 C
2743 21-12-2018 12:55:00 11.7 C 91 % 10.28 C
2744 21-12-2018 13:00:00 11.7 C 91 % 10.28 C
2745 21-12-2018 13:05:00 11.8 C 91 % 10.38 C
2746 21-12-2018 13:10:00 11.8 C 91 % 10.38 C
2747 21-12-2018 13:15:00 11.9 C 91 % 10.48 C
2748 21-12-2018 13:20:00 11.9 C 91 % 10.48 C
2749 21-12-2018 13:25:00 11.9 C 91 % 10.48 C
2750 21-12-2018 13:30:00 11.9 C 91 % 10.48 C
Sensor: Nr:Datum:Temp:Feuchte:Taupunkt:
Aussen-T/F 2751 21-12-2018 13:35:00 12 C 91 % 10.58 C
2752 21-12-2018 13:40:00 12 C 91 % 10.58 C
2753 21-12-2018 13:45:00 12 C 91 % 10.58 C
2754 21-12-2018 13:50:00 12 C 91 % 10.58 C
2755 21-12-2018 13:55:00 11.9 C 92 % 10.64 C
2756 21-12-2018 14:00:00 11.9 C 92 % 10.64 C
2757 21-12-2018 14:05:00 11.8 C 92 % 10.54 C
2758 21-12-2018 14:10:00 11.8 C 93 % 10.71 C
2759 21-12-2018 14:15:00 11.9 C 93 % 10.81 C
2760 21-12-2018 14:20:00 11.9 C 93 % 10.81 C
2761 21-12-2018 14:25:00 12 C 92 % 10.74 C
2762 21-12-2018 14:30:00 12.1 C 92 % 10.84 C
2763 21-12-2018 14:35:00 12.2 C 91 % 10.78 C
2764 21-12-2018 14:40:00 12.3 C 91 % 10.87 C
2765 21-12-2018 14:45:00 12.4 C 91 % 10.97 C
2766 21-12-2018 14:50:00 12.5 C 91 % 11.07 C
2767 21-12-2018 14:55:00 12.6 C 90 % 11 C
2768 21-12-2018 15:00:00 12.6 C 90 % 11 C
2769 21-12-2018 15:05:00 12.7 C 89 % 10.94 C
2770 21-12-2018 15:10:00 12.7 C 89 % 10.94 C
2771 21-12-2018 15:15:00 12.7 C 89 % 10.94 C
2772 21-12-2018 15:20:00 12.7 C 89 % 10.94 C
2773 21-12-2018 15:25:00 12.7 C 89 % 10.94 C
2774 21-12-2018 15:30:00 12.8 C 88 % 10.86 C
2775 21-12-2018 15:35:00 12.8 C 88 % 10.86 C
Sensor: Nr:Datum:Temp:Feuchte:Taupunkt:
Aussen-T/F 2776 21-12-2018 15:40:00 12.9 C 87 % 10.79 C
2777 21-12-2018 15:45:00 12.9 C 87 % 10.79 C
2778 21-12-2018 15:50:00 12.9 C 87 % 10.79 C
2779 21-12-2018 15:55:00 12.9 C 87 % 10.79 C
2780 21-12-2018 16:00:00 13 C 86 % 10.72 C
2781 21-12-2018 16:05:00 13.1 C 86 % 10.81 C
2782 21-12-2018 16:10:00 13.1 C 86 % 10.81 C
2783 21-12-2018 16:15:00 13.1 C 85 % 10.64 C
2784 21-12-2018 16:20:00 13.2 C 85 % 10.74 C
2785 21-12-2018 16:25:00 13.2 C 85 % 10.74 C
2786 21-12-2018 16:30:00 13.2 C 85 % 10.74 C
2787 21-12-2018 16:35:00 13.3 C 84 % 10.66 C
2788 21-12-2018 16:40:00 13.3 C 84 % 10.66 C
2789 21-12-2018 16:45:00 13.3 C 83 % 10.48 C
2790 21-12-2018 16:50:00 13.3 C 84 % 10.66 C
2791 21-12-2018 16:55:00 13.3 C 84 % 10.66 C
2792 21-12-2018 17:00:00 13.3 C 84 % 10.66 C
2793 21-12-2018 17:05:00 13.3 C 84 % 10.66 C
2794 21-12-2018 17:10:00 13.3 C 84 % 10.66 C
2795 21-12-2018 17:15:00 13.3 C 84 % 10.66 C
2796 21-12-2018 17:20:00 13.3 C 83 % 10.48 C
2797 21-12-2018 17:25:00 13.4 C 83 % 10.57 C
2798 21-12-2018 17:30:00 13.4 C 83 % 10.57 C
2799 21-12-2018 17:35:00 13.4 C 83 % 10.57 C
2800 21-12-2018 17:40:00 13.3 C 83 % 10.48 C
Sensor: Nr:Datum:Temp:Feuchte:Taupunkt:
Aussen-T/F 2801 21-12-2018 17:45:00 13.4 C 83 % 10.57 C
2802 21-12-2018 17:50:00 13.4 C 82 % 10.39 C
2803 21-12-2018 17:55:00 13.5 C 82 % 10.49 C
2804 21-12-2018 18:00:00 13.5 C 82 % 10.49 C
2805 21-12-2018 18:05:00 13.4 C 82 % 10.39 C
2806 21-12-2018 18:10:00 13.4 C 82 % 10.39 C
2807 21-12-2018 18:15:00 13.4 C 82 % 10.39 C
2808 21-12-2018 18:20:00 13.4 C 82 % 10.39 C
2809 21-12-2018 18:25:00 13.4 C 82 % 10.39 C
2810 21-12-2018 18:30:00 13.4 C 82 % 10.39 C
2811 21-12-2018 18:35:00 13.3 C 82 % 10.3 C
2812 21-12-2018 18:40:00 13.3 C 82 % 10.3 C
2813 21-12-2018 18:45:00 13.3 C 83 % 10.48 C
2814 21-12-2018 18:50:00 13.2 C 83 % 10.38 C
2815 21-12-2018 18:55:00 13.2 C 83 % 10.38 C
2816 21-12-2018 19:00:00 13.2 C 82 % 10.2 C
2817 21-12-2018 19:05:00 13.2 C 82 % 10.2 C
2818 21-12-2018 19:10:00 13.2 C 82 % 10.2 C
2819 21-12-2018 19:15:00 13.2 C 82 % 10.2 C
2820 21-12-2018 19:20:00 13.2 C 82 % 10.2 C
2821 21-12-2018 19:25:00 13.2 C 82 % 10.2 C
2822 21-12-2018 19:30:00 13.2 C 81 % 10.01 C
2823 21-12-2018 19:35:00 13.1 C 81 % 9.92 C
2824 21-12-2018 19:40:00 13.1 C 81 % 9.92 C
2825 21-12-2018 19:45:00 13.1 C 80 % 9.73 C
Sensor: Nr:Datum:Temp:Feuchte:Taupunkt:
Aussen-T/F 2826 21-12-2018 19:50:00 13.1 C 81 % 9.92 C
2827 21-12-2018 19:55:00 13 C 80 % 9.63 C
2828 21-12-2018 20:00:00 13 C 81 % 9.82 C
2829 21-12-2018 20:05:00 13 C 81 % 9.82 C
2830 21-12-2018 20:10:00 13 C 82 % 10 C
2831 21-12-2018 20:15:00 13 C 82 % 10 C
2832 21-12-2018 20:20:00 12.9 C 82 % 9.9 C
2833 21-12-2018 20:25:00 12.9 C 82 % 9.9 C
2834 21-12-2018 20:30:00 12.8 C 82 % 9.81 C
2835 21-12-2018 20:35:00 12.8 C 82 % 9.81 C
2836 21-12-2018 20:40:00 12.8 C 82 % 9.81 C
2837 21-12-2018 20:45:00 12.8 C 83 % 9.99 C
2838 21-12-2018 20:50:00 12.8 C 83 % 9.99 C
2839 21-12-2018 20:55:00 12.8 C 83 % 9.99 C
2840 21-12-2018 21:00:00 12.7 C 83 % 9.89 C
2841 21-12-2018 21:05:00 12.7 C 83 % 9.89 C
2842 21-12-2018 21:10:00 12.7 C 83 % 9.89 C
2843 21-12-2018 21:15:00 12.7 C 83 % 9.89 C
2844 21-12-2018 21:20:00 12.6 C 83 % 9.79 C
2845 21-12-2018 21:25:00 12.6 C 83 % 9.79 C
2846 21-12-2018 21:30:00 12.5 C 84 % 9.87 C
2847 21-12-2018 21:35:00 12.4 C 84 % 9.78 C
2848 21-12-2018 21:40:00 12.4 C 83 % 9.6 C
2849 21-12-2018 21:45:00 12.5 C 82 % 9.51 C
2850 21-12-2018 21:50:00 12.6 C 82 % 9.61 C
Sensor: Nr:Datum:Temp:Feuchte:Taupunkt:
Aussen-T/F 2851 21-12-2018 21:55:00 12.6 C 82 % 9.61 C
2852 21-12-2018 22:00:00 12.7 C 82 % 9.71 C
2853 21-12-2018 22:05:00 12.7 C 81 % 9.53 C
2854 21-12-2018 22:10:00 12.6 C 81 % 9.43 C
2855 21-12-2018 22:15:00 12.7 C 81 % 9.53 C
2856 21-12-2018 22:20:00 12.7 C 80 % 9.34 C
2857 21-12-2018 22:25:00 12.7 C 80 % 9.34 C
2858 21-12-2018 22:30:00 12.7 C 79 % 9.16 C
2859 21-12-2018 22:35:00 12.7 C 78 % 8.97 C
2860 21-12-2018 22:40:00 12.7 C 77 % 8.78 C
2861 21-12-2018 22:45:00 12.7 C 77 % 8.78 C
2862 21-12-2018 22:50:00 12.7 C 76 % 8.58 C
2863 21-12-2018 22:55:00 12.6 C 76 % 8.49 C
2864 21-12-2018 23:00:00 12.6 C 76 % 8.49 C
2865 21-12-2018 23:05:00 12.5 C 76 % 8.39 C
2866 21-12-2018 23:10:00 12.4 C 76 % 8.29 C
2867 21-12-2018 23:15:00 12.4 C 76 % 8.29 C
2868 21-12-2018 23:20:00 12.3 C 76 % 8.2 C
2869 21-12-2018 23:25:00 12.3 C 76 % 8.2 C
2870 21-12-2018 23:30:00 12.3 C 77 % 8.39 C
2871 21-12-2018 23:35:00 12.2 C 77 % 8.29 C
2872 21-12-2018 23:40:00 12.2 C 77 % 8.29 C
2873 21-12-2018 23:45:00 12.1 C 77 % 8.2 C
2874 21-12-2018 23:50:00 12.1 C 78 % 8.38 C
2875 21-12-2018 23:55:00 12 C 78 % 8.29 C
Sensor: Nr:Datum:Temp:Feuchte:Taupunkt:
Aussen-T/F 2876 22-12-2018 00:00:00 11.9 C 78 % 8.19 C
2877 22-12-2018 00:05:00 11.9 C 78 % 8.19 C
2878 22-12-2018 00:10:00 11.9 C 78 % 8.19 C
2879 22-12-2018 00:15:00 11.8 C 79 % 8.28 C
2880 22-12-2018 00:20:00 11.7 C 79 % 8.18 C
2881 22-12-2018 00:25:00 11.7 C 79 % 8.18 C
2882 22-12-2018 00:30:00 11.6 C 79 % 8.09 C
2883 22-12-2018 00:35:00 11.6 C 80 % 8.27 C
2884 22-12-2018 00:40:00 11.5 C 80 % 8.17 C
2885 22-12-2018 00:45:00 11.5 C 81 % 8.36 C
2886 22-12-2018 00:50:00 11.4 C 81 % 8.26 C
2887 22-12-2018 00:55:00 11.4 C 81 % 8.26 C
2888 22-12-2018 01:00:00 11.4 C 81 % 8.26 C
2889 22-12-2018 01:05:00 11.3 C 82 % 8.34 C
2890 22-12-2018 01:10:00 11.3 C 82 % 8.34 C
2891 22-12-2018 01:15:00 11.3 C 82 % 8.34 C
2892 22-12-2018 01:20:00 11.2 C 83 % 8.42 C
2893 22-12-2018 01:25:00 11.2 C 83 % 8.42 C
2894 22-12-2018 01:30:00 11.1 C 83 % 8.33 C
2895 22-12-2018 01:35:00 11.1 C 84 % 8.5 C
2896 22-12-2018 01:40:00 11 C 84 % 8.4 C
2897 22-12-2018 01:45:00 11 C 83 % 8.23 C
2898 22-12-2018 01:50:00 11 C 83 % 8.23 C
2899 22-12-2018 01:55:00 11.1 C 82 % 8.15 C
2900 22-12-2018 02:00:00 11.1 C 81 % 7.97 C
Sensor: Nr:Datum:Temp:Feuchte:Taupunkt:
Aussen-T/F 2901 22-12-2018 02:05:00 11.2 C 80 % 7.88 C
2902 22-12-2018 02:10:00 11.2 C 79 % 7.7 C
2903 22-12-2018 02:15:00 11.2 C 78 % 7.51 C
2904 22-12-2018 02:20:00 11.3 C 78 % 7.61 C
2905 22-12-2018 02:25:00 11.2 C 78 % 7.51 C
2906 22-12-2018 02:30:00 11.2 C 79 % 7.7 C
2907 22-12-2018 02:35:00 11.2 C 79 % 7.7 C
2908 22-12-2018 02:40:00 11.1 C 79 % 7.6 C
2909 22-12-2018 02:45:00 11 C 79 % 7.5 C
2910 22-12-2018 02:50:00 10.9 C 79 % 7.41 C
2911 22-12-2018 02:55:00 10.9 C 80 % 7.59 C
2912 22-12-2018 03:00:00 10.8 C 80 % 7.49 C
2913 22-12-2018 03:05:00 10.8 C 80 % 7.49 C
2914 22-12-2018 03:10:00 10.8 C 81 % 7.67 C
2915 22-12-2018 03:15:00 10.8 C 81 % 7.67 C
2916 22-12-2018 03:20:00 10.7 C 81 % 7.58 C
2917 22-12-2018 03:25:00 10.7 C 82 % 7.76 C
2918 22-12-2018 03:30:00 10.7 C 82 % 7.76 C
2919 22-12-2018 03:35:00 10.7 C 81 % 7.58 C
2920 22-12-2018 03:40:00 10.8 C 80 % 7.49 C
2921 22-12-2018 03:45:00 10.8 C 79 % 7.31 C
2922 22-12-2018 03:50:00 10.8 C 79 % 7.31 C
2923 22-12-2018 03:55:00 10.9 C 80 % 7.59 C
2924 22-12-2018 04:00:00 10.9 C 80 % 7.59 C
2925 22-12-2018 04:05:00 11 C 80 % 7.69 C
Sensor: Nr:Datum:Temp:Feuchte:Taupunkt:
Aussen-T/F 2926 22-12-2018 04:10:00 11 C 80 % 7.69 C
2927 22-12-2018 04:15:00 11 C 80 % 7.69 C
2928 22-12-2018 04:20:00 11.1 C 80 % 7.79 C
2929 22-12-2018 04:25:00 11.2 C 80 % 7.88 C
2930 22-12-2018 04:30:00 11.2 C 80 % 7.88 C
2931 22-12-2018 04:35:00 11.2 C 79 % 7.7 C
2932 22-12-2018 04:40:00 11.2 C 80 % 7.88 C
2933 22-12-2018 04:45:00 11.2 C 80 % 7.88 C
2934 22-12-2018 04:50:00 11.2 C 80 % 7.88 C
2935 22-12-2018 04:55:00 11.3 C 80 % 7.98 C
2936 22-12-2018 05:00:00 11.3 C 80 % 7.98 C
2937 22-12-2018 05:05:00 11.3 C 80 % 7.98 C
2938 22-12-2018 05:10:00 11.4 C 81 % 8.26 C
2939 22-12-2018 05:15:00 11.3 C 82 % 8.34 C
2940 22-12-2018 05:20:00 11.3 C 84 % 8.7 C
2941 22-12-2018 05:25:00 11.1 C 86 % 8.85 C
2942 22-12-2018 05:30:00 10.8 C 87 % 8.73 C
2943 22-12-2018 05:35:00 10.6 C 88 % 8.7 C
2944 22-12-2018 05:40:00 10.5 C 88 % 8.6 C
2945 22-12-2018 05:45:00 10.4 C 89 % 8.67 C
2946 22-12-2018 05:50:00 10.4 C 89 % 8.67 C
2947 22-12-2018 05:55:00 10.4 C 89 % 8.67 C
2948 22-12-2018 06:00:00 10.4 C 89 % 8.67 C
2949 22-12-2018 06:05:00 10.4 C 89 % 8.67 C
2950 22-12-2018 06:10:00 10.5 C 90 % 8.93 C
Sensor: Nr:Datum:Temp:Feuchte:Taupunkt:
Aussen-T/F 2951 22-12-2018 06:15:00 10.5 C 90 % 8.93 C
2952 22-12-2018 06:20:00 10.5 C 90 % 8.93 C
2953 22-12-2018 06:30:00 10.6 C 91 % 9.19 C
2954 22-12-2018 06:35:00 10.5 C 91 % 9.09 C
2955 22-12-2018 06:40:00 10.5 C 91 % 9.09 C
2956 22-12-2018 06:45:00 10.4 C 91 % 9 C
2957 22-12-2018 06:50:00 10.4 C 91 % 9 C
2958 22-12-2018 06:55:00 10.3 C 92 % 9.06 C
2959 22-12-2018 07:00:00 10.3 C 92 % 9.06 C
2960 22-12-2018 07:05:00 10.3 C 92 % 9.06 C
2961 22-12-2018 07:10:00 10.3 C 92 % 9.06 C
2962 22-12-2018 07:15:00 10.2 C 92 % 8.96 C
2963 22-12-2018 07:20:00 10.2 C 92 % 8.96 C
2964 22-12-2018 07:25:00 10.2 C 92 % 8.96 C
2965 22-12-2018 07:30:00 10.2 C 92 % 8.96 C
2966 22-12-2018 07:35:00 10.2 C 92 % 8.96 C
2967 22-12-2018 07:40:00 10.2 C 92 % 8.96 C
2968 22-12-2018 07:45:00 10.2 C 91 % 8.8 C
2969 22-12-2018 07:50:00 10.2 C 91 % 8.8 C
2970 22-12-2018 07:55:00 10.3 C 91 % 8.9 C
2971 22-12-2018 08:00:00 10.3 C 90 % 8.73 C
2972 22-12-2018 08:05:00 10.4 C 89 % 8.67 C
2973 22-12-2018 08:10:00 10.6 C 89 % 8.86 C
2974 22-12-2018 08:15:00 10.6 C 89 % 8.86 C
2975 22-12-2018 08:20:00 10.7 C 88 % 8.8 C
Sensor: Nr:Datum:Temp:Feuchte:Taupunkt:
Aussen-T/F 2976 22-12-2018 08:25:00 10.7 C 87 % 8.63 C
2977 22-12-2018 08:30:00 10.8 C 87 % 8.73 C
2978 22-12-2018 08:35:00 10.8 C 86 % 8.56 C
2979 22-12-2018 08:40:00 10.9 C 86 % 8.65 C
2980 22-12-2018 08:45:00 10.9 C 85 % 8.48 C
2981 22-12-2018 08:50:00 11 C 85 % 8.58 C
2982 22-12-2018 08:55:00 10.9 C 85 % 8.48 C
2983 22-12-2018 09:00:00 10.9 C 84 % 8.31 C
2984 22-12-2018 09:05:00 10.9 C 83 % 8.13 C
2985 22-12-2018 09:10:00 11.1 C 82 % 8.15 C
2986 22-12-2018 09:15:00 11.1 C 82 % 8.15 C
2987 22-12-2018 09:20:00 11.2 C 82 % 8.25 C
2988 22-12-2018 09:25:00 11.2 C 81 % 8.06 C
2989 22-12-2018 09:30:00 11.2 C 81 % 8.06 C
2990 22-12-2018 09:35:00 11.2 C 83 % 8.42 C
2991 22-12-2018 09:40:00 11.1 C 84 % 8.5 C
2992 22-12-2018 09:45:00 10.8 C 86 % 8.56 C
2993 22-12-2018 09:50:00 10.6 C 87 % 8.53 C
2994 22-12-2018 09:55:00 10.1 C 87 % 8.04 C
2995 22-12-2018 10:00:00 9.8 C 88 % 7.91 C
2996 22-12-2018 10:05:00 9.6 C 88 % 7.71 C
2997 22-12-2018 10:10:00 9.5 C 90 % 7.94 C
2998 22-12-2018 10:15:00 9.4 C 90 % 7.85 C
2999 22-12-2018 10:20:00 9.3 C 91 % 7.91 C
3000 22-12-2018 10:25:00 9.2 C 91 % 7.81 C
Sensor: Nr:Datum:Temp:Feuchte:Taupunkt:
Aussen-T/F 3001 22-12-2018 10:30:00 9.2 C 91 % 7.81 C
3002 22-12-2018 10:35:00 9.2 C 92 % 7.97 C
3003 22-12-2018 10:40:00 9.2 C 92 % 7.97 C
3004 22-12-2018 10:45:00 9.2 C 92 % 7.97 C
3005 22-12-2018 10:50:00 9.2 C 93 % 8.13 C
3006 22-12-2018 10:55:00 9.3 C 93 % 8.23 C
3007 22-12-2018 11:00:00 9.4 C 94 % 8.48 C
3008 22-12-2018 11:05:00 9.4 C 94 % 8.48 C
3009 22-12-2018 11:10:00 9.4 C 94 % 8.48 C
3010 22-12-2018 11:15:00 9.4 C 94 % 8.48 C
3011 22-12-2018 11:20:00 9.4 C 94 % 8.48 C
3012 22-12-2018 11:25:00 9.5 C 94 % 8.58 C
3013 22-12-2018 11:30:00 9.6 C 94 % 8.68 C
3014 22-12-2018 11:35:00 9.6 C 93 % 8.53 C
3015 22-12-2018 11:40:00 9.6 C 92 % 8.37 C
3016 22-12-2018 11:45:00 9.6 C 91 % 8.21 C
3017 22-12-2018 11:50:00 9.7 C 90 % 8.14 C
3018 22-12-2018 11:55:00 9.7 C 90 % 8.14 C
3019 22-12-2018 12:00:00 9.8 C 90 % 8.24 C
3020 22-12-2018 12:05:00 9.8 C 89 % 8.08 C
3021 22-12-2018 12:10:00 9.9 C 89 % 8.17 C
3022 22-12-2018 12:15:00 9.9 C 88 % 8.01 C
3023 22-12-2018 12:20:00 9.9 C 88 % 8.01 C
3024 22-12-2018 12:25:00 10.1 C 88 % 8.21 C
3025 22-12-2018 12:30:00 10.2 C 88 % 8.3 C
Sensor: Nr:Datum:Temp:Feuchte:Taupunkt:
Aussen-T/F 3026 22-12-2018 12:35:00 10.3 C 88 % 8.4 C
3027 22-12-2018 12:40:00 10.3 C 87 % 8.23 C
3028 22-12-2018 12:45:00 10.5 C 86 % 8.26 C
3029 22-12-2018 12:50:00 10.7 C 85 % 8.28 C
3030 22-12-2018 12:55:00 10.8 C 84 % 8.21 C
3031 22-12-2018 13:00:00 10.9 C 85 % 8.48 C
3032 22-12-2018 13:05:00 10.9 C 84 % 8.31 C
3033 22-12-2018 13:10:00 11 C 85 % 8.58 C
3034 22-12-2018 13:15:00 11 C 84 % 8.4 C
3035 22-12-2018 13:20:00 10.9 C 83 % 8.13 C
3036 22-12-2018 13:25:00 11 C 82 % 8.05 C
3037 22-12-2018 13:30:00 11.1 C 82 % 8.15 C
3038 22-12-2018 13:35:00 11.1 C 82 % 8.15 C
3039 22-12-2018 13:40:00 11.2 C 81 % 8.06 C
3040 22-12-2018 13:45:00 11.2 C 80 % 7.88 C
3041 22-12-2018 13:50:00 11.3 C 81 % 8.16 C
3042 22-12-2018 13:55:00 11.3 C 80 % 7.98 C
3043 22-12-2018 14:00:00 11.4 C 80 % 8.08 C
3044 22-12-2018 14:05:00 11.4 C 80 % 8.08 C
3045 22-12-2018 14:10:00 11.4 C 79 % 7.89 C
3046 22-12-2018 14:15:00 11.4 C 80 % 8.08 C
3047 22-12-2018 14:20:00 11.4 C 80 % 8.08 C
3048 22-12-2018 14:25:00 11.4 C 79 % 7.89 C
3049 22-12-2018 14:30:00 11.3 C 80 % 7.98 C
3050 22-12-2018 14:35:00 11.2 C 80 % 7.88 C
Sensor: Nr:Datum:Temp:Feuchte:Taupunkt:
Aussen-T/F 3051 22-12-2018 14:40:00 11.2 C 80 % 7.88 C
3052 22-12-2018 14:45:00 11.1 C 80 % 7.79 C
3053 22-12-2018 14:50:00 11.1 C 80 % 7.79 C
3054 22-12-2018 14:55:00 11.1 C 80 % 7.79 C
3055 22-12-2018 15:00:00 11.1 C 80 % 7.79 C
3056 22-12-2018 15:05:00 11.1 C 80 % 7.79 C
3057 22-12-2018 15:10:00 11.1 C 81 % 7.97 C
3058 22-12-2018 15:15:00 11.1 C 82 % 8.15 C
3059 22-12-2018 15:20:00 11 C 80 % 7.69 C
3060 22-12-2018 15:25:00 11 C 79 % 7.5 C
3061 22-12-2018 15:30:00 11.1 C 79 % 7.6 C
3062 22-12-2018 15:35:00 11.1 C 79 % 7.6 C
3063 22-12-2018 15:40:00 11 C 79 % 7.5 C
3064 22-12-2018 15:45:00 10.9 C 79 % 7.41 C
3065 22-12-2018 15:50:00 10.9 C 79 % 7.41 C
3066 22-12-2018 15:55:00 10.8 C 79 % 7.31 C
3067 22-12-2018 16:00:00 10.8 C 79 % 7.31 C
3068 22-12-2018 16:05:00 10.7 C 80 % 7.4 C
3069 22-12-2018 16:10:00 10.7 C 80 % 7.4 C
3070 22-12-2018 16:15:00 10.6 C 82 % 7.66 C
3071 22-12-2018 16:20:00 10.4 C 82 % 7.46 C
3072 22-12-2018 16:25:00 10.3 C 82 % 7.37 C
3073 22-12-2018 16:30:00 10.3 C 83 % 7.54 C
3074 22-12-2018 16:35:00 10.2 C 83 % 7.45 C
3075 22-12-2018 16:40:00 10.1 C 83 % 7.35 C
Sensor: Nr:Datum:Temp:Feuchte:Taupunkt:
Aussen-T/F 3076 22-12-2018 16:45:00 10 C 83 % 7.25 C
3077 22-12-2018 16:50:00 9.8 C 84 % 7.23 C
3078 22-12-2018 16:55:00 9.7 C 84 % 7.13 C
3079 22-12-2018 17:00:00 9.6 C 85 % 7.21 C
3080 22-12-2018 17:05:00 9.4 C 85 % 7.01 C
3081 22-12-2018 17:10:00 9.3 C 85 % 6.91 C
3082 22-12-2018 17:15:00 9.3 C 85 % 6.91 C
3083 22-12-2018 17:20:00 9.3 C 85 % 6.91 C
3084 22-12-2018 17:25:00 9.3 C 85 % 6.91 C
3085 22-12-2018 17:30:00 9.3 C 85 % 6.91 C
3086 22-12-2018 17:35:00 9.2 C 85 % 6.81 C
3087 22-12-2018 17:40:00 9.1 C 86 % 6.89 C
3088 22-12-2018 17:45:00 8.9 C 86 % 6.69 C
3089 22-12-2018 17:50:00 8.9 C 87 % 6.86 C
3090 22-12-2018 17:55:00 8.8 C 87 % 6.76 C
3091 22-12-2018 18:00:00 8.8 C 87 % 6.76 C
3092 22-12-2018 18:05:00 8.7 C 87 % 6.66 C
3093 22-12-2018 18:10:00 8.6 C 88 % 6.73 C
3094 22-12-2018 18:15:00 8.6 C 88 % 6.73 C
3095 22-12-2018 18:20:00 8.6 C 88 % 6.73 C
3096 22-12-2018 18:25:00 8.6 C 88 % 6.73 C
3097 22-12-2018 18:30:00 8.6 C 88 % 6.73 C
3098 22-12-2018 18:35:00 8.5 C 88 % 6.63 C
3099 22-12-2018 18:40:00 8.4 C 89 % 6.7 C
3100 22-12-2018 18:45:00 8.4 C 89 % 6.7 C
Sensor: Nr:Datum:Temp:Feuchte:Taupunkt:
Aussen-T/F 3101 22-12-2018 18:50:00 8.3 C 89 % 6.6 C
3102 22-12-2018 18:55:00 8.3 C 89 % 6.6 C
3103 22-12-2018 19:00:00 8.2 C 89 % 6.5 C
3104 22-12-2018 19:05:00 8.1 C 90 % 6.56 C
3105 22-12-2018 19:10:00 8 C 90 % 6.46 C
3106 22-12-2018 19:15:00 7.9 C 90 % 6.36 C
3107 22-12-2018 19:20:00 7.9 C 91 % 6.52 C
3108 22-12-2018 19:25:00 8 C 91 % 6.62 C
3109 22-12-2018 19:30:00 8.1 C 91 % 6.72 C
3110 22-12-2018 19:35:00 8.1 C 91 % 6.72 C
3111 22-12-2018 19:40:00 8.1 C 91 % 6.72 C
3112 22-12-2018 19:45:00 8.1 C 91 % 6.72 C
3113 22-12-2018 19:50:00 8.1 C 91 % 6.72 C
3114 22-12-2018 19:55:00 8.1 C 91 % 6.72 C
3115 22-12-2018 20:00:00 8.2 C 90 % 6.66 C
3116 22-12-2018 20:05:00 8.2 C 90 % 6.66 C
3117 22-12-2018 20:10:00 8.1 C 90 % 6.56 C
3118 22-12-2018 20:15:00 8 C 90 % 6.46 C
3119 22-12-2018 20:20:00 7.9 C 90 % 6.36 C
3120 22-12-2018 20:25:00 7.8 C 90 % 6.27 C
3121 22-12-2018 20:30:00 7.8 C 91 % 6.43 C
3122 22-12-2018 20:35:00 7.7 C 91 % 6.33 C
3123 22-12-2018 20:40:00 7.6 C 91 % 6.23 C
3124 22-12-2018 20:45:00 7.7 C 92 % 6.48 C
3125 22-12-2018 20:50:00 7.6 C 92 % 6.39 C
Sensor: Nr:Datum:Temp:Feuchte:Taupunkt:
Aussen-T/F 3126 22-12-2018 20:55:00 7.6 C 92 % 6.39 C
3127 22-12-2018 21:00:00 7.6 C 92 % 6.39 C
3128 22-12-2018 21:05:00 7.6 C 92 % 6.39 C
3129 22-12-2018 21:10:00 7.5 C 92 % 6.29 C
3130 22-12-2018 21:15:00 7.5 C 92 % 6.29 C
3131 22-12-2018 21:20:00 7.4 C 92 % 6.19 C
3132 22-12-2018 21:25:00 7.4 C 92 % 6.19 C
3133 22-12-2018 21:30:00 7.3 C 92 % 6.09 C
3134 22-12-2018 21:35:00 7.3 C 92 % 6.09 C
3135 22-12-2018 21:40:00 7.3 C 92 % 6.09 C
3136 22-12-2018 21:45:00 7.4 C 92 % 6.19 C
3137 22-12-2018 21:50:00 7.4 C 93 % 6.34 C
3138 22-12-2018 21:55:00 7.5 C 93 % 6.44 C
3139 22-12-2018 22:00:00 7.6 C 92 % 6.39 C
3140 22-12-2018 22:05:00 7.6 C 92 % 6.39 C
3141 22-12-2018 22:10:00 7.7 C 92 % 6.48 C
3142 22-12-2018 22:15:00 7.8 C 91 % 6.43 C
3143 22-12-2018 22:20:00 7.9 C 91 % 6.52 C
3144 22-12-2018 22:30:00 7.9 C 90 % 6.36 C
3145 22-12-2018 22:35:00 8 C 90 % 6.46 C
3146 22-12-2018 22:40:00 8 C 89 % 6.3 C
3147 22-12-2018 22:45:00 7.9 C 89 % 6.2 C
3148 22-12-2018 22:50:00 7.9 C 89 % 6.2 C
3149 22-12-2018 22:55:00 7.9 C 89 % 6.2 C
3150 22-12-2018 23:00:00 7.8 C 90 % 6.27 C
Sensor: Nr:Datum:Temp:Feuchte:Taupunkt:
Aussen-T/F 3151 22-12-2018 23:05:00 7.8 C 90 % 6.27 C
3152 22-12-2018 23:10:00 7.8 C 90 % 6.27 C
3153 22-12-2018 23:15:00 7.8 C 90 % 6.27 C
3154 22-12-2018 23:20:00 7.8 C 91 % 6.43 C
3155 22-12-2018 23:25:00 7.8 C 91 % 6.43 C
3156 22-12-2018 23:30:00 7.7 C 91 % 6.33 C
3157 22-12-2018 23:35:00 7.7 C 90 % 6.17 C
3158 22-12-2018 23:40:00 7.7 C 90 % 6.17 C
3159 22-12-2018 23:45:00 7.7 C 90 % 6.17 C
3160 22-12-2018 23:50:00 7.7 C 89 % 6 C
3161 22-12-2018 23:55:00 7.7 C 89 % 6 C
3162 23-12-2018 00:00:00 7.7 C 89 % 6 C
3163 23-12-2018 00:05:00 7.7 C 90 % 6.17 C
3164 23-12-2018 00:10:00 7.7 C 90 % 6.17 C
3165 23-12-2018 00:15:00 7.7 C 90 % 6.17 C
3166 23-12-2018 00:20:00 7.7 C 90 % 6.17 C
3167 23-12-2018 00:25:00 7.7 C 90 % 6.17 C
3168 23-12-2018 00:30:00 7.6 C 90 % 6.07 C
3169 23-12-2018 00:35:00 7.4 C 89 % 5.71 C
3170 23-12-2018 00:40:00 7.2 C 89 % 5.51 C
3171 23-12-2018 00:45:00 7 C 89 % 5.31 C
3172 23-12-2018 00:50:00 6.8 C 90 % 5.28 C
3173 23-12-2018 00:55:00 6.7 C 90 % 5.18 C
3174 23-12-2018 01:00:00 6.6 C 91 % 5.24 C
3175 23-12-2018 01:05:00 6.5 C 91 % 5.14 C
Sensor: Nr:Datum:Temp:Feuchte:Taupunkt:
Aussen-T/F 3176 23-12-2018 01:10:00 6.4 C 92 % 5.2 C
3177 23-12-2018 01:15:00 6.4 C 92 % 5.2 C
3178 23-12-2018 01:20:00 6.4 C 92 % 5.2 C
3179 23-12-2018 01:25:00 6.4 C 93 % 5.35 C
3180 23-12-2018 01:30:00 6.5 C 93 % 5.45 C
3181 23-12-2018 01:35:00 6.6 C 94 % 5.71 C
3182 23-12-2018 01:40:00 6.7 C 94 % 5.8 C
3183 23-12-2018 01:45:00 6.6 C 93 % 5.55 C
3184 23-12-2018 01:50:00 6.5 C 93 % 5.45 C
3185 23-12-2018 01:55:00 6.4 C 93 % 5.35 C
3186 23-12-2018 02:00:00 6.2 C 93 % 5.15 C
3187 23-12-2018 02:05:00 6.2 C 93 % 5.15 C
3188 23-12-2018 02:10:00 6.1 C 93 % 5.06 C
3189 23-12-2018 02:15:00 6.1 C 93 % 5.06 C
3190 23-12-2018 02:20:00 6.1 C 94 % 5.21 C
3191 23-12-2018 02:25:00 6.2 C 95 % 5.46 C
3192 23-12-2018 02:30:00 6.3 C 94 % 5.41 C
3193 23-12-2018 02:35:00 6.3 C 94 % 5.41 C
3194 23-12-2018 02:40:00 6.3 C 94 % 5.41 C
3195 23-12-2018 02:45:00 6.2 C 94 % 5.31 C
3196 23-12-2018 02:50:00 6.1 C 94 % 5.21 C
3197 23-12-2018 02:55:00 6.1 C 94 % 5.21 C
3198 23-12-2018 03:00:00 6.1 C 94 % 5.21 C
3199 23-12-2018 03:05:00 6.1 C 94 % 5.21 C
3200 23-12-2018 03:10:00 6.2 C 95 % 5.46 C
Sensor: Nr:Datum:Temp:Feuchte:Taupunkt:
Aussen-T/F 3201 23-12-2018 03:15:00 6.2 C 95 % 5.46 C
3202 23-12-2018 03:20:00 6.3 C 95 % 5.56 C
3203 23-12-2018 03:25:00 6.6 C 95 % 5.86 C
3204 23-12-2018 03:30:00 6.7 C 95 % 5.96 C
3205 23-12-2018 03:35:00 6.8 C 95 % 6.06 C
3206 23-12-2018 03:40:00 6.8 C 95 % 6.06 C
3207 23-12-2018 03:45:00 6.8 C 95 % 6.06 C
3208 23-12-2018 03:50:00 6.9 C 95 % 6.16 C
3209 23-12-2018 03:55:00 7 C 95 % 6.26 C
3210 23-12-2018 04:00:00 7.1 C 95 % 6.35 C
3211 23-12-2018 04:05:00 7.2 C 95 % 6.45 C
3212 23-12-2018 04:10:00 7.2 C 95 % 6.45 C
3213 23-12-2018 04:15:00 7.3 C 95 % 6.55 C
3214 23-12-2018 04:20:00 7.3 C 95 % 6.55 C
3215 23-12-2018 04:25:00 7.3 C 94 % 6.4 C
3216 23-12-2018 04:30:00 7.2 C 94 % 6.3 C
3217 23-12-2018 04:35:00 7.1 C 94 % 6.2 C
3218 23-12-2018 04:40:00 7 C 94 % 6.1 C
3219 23-12-2018 04:45:00 6.8 C 94 % 5.9 C
3220 23-12-2018 04:50:00 6.7 C 93 % 5.65 C
3221 23-12-2018 04:55:00 6.6 C 94 % 5.71 C
3222 23-12-2018 05:00:00 6.6 C 94 % 5.71 C
3223 23-12-2018 05:05:00 6.5 C 94 % 5.61 C
3224 23-12-2018 05:10:00 6.4 C 94 % 5.51 C
3225 23-12-2018 05:15:00 6.6 C 95 % 5.86 C
Sensor: Nr:Datum:Temp:Feuchte:Taupunkt:
Aussen-T/F 3226 23-12-2018 05:20:00 6.7 C 95 % 5.96 C
3227 23-12-2018 05:25:00 6.8 C 95 % 6.06 C
3228 23-12-2018 05:30:00 7 C 95 % 6.26 C
3229 23-12-2018 05:35:00 7.1 C 95 % 6.35 C
3230 23-12-2018 05:40:00 7.1 C 95 % 6.35 C
3231 23-12-2018 05:45:00 7.1 C 95 % 6.35 C
3232 23-12-2018 05:50:00 7.1 C 95 % 6.35 C
3233 23-12-2018 05:55:00 7.1 C 95 % 6.35 C
3234 23-12-2018 06:00:00 7.2 C 95 % 6.45 C
3235 23-12-2018 06:05:00 7.1 C 95 % 6.35 C
3236 23-12-2018 06:10:00 7.1 C 95 % 6.35 C
3237 23-12-2018 06:15:00 7.2 C 95 % 6.45 C
3238 23-12-2018 06:20:00 7.2 C 95 % 6.45 C
3239 23-12-2018 06:25:00 7.2 C 95 % 6.45 C
3240 23-12-2018 06:30:00 7.2 C 95 % 6.45 C
3241 23-12-2018 06:35:00 7.2 C 95 % 6.45 C
3242 23-12-2018 06:40:00 7.2 C 95 % 6.45 C
3243 23-12-2018 06:45:00 7.2 C 95 % 6.45 C
3244 23-12-2018 06:50:00 7.2 C 95 % 6.45 C
3245 23-12-2018 06:55:00 7.2 C 95 % 6.45 C
3246 23-12-2018 07:00:00 7.2 C 95 % 6.45 C
3247 23-12-2018 07:05:00 7.3 C 95 % 6.55 C
3248 23-12-2018 07:10:00 7.3 C 95 % 6.55 C
3249 23-12-2018 07:15:00 7.4 C 95 % 6.65 C
3250 23-12-2018 07:20:00 7.5 C 95 % 6.75 C
Sensor: Nr:Datum:Temp:Feuchte:Taupunkt:
Aussen-T/F 3251 23-12-2018 07:25:00 7.5 C 94 % 6.6 C
3252 23-12-2018 07:30:00 7.6 C 94 % 6.7 C
3253 23-12-2018 07:35:00 7.6 C 94 % 6.7 C
3254 23-12-2018 07:40:00 7.6 C 94 % 6.7 C
3255 23-12-2018 07:45:00 7.7 C 94 % 6.8 C
3256 23-12-2018 07:50:00 7.8 C 94 % 6.9 C
3257 23-12-2018 07:55:00 7.8 C 93 % 6.74 C
3258 23-12-2018 08:00:00 7.9 C 93 % 6.84 C
3259 23-12-2018 08:05:00 7.9 C 93 % 6.84 C
3260 23-12-2018 08:10:00 7.9 C 93 % 6.84 C
3261 23-12-2018 08:15:00 7.9 C 93 % 6.84 C
3262 23-12-2018 08:20:00 7.9 C 93 % 6.84 C
3263 23-12-2018 08:25:00 7.9 C 93 % 6.84 C
3264 23-12-2018 08:30:00 7.9 C 93 % 6.84 C
3265 23-12-2018 08:35:00 7.8 C 93 % 6.74 C
3266 23-12-2018 08:40:00 7.8 C 93 % 6.74 C
3267 23-12-2018 08:45:00 7.9 C 93 % 6.84 C
3268 23-12-2018 08:50:00 7.9 C 93 % 6.84 C
3269 23-12-2018 08:55:00 7.9 C 93 % 6.84 C
3270 23-12-2018 09:00:00 8.1 C 93 % 7.04 C
3271 23-12-2018 09:05:00 8.2 C 93 % 7.14 C
3272 23-12-2018 09:10:00 8.2 C 92 % 6.98 C
3273 23-12-2018 09:15:00 8.2 C 92 % 6.98 C
3274 23-12-2018 09:20:00 8.2 C 92 % 6.98 C
3275 23-12-2018 09:25:00 8.2 C 92 % 6.98 C
Sensor: Nr:Datum:Temp:Feuchte:Taupunkt:
Aussen-T/F 3276 23-12-2018 09:30:00 8.3 C 92 % 7.08 C
3277 23-12-2018 09:35:00 8.4 C 92 % 7.18 C
3278 23-12-2018 09:40:00 8.5 C 91 % 7.12 C
3279 23-12-2018 09:45:00 8.6 C 91 % 7.22 C
3280 23-12-2018 09:50:00 8.7 C 90 % 7.15 C
3281 23-12-2018 09:55:00 8.7 C 90 % 7.15 C
3282 23-12-2018 10:00:00 8.8 C 90 % 7.25 C
3283 23-12-2018 10:05:00 8.9 C 89 % 7.19 C
3284 23-12-2018 10:10:00 9 C 89 % 7.29 C
3285 23-12-2018 10:15:00 9.1 C 89 % 7.39 C
3286 23-12-2018 10:20:00 9.2 C 88 % 7.32 C
3287 23-12-2018 10:25:00 9.2 C 88 % 7.32 C
3288 23-12-2018 10:30:00 9.3 C 88 % 7.42 C
3289 23-12-2018 10:35:00 9.3 C 88 % 7.42 C
3290 23-12-2018 10:40:00 9.4 C 87 % 7.35 C
3291 23-12-2018 10:45:00 9.4 C 87 % 7.35 C
3292 23-12-2018 10:50:00 9.4 C 87 % 7.35 C
3293 23-12-2018 10:55:00 9.5 C 87 % 7.45 C
3294 23-12-2018 11:00:00 9.6 C 87 % 7.55 C
3295 23-12-2018 11:05:00 9.6 C 87 % 7.55 C
3296 23-12-2018 11:10:00 9.6 C 87 % 7.55 C
3297 23-12-2018 11:15:00 9.7 C 87 % 7.64 C
3298 23-12-2018 11:20:00 9.7 C 87 % 7.64 C
3299 23-12-2018 11:25:00 9.7 C 87 % 7.64 C
3300 23-12-2018 11:30:00 9.7 C 86 % 7.47 C
Sensor: Nr:Datum:Temp:Feuchte:Taupunkt:
Aussen-T/F 3301 23-12-2018 11:35:00 9.7 C 86 % 7.47 C
3302 23-12-2018 11:40:00 9.8 C 87 % 7.74 C
3303 23-12-2018 11:45:00 9.8 C 86 % 7.57 C
3304 23-12-2018 11:50:00 9.8 C 86 % 7.57 C
3305 23-12-2018 11:55:00 9.8 C 86 % 7.57 C
3306 23-12-2018 12:00:00 9.9 C 86 % 7.67 C
3307 23-12-2018 12:05:00 9.9 C 87 % 7.84 C
3308 23-12-2018 12:10:00 9.9 C 87 % 7.84 C
3309 23-12-2018 12:15:00 9.9 C 87 % 7.84 C
3310 23-12-2018 12:20:00 9.8 C 88 % 7.91 C
3311 23-12-2018 12:25:00 9.7 C 89 % 7.98 C
3312 23-12-2018 12:30:00 9.7 C 89 % 7.98 C
3313 23-12-2018 12:35:00 9.6 C 90 % 8.04 C
3314 23-12-2018 12:40:00 9.5 C 91 % 8.11 C
3315 23-12-2018 12:45:00 9.4 C 91 % 8.01 C
3316 23-12-2018 12:50:00 9.4 C 91 % 8.01 C
3317 23-12-2018 12:55:00 9.3 C 92 % 8.07 C
3318 23-12-2018 13:00:00 9.3 C 92 % 8.07 C
3319 23-12-2018 13:05:00 9.3 C 92 % 8.07 C
3320 23-12-2018 13:10:00 9.3 C 93 % 8.23 C
3321 23-12-2018 13:15:00 9.2 C 93 % 8.13 C
3322 23-12-2018 13:20:00 9.2 C 93 % 8.13 C
3323 23-12-2018 13:25:00 9.1 C 93 % 8.03 C
3324 23-12-2018 13:30:00 9.1 C 93 % 8.03 C
3325 23-12-2018 13:35:00 9.1 C 93 % 8.03 C
Sensor: Nr:Datum:Temp:Feuchte:Taupunkt:
Aussen-T/F 3326 23-12-2018 13:40:00 9 C 93 % 7.93 C
3327 23-12-2018 13:45:00 9 C 93 % 7.93 C
3328 23-12-2018 13:50:00 8.9 C 93 % 7.83 C
3329 23-12-2018 13:55:00 8.9 C 93 % 7.83 C
3330 23-12-2018 14:00:00 8.8 C 94 % 7.89 C
3331 23-12-2018 14:05:00 8.8 C 94 % 7.89 C
3332 23-12-2018 14:10:00 8.8 C 94 % 7.89 C
3333 23-12-2018 14:15:00 8.8 C 94 % 7.89 C
3334 23-12-2018 14:20:00 8.8 C 94 % 7.89 C
3335 23-12-2018 14:25:00 8.8 C 94 % 7.89 C
3336 23-12-2018 14:30:00 8.8 C 94 % 7.89 C
3337 23-12-2018 14:35:00 8.8 C 95 % 8.04 C
3338 23-12-2018 14:40:00 8.8 C 95 % 8.04 C
3339 23-12-2018 14:45:00 8.8 C 95 % 8.04 C
3340 23-12-2018 14:50:00 8.8 C 95 % 8.04 C
3341 23-12-2018 14:55:00 8.8 C 95 % 8.04 C
3342 23-12-2018 15:00:00 8.7 C 95 % 7.94 C
3343 23-12-2018 15:05:00 8.7 C 95 % 7.94 C
3344 23-12-2018 15:10:00 8.7 C 95 % 7.94 C
3345 23-12-2018 15:15:00 8.7 C 95 % 7.94 C
3346 23-12-2018 15:20:00 8.7 C 95 % 7.94 C
3347 23-12-2018 15:25:00 8.6 C 95 % 7.85 C
3348 23-12-2018 15:30:00 8.6 C 95 % 7.85 C
3349 23-12-2018 15:35:00 8.6 C 95 % 7.85 C
3350 23-12-2018 15:40:00 8.5 C 95 % 7.75 C
Sensor: Nr:Datum:Temp:Feuchte:Taupunkt:
Aussen-T/F 3351 23-12-2018 15:45:00 8.4 C 95 % 7.65 C
3352 23-12-2018 15:50:00 8.4 C 95 % 7.65 C
3353 23-12-2018 15:55:00 8.4 C 95 % 7.65 C
3354 23-12-2018 16:00:00 8.3 C 95 % 7.55 C
3355 23-12-2018 16:05:00 8.3 C 95 % 7.55 C
3356 23-12-2018 16:10:00 8.3 C 96 % 7.7 C
3357 23-12-2018 16:15:00 8.2 C 96 % 7.6 C
3358 23-12-2018 16:20:00 8.2 C 96 % 7.6 C
3359 23-12-2018 16:25:00 8.2 C 96 % 7.6 C
3360 23-12-2018 16:30:00 8.2 C 96 % 7.6 C
3361 23-12-2018 16:35:00 8.1 C 96 % 7.5 C
3362 23-12-2018 16:40:00 8.1 C 96 % 7.5 C
3363 23-12-2018 16:45:00 8.1 C 96 % 7.5 C
3364 23-12-2018 16:50:00 8.1 C 96 % 7.5 C
3365 23-12-2018 16:55:00 8.1 C 96 % 7.5 C
3366 23-12-2018 17:00:00 8 C 96 % 7.4 C
3367 23-12-2018 17:05:00 8 C 96 % 7.4 C
3368 23-12-2018 17:10:00 8 C 96 % 7.4 C
3369 23-12-2018 17:15:00 8 C 96 % 7.4 C
3370 23-12-2018 17:20:00 8 C 96 % 7.4 C
3371 23-12-2018 17:25:00 8 C 96 % 7.4 C
3372 23-12-2018 17:30:00 8 C 96 % 7.4 C
3373 23-12-2018 17:35:00 8 C 96 % 7.4 C
3374 23-12-2018 17:40:00 8 C 96 % 7.4 C
3375 23-12-2018 17:45:00 8.1 C 96 % 7.5 C
Sensor: Nr:Datum:Temp:Feuchte:Taupunkt:
Aussen-T/F 3376 23-12-2018 17:50:00 8.2 C 96 % 7.6 C
3377 23-12-2018 17:55:00 8.2 C 96 % 7.6 C
3378 23-12-2018 18:00:00 8.2 C 96 % 7.6 C
3379 23-12-2018 18:05:00 8.2 C 96 % 7.6 C
3380 23-12-2018 18:10:00 8.2 C 96 % 7.6 C
3381 23-12-2018 18:15:00 8.3 C 96 % 7.7 C
3382 23-12-2018 18:20:00 8.3 C 97 % 7.85 C
3383 23-12-2018 18:25:00 8.4 C 97 % 7.95 C
3384 23-12-2018 18:30:00 8.5 C 97 % 8.05 C
3385 23-12-2018 18:35:00 8.7 C 97 % 8.25 C
3386 23-12-2018 18:40:00 8.8 C 97 % 8.35 C
3387 23-12-2018 18:45:00 8.9 C 97 % 8.45 C
3388 23-12-2018 18:50:00 8.9 C 97 % 8.45 C
3389 23-12-2018 18:55:00 8.9 C 97 % 8.45 C
3390 23-12-2018 19:00:00 8.9 C 97 % 8.45 C
3391 23-12-2018 19:05:00 9 C 97 % 8.55 C
3392 23-12-2018 19:10:00 9.2 C 97 % 8.75 C
3393 23-12-2018 19:15:00 9.4 C 97 % 8.95 C
3394 23-12-2018 19:20:00 9.5 C 97 % 9.05 C
3395 23-12-2018 19:25:00 9.6 C 97 % 9.15 C
3396 23-12-2018 19:30:00 9.8 C 97 % 9.35 C
3397 23-12-2018 19:35:00 9.9 C 97 % 9.45 C
3398 23-12-2018 19:40:00 10 C 97 % 9.55 C
3399 23-12-2018 19:45:00 10.1 C 97 % 9.65 C
3400 23-12-2018 19:50:00 10.1 C 97 % 9.65 C
Sensor: Nr:Datum:Temp:Feuchte:Taupunkt:
Aussen-T/F 3401 23-12-2018 19:55:00 10.2 C 96 % 9.59 C
3402 23-12-2018 20:00:00 10.2 C 96 % 9.59 C
3403 23-12-2018 20:05:00 10.3 C 96 % 9.69 C
3404 23-12-2018 20:10:00 10.3 C 97 % 9.85 C
3405 23-12-2018 20:15:00 10.5 C 96 % 9.89 C
3406 23-12-2018 20:20:00 10.6 C 96 % 9.99 C
3407 23-12-2018 20:25:00 10.6 C 96 % 9.99 C
3408 23-12-2018 20:30:00 10.7 C 96 % 10.09 C
3409 23-12-2018 20:35:00 10.8 C 96 % 10.19 C
3410 23-12-2018 20:40:00 10.9 C 96 % 10.29 C
3411 23-12-2018 20:45:00 11.1 C 96 % 10.49 C
3412 23-12-2018 20:50:00 11.1 C 96 % 10.49 C
3413 23-12-2018 20:55:00 11.1 C 96 % 10.49 C
3414 23-12-2018 21:00:00 11.2 C 96 % 10.59 C
3415 23-12-2018 21:05:00 11.4 C 96 % 10.79 C
3416 23-12-2018 21:10:00 11.5 C 95 % 10.73 C
3417 23-12-2018 21:15:00 11.6 C 95 % 10.83 C
3418 23-12-2018 21:20:00 11.7 C 95 % 10.93 C
3419 23-12-2018 21:25:00 11.8 C 95 % 11.03 C
3420 23-12-2018 21:30:00 11.9 C 95 % 11.13 C
3421 23-12-2018 21:35:00 11.9 C 95 % 11.13 C
3422 23-12-2018 21:40:00 11.9 C 95 % 11.13 C
3423 23-12-2018 21:45:00 11.9 C 95 % 11.13 C
3424 23-12-2018 21:50:00 11.9 C 95 % 11.13 C
3425 23-12-2018 21:55:00 11.8 C 95 % 11.03 C
Sensor: Nr:Datum:Temp:Feuchte:Taupunkt:
Aussen-T/F 3426 23-12-2018 22:00:00 11.8 C 95 % 11.03 C
3427 23-12-2018 22:05:00 11.8 C 95 % 11.03 C
3428 23-12-2018 22:10:00 11.7 C 95 % 10.93 C
3429 23-12-2018 22:15:00 11.7 C 95 % 10.93 C
3430 23-12-2018 22:20:00 11.7 C 95 % 10.93 C
3431 23-12-2018 22:25:00 11.7 C 95 % 10.93 C
3432 23-12-2018 22:30:00 11.6 C 95 % 10.83 C
3433 23-12-2018 22:35:00 11.6 C 96 % 10.98 C
3434 23-12-2018 22:40:00 11.6 C 96 % 10.98 C
3435 23-12-2018 22:45:00 11.6 C 96 % 10.98 C
3436 23-12-2018 22:50:00 11.6 C 96 % 10.98 C
3437 23-12-2018 22:55:00 11.6 C 96 % 10.98 C
3438 23-12-2018 23:00:00 11.6 C 96 % 10.98 C
3439 23-12-2018 23:05:00 11.6 C 96 % 10.98 C
3440 23-12-2018 23:10:00 11.6 C 96 % 10.98 C
3441 23-12-2018 23:15:00 11.6 C 96 % 10.98 C
3442 23-12-2018 23:20:00 11.7 C 96 % 11.08 C
3443 23-12-2018 23:25:00 11.7 C 96 % 11.08 C
3444 23-12-2018 23:30:00 11.7 C 96 % 11.08 C
3445 23-12-2018 23:35:00 11.7 C 96 % 11.08 C
3446 23-12-2018 23:40:00 11.7 C 96 % 11.08 C
3447 23-12-2018 23:45:00 11.6 C 96 % 10.98 C
3448 23-12-2018 23:50:00 11.3 C 95 % 10.53 C
3449 23-12-2018 23:55:00 11.2 C 95 % 10.43 C
3450 24-12-2018 00:00:00 11.1 C 95 % 10.33 C
Sensor: Nr:Datum:Temp:Feuchte:Taupunkt:
Aussen-T/F 3451 24-12-2018 00:05:00 11.1 C 95 % 10.33 C
3452 24-12-2018 00:10:00 10.9 C 95 % 10.13 C
3453 24-12-2018 00:15:00 10.7 C 95 % 9.93 C
3454 24-12-2018 00:20:00 10.6 C 95 % 9.83 C
3455 24-12-2018 00:25:00 10.4 C 95 % 9.63 C
3456 24-12-2018 00:30:00 10.2 C 95 % 9.44 C
3457 24-12-2018 00:35:00 10 C 95 % 9.24 C
3458 24-12-2018 00:40:00 9.8 C 94 % 8.88 C
3459 24-12-2018 00:45:00 9.7 C 95 % 8.94 C
3460 24-12-2018 00:50:00 9.6 C 94 % 8.68 C
3461 24-12-2018 00:55:00 9.4 C 94 % 8.48 C
3462 24-12-2018 01:00:00 9.2 C 93 % 8.13 C
3463 24-12-2018 01:05:00 9 C 93 % 7.93 C
3464 24-12-2018 01:10:00 8.8 C 93 % 7.73 C
3465 24-12-2018 01:15:00 8.8 C 94 % 7.89 C
3466 24-12-2018 01:20:00 8.6 C 93 % 7.53 C
3467 24-12-2018 01:25:00 8.4 C 93 % 7.34 C
3468 24-12-2018 01:30:00 8.3 C 93 % 7.24 C
3469 24-12-2018 01:35:00 8.2 C 93 % 7.14 C
3470 24-12-2018 01:40:00 8 C 93 % 6.94 C
3471 24-12-2018 01:45:00 7.8 C 92 % 6.58 C
3472 24-12-2018 01:50:00 7.6 C 92 % 6.39 C
3473 24-12-2018 01:55:00 7.4 C 91 % 6.03 C
3474 24-12-2018 02:00:00 7.3 C 92 % 6.09 C
3475 24-12-2018 02:05:00 7.3 C 92 % 6.09 C
Sensor: Nr:Datum:Temp:Feuchte:Taupunkt:
Aussen-T/F 3476 24-12-2018 02:10:00 7.2 C 92 % 5.99 C
3477 24-12-2018 02:15:00 7.2 C 92 % 5.99 C
3478 24-12-2018 02:20:00 7.1 C 92 % 5.89 C
3479 24-12-2018 02:25:00 7.1 C 93 % 6.05 C
3480 24-12-2018 02:30:00 7.1 C 93 % 6.05 C
3481 24-12-2018 02:35:00 6.9 C 92 % 5.69 C
3482 24-12-2018 02:40:00 6.8 C 92 % 5.59 C
3483 24-12-2018 02:45:00 6.7 C 92 % 5.49 C
3484 24-12-2018 02:50:00 6.6 C 92 % 5.4 C
3485 24-12-2018 02:55:00 6.6 C 92 % 5.4 C
3486 24-12-2018 03:00:00 6.4 C 92 % 5.2 C
3487 24-12-2018 03:05:00 6.4 C 93 % 5.35 C
3488 24-12-2018 03:10:00 6.3 C 93 % 5.25 C
3489 24-12-2018 03:15:00 6.3 C 93 % 5.25 C
3490 24-12-2018 03:20:00 6.3 C 93 % 5.25 C
3491 24-12-2018 03:25:00 6.2 C 93 % 5.15 C
3492 24-12-2018 03:30:00 6.2 C 93 % 5.15 C
3493 24-12-2018 03:35:00 6.2 C 93 % 5.15 C
3494 24-12-2018 03:40:00 6.2 C 93 % 5.15 C
3495 24-12-2018 03:45:00 6.1 C 93 % 5.06 C
3496 24-12-2018 03:50:00 6.1 C 93 % 5.06 C
3497 24-12-2018 03:55:00 6.1 C 94 % 5.21 C
3498 24-12-2018 04:00:00 6 C 94 % 5.11 C
3499 24-12-2018 04:05:00 5.9 C 94 % 5.01 C
3500 24-12-2018 04:10:00 5.9 C 94 % 5.01 C
Sensor: Nr:Datum:Temp:Feuchte:Taupunkt:
Aussen-T/F 3501 24-12-2018 04:15:00 5.9 C 94 % 5.01 C
3502 24-12-2018 04:20:00 5.9 C 94 % 5.01 C
3503 24-12-2018 04:25:00 5.9 C 94 % 5.01 C
3504 24-12-2018 04:30:00 6 C 94 % 5.11 C
3505 24-12-2018 04:35:00 6 C 94 % 5.11 C
3506 24-12-2018 04:40:00 6 C 94 % 5.11 C
3507 24-12-2018 04:45:00 6 C 94 % 5.11 C
3508 24-12-2018 04:50:00 6.1 C 94 % 5.21 C
3509 24-12-2018 04:55:00 6.1 C 94 % 5.21 C
3510 24-12-2018 05:00:00 6.1 C 94 % 5.21 C
3511 24-12-2018 05:05:00 6.1 C 94 % 5.21 C
3512 24-12-2018 05:10:00 6.1 C 94 % 5.21 C
3513 24-12-2018 05:15:00 6.1 C 94 % 5.21 C
3514 24-12-2018 05:20:00 6.1 C 94 % 5.21 C
3515 24-12-2018 05:25:00 6.1 C 94 % 5.21 C
3516 24-12-2018 05:30:00 6.1 C 94 % 5.21 C
3517 24-12-2018 05:35:00 6.1 C 94 % 5.21 C
3518 24-12-2018 05:40:00 6.2 C 94 % 5.31 C
3519 24-12-2018 05:45:00 6.2 C 94 % 5.31 C
3520 24-12-2018 05:50:00 6.2 C 94 % 5.31 C
3521 24-12-2018 05:55:00 6.2 C 94 % 5.31 C
3522 24-12-2018 06:00:00 6.2 C 94 % 5.31 C
3523 24-12-2018 06:05:00 6.2 C 94 % 5.31 C
3524 24-12-2018 06:10:00 6.2 C 94 % 5.31 C
3525 24-12-2018 06:15:00 6.2 C 94 % 5.31 C
Sensor: Nr:Datum:Temp:Feuchte:Taupunkt:
Aussen-T/F 3526 24-12-2018 06:20:00 6.2 C 94 % 5.31 C
3527 24-12-2018 06:25:00 6.2 C 93 % 5.15 C
3528 24-12-2018 06:30:00 6.2 C 93 % 5.15 C
3529 24-12-2018 06:35:00 6.2 C 93 % 5.15 C
3530 24-12-2018 06:40:00 6.2 C 94 % 5.31 C
3531 24-12-2018 06:45:00 6.2 C 93 % 5.15 C
3532 24-12-2018 06:50:00 6.2 C 93 % 5.15 C
3533 24-12-2018 06:55:00 6.2 C 93 % 5.15 C
3534 24-12-2018 07:00:00 6.1 C 93 % 5.06 C
3535 24-12-2018 07:05:00 6.1 C 94 % 5.21 C
3536 24-12-2018 07:10:00 6.1 C 94 % 5.21 C
3537 24-12-2018 07:15:00 6.1 C 94 % 5.21 C
3538 24-12-2018 07:20:00 6.1 C 94 % 5.21 C
3539 24-12-2018 07:25:00 6.2 C 94 % 5.31 C
3540 24-12-2018 07:30:00 6.1 C 94 % 5.21 C
3541 24-12-2018 07:35:00 6.1 C 94 % 5.21 C
3542 24-12-2018 07:40:00 6.1 C 94 % 5.21 C
3543 24-12-2018 07:45:00 6.1 C 94 % 5.21 C
3544 24-12-2018 07:50:00 6.1 C 94 % 5.21 C
3545 24-12-2018 07:55:00 6.1 C 94 % 5.21 C
3546 24-12-2018 08:00:00 6.1 C 94 % 5.21 C
3547 24-12-2018 08:05:00 6.2 C 94 % 5.31 C
3548 24-12-2018 08:10:00 6.2 C 94 % 5.31 C
3549 24-12-2018 08:15:00 6.2 C 94 % 5.31 C
3550 24-12-2018 08:20:00 6.2 C 94 % 5.31 C
Sensor: Nr:Datum:Temp:Feuchte:Taupunkt:
Aussen-T/F 3551 24-12-2018 08:25:00 6.2 C 94 % 5.31 C
3552 24-12-2018 08:30:00 6.2 C 94 % 5.31 C
3553 24-12-2018 08:35:00 6.2 C 94 % 5.31 C
3554 24-12-2018 08:40:00 6.2 C 94 % 5.31 C
3555 24-12-2018 08:45:00 6.2 C 94 % 5.31 C
3556 24-12-2018 08:50:00 6.2 C 94 % 5.31 C
3557 24-12-2018 08:55:00 6.2 C 94 % 5.31 C
3558 24-12-2018 09:00:00 6.2 C 94 % 5.31 C
3559 24-12-2018 09:05:00 6.2 C 94 % 5.31 C
3560 24-12-2018 09:10:00 6.2 C 93 % 5.15 C
3561 24-12-2018 09:15:00 6.2 C 94 % 5.31 C
3562 24-12-2018 09:20:00 6.2 C 93 % 5.15 C
3563 24-12-2018 09:25:00 6.3 C 94 % 5.41 C
3564 24-12-2018 09:30:00 6.3 C 94 % 5.41 C
3565 24-12-2018 09:35:00 6.3 C 94 % 5.41 C
3566 24-12-2018 09:40:00 6.3 C 94 % 5.41 C
3567 24-12-2018 09:45:00 6.3 C 94 % 5.41 C
3568 24-12-2018 09:50:00 6.3 C 94 % 5.41 C
3569 24-12-2018 09:55:00 6.3 C 94 % 5.41 C
3570 24-12-2018 10:00:00 6.3 C 93 % 5.25 C
3571 24-12-2018 10:05:00 6.3 C 93 % 5.25 C
3572 24-12-2018 10:10:00 6.4 C 93 % 5.35 C
3573 24-12-2018 10:15:00 6.4 C 93 % 5.35 C
3574 24-12-2018 10:20:00 6.5 C 93 % 5.45 C
3575 24-12-2018 10:25:00 6.5 C 93 % 5.45 C
Sensor: Nr:Datum:Temp:Feuchte:Taupunkt:
Aussen-T/F 3576 24-12-2018 10:30:00 6.5 C 92 % 5.3 C
3577 24-12-2018 10:35:00 6.5 C 92 % 5.3 C
3578 24-12-2018 10:40:00 6.6 C 92 % 5.4 C
3579 24-12-2018 10:45:00 6.6 C 92 % 5.4 C
3580 24-12-2018 10:50:00 6.6 C 91 % 5.24 C
3581 24-12-2018 10:55:00 6.6 C 91 % 5.24 C
3582 24-12-2018 11:00:00 6.6 C 90 % 5.08 C
3583 24-12-2018 11:05:00 6.6 C 90 % 5.08 C
3584 24-12-2018 11:10:00 6.6 C 89 % 4.92 C
3585 24-12-2018 11:15:00 6.6 C 89 % 4.92 C
3586 24-12-2018 11:20:00 6.7 C 89 % 5.02 C
3587 24-12-2018 11:25:00 6.7 C 89 % 5.02 C
3588 24-12-2018 11:30:00 6.7 C 90 % 5.18 C
3589 24-12-2018 11:35:00 6.8 C 89 % 5.12 C
3590 24-12-2018 11:40:00 6.8 C 89 % 5.12 C
3591 24-12-2018 11:45:00 6.8 C 88 % 4.96 C
3592 24-12-2018 11:50:00 6.8 C 89 % 5.12 C
3593 24-12-2018 11:55:00 6.8 C 87 % 4.79 C
3594 24-12-2018 12:00:00 6.8 C 87 % 4.79 C
3595 24-12-2018 12:05:00 6.8 C 87 % 4.79 C
3596 24-12-2018 12:10:00 6.9 C 87 % 4.89 C
3597 24-12-2018 12:15:00 6.8 C 85 % 4.46 C
3598 24-12-2018 12:20:00 6.7 C 85 % 4.36 C
3599 24-12-2018 12:25:00 6.7 C 83 % 4.02 C
3600 24-12-2018 12:30:00 6.7 C 82 % 3.85 C
Sensor: Nr:Datum:Temp:Feuchte:Taupunkt:
Aussen-T/F 3601 24-12-2018 12:35:00 6.7 C 83 % 4.02 C
3602 24-12-2018 12:40:00 6.6 C 83 % 3.92 C
3603 24-12-2018 12:45:00 6.7 C 83 % 4.02 C
3604 24-12-2018 12:50:00 6.7 C 85 % 4.36 C
3605 24-12-2018 12:55:00 6.8 C 85 % 4.46 C
3606 24-12-2018 13:00:00 6.8 C 85 % 4.46 C
3607 24-12-2018 13:05:00 6.8 C 83 % 4.12 C
3608 24-12-2018 13:10:00 6.7 C 82 % 3.85 C
3609 24-12-2018 13:15:00 6.6 C 83 % 3.92 C
3610 24-12-2018 13:20:00 6.6 C 82 % 3.75 C
3611 24-12-2018 13:25:00 6.6 C 83 % 3.92 C
3612 24-12-2018 13:30:00 6.6 C 83 % 3.92 C
3613 24-12-2018 13:35:00 6.5 C 83 % 3.83 C
3614 24-12-2018 13:40:00 6.4 C 82 % 3.56 C
3615 24-12-2018 13:45:00 6.4 C 83 % 3.73 C
3616 24-12-2018 13:50:00 6.3 C 83 % 3.63 C
3617 24-12-2018 13:55:00 6.3 C 83 % 3.63 C
3618 24-12-2018 14:00:00 6.3 C 83 % 3.63 C
3619 24-12-2018 14:05:00 6.3 C 82 % 3.46 C
3620 24-12-2018 14:10:00 6.3 C 79 % 2.93 C
3621 24-12-2018 14:15:00 6.3 C 79 % 2.93 C
3622 24-12-2018 14:20:00 6.2 C 77 % 2.48 C
3623 24-12-2018 14:25:00 6.2 C 78 % 2.66 C
3624 24-12-2018 14:30:00 6.2 C 78 % 2.66 C
3625 24-12-2018 14:35:00 6.2 C 78 % 2.66 C
Sensor: Nr:Datum:Temp:Feuchte:Taupunkt:
Aussen-T/F 3626 24-12-2018 14:40:00 6.2 C 78 % 2.66 C
3627 24-12-2018 14:45:00 6.2 C 78 % 2.66 C
3628 24-12-2018 14:50:00 6.2 C 78 % 2.66 C
3629 24-12-2018 14:55:00 6.1 C 78 % 2.56 C
3630 24-12-2018 15:00:00 6.1 C 80 % 2.92 C
3631 24-12-2018 15:05:00 6.1 C 79 % 2.74 C
3632 24-12-2018 15:10:00 6.1 C 80 % 2.92 C
3633 24-12-2018 15:15:00 6.1 C 79 % 2.74 C
3634 24-12-2018 15:20:00 6.1 C 79 % 2.74 C
3635 24-12-2018 15:25:00 6.1 C 79 % 2.74 C
3636 24-12-2018 15:30:00 6.1 C 80 % 2.92 C
3637 24-12-2018 15:35:00 5.9 C 79 % 2.54 C
3638 24-12-2018 15:40:00 5.8 C 79 % 2.45 C
3639 24-12-2018 15:45:00 5.7 C 80 % 2.53 C
3640 24-12-2018 15:50:00 5.6 C 80 % 2.43 C
3641 24-12-2018 15:55:00 5.4 C 81 % 2.41 C
3642 24-12-2018 16:00:00 5.3 C 82 % 2.48 C
3643 24-12-2018 16:05:00 5.2 C 83 % 2.56 C
3644 24-12-2018 16:10:00 5.2 C 84 % 2.72 C
3645 24-12-2018 16:15:00 5 C 85 % 2.69 C
3646 24-12-2018 16:20:00 4.8 C 85 % 2.5 C
3647 24-12-2018 16:25:00 4.7 C 85 % 2.4 C
3648 24-12-2018 16:30:00 4.4 C 85 % 2.11 C
3649 24-12-2018 16:35:00 4.1 C 85 % 1.81 C
3650 24-12-2018 16:40:00 3.9 C 86 % 1.78 C
Sensor: Nr:Datum:Temp:Feuchte:Taupunkt:
Aussen-T/F 3651 24-12-2018 16:45:00 3.7 C 86 % 1.58 C
3652 24-12-2018 16:50:00 3.5 C 86 % 1.38 C
3653 24-12-2018 16:55:00 3.3 C 87 % 1.35 C
3654 24-12-2018 17:00:00 3.2 C 88 % 1.41 C
3655 24-12-2018 17:05:00 3 C 88 % 1.21 C
3656 24-12-2018 17:10:00 2.9 C 89 % 1.27 C
3657 24-12-2018 17:15:00 2.8 C 89 % 1.17 C
3658 24-12-2018 17:20:00 2.7 C 90 % 1.23 C
3659 24-12-2018 17:25:00 2.5 C 90 % 1.03 C
3660 24-12-2018 17:30:00 2.4 C 90 % 0.93 C
3661 24-12-2018 17:35:00 2.2 C 90 % 0.73 C
3662 24-12-2018 17:40:00 2.2 C 90 % 0.73 C
3663 24-12-2018 17:45:00 2.2 C 91 % 0.89 C
3664 24-12-2018 17:50:00 2.3 C 92 % 1.14 C
3665 24-12-2018 17:55:00 2.2 C 91 % 0.89 C
3666 24-12-2018 18:00:00 2.1 C 91 % 0.79 C
3667 24-12-2018 18:05:00 2 C 91 % 0.69 C
3668 24-12-2018 18:10:00 1.9 C 91 % 0.59 C
3669 24-12-2018 18:15:00 1.9 C 92 % 0.74 C
3670 24-12-2018 18:20:00 1.8 C 92 % 0.64 C
3671 24-12-2018 18:25:00 1.8 C 92 % 0.64 C
3672 24-12-2018 18:30:00 1.7 C 92 % 0.54 C
3673 24-12-2018 18:35:00 1.6 C 92 % 0.44 C
3674 24-12-2018 18:40:00 1.5 C 92 % 0.35 C
3675 24-12-2018 18:45:00 1.4 C 92 % 0.25 C
Sensor: Nr:Datum:Temp:Feuchte:Taupunkt:
Aussen-T/F 3676 24-12-2018 18:50:00 1.4 C 92 % 0.25 C
3677 24-12-2018 18:55:00 1.5 C 93 % 0.49 C
3678 24-12-2018 19:00:00 1.5 C 93 % 0.49 C
3679 24-12-2018 19:05:00 1.4 C 93 % 0.4 C
3680 24-12-2018 19:10:00 1.4 C 93 % 0.4 C
3681 24-12-2018 19:15:00 1.3 C 93 % 0.3 C
3682 24-12-2018 19:20:00 1.3 C 93 % 0.3 C
3683 24-12-2018 19:25:00 1.3 C 93 % 0.3 C
3684 24-12-2018 19:30:00 1.2 C 93 % 0.2 C
3685 24-12-2018 19:35:00 1.1 C 93 % 0.1 C
3686 24-12-2018 19:40:00 1 C 93 % 0 C
3687 24-12-2018 19:45:00 0.9 C 93 % -0.1 C
3688 24-12-2018 19:50:00 0.9 C 93 % -0.1 C
3689 24-12-2018 19:55:00 0.8 C 93 % -0.2 C
3690 24-12-2018 20:00:00 0.8 C 93 % -0.2 C
3691 24-12-2018 20:05:00 0.7 C 93 % -0.3 C
3692 24-12-2018 20:10:00 0.6 C 93 % -0.4 C
3693 24-12-2018 20:15:00 0.4 C 93 % -0.6 C
3694 24-12-2018 20:20:00 0.3 C 93 % -0.7 C
3695 24-12-2018 20:25:00 0.3 C 93 % -0.7 C
3696 24-12-2018 20:30:00 0.2 C 93 % -0.79 C
3697 24-12-2018 20:35:00 0.2 C 94 % -0.65 C
3698 24-12-2018 20:40:00 0.2 C 94 % -0.65 C
3699 24-12-2018 20:45:00 0.3 C 94 % -0.55 C
3700 24-12-2018 20:50:00 0.2 C 94 % -0.65 C
Sensor: Nr:Datum:Temp:Feuchte:Taupunkt:
Aussen-T/F 3701 24-12-2018 20:55:00 0.1 C 94 % -0.75 C
3702 24-12-2018 21:00:00 -0.1 C 94 % -0.95 C
3703 24-12-2018 21:05:00 -0.2 C 93 % -1.19 C
3704 24-12-2018 21:10:00 -0.2 C 94 % -1.05 C
3705 24-12-2018 21:15:00 -0.3 C 94 % -1.15 C
3706 24-12-2018 21:20:00 -0.3 C 94 % -1.15 C
3707 24-12-2018 21:25:00 -0.3 C 94 % -1.15 C
3708 24-12-2018 21:30:00 -0.3 C 94 % -1.15 C
3709 24-12-2018 21:35:00 -0.3 C 94 % -1.15 C
3710 24-12-2018 21:40:00 -0.3 C 94 % -1.15 C
3711 24-12-2018 21:45:00 -0.4 C 94 % -1.25 C
3712 24-12-2018 21:50:00 -0.4 C 94 % -1.25 C
3713 24-12-2018 21:55:00 -0.4 C 95 % -1.1 C
3714 24-12-2018 22:00:00 -0.4 C 94 % -1.25 C
3715 24-12-2018 22:05:00 -0.4 C 95 % -1.1 C
3716 24-12-2018 22:10:00 -0.4 C 95 % -1.1 C
3717 24-12-2018 22:15:00 -0.5 C 95 % -1.2 C
3718 24-12-2018 22:20:00 -0.5 C 95 % -1.2 C
3719 24-12-2018 22:25:00 -0.4 C 95 % -1.1 C
3720 24-12-2018 22:30:00 -0.4 C 95 % -1.1 C
3721 24-12-2018 22:35:00 -0.3 C 95 % -1 C
3722 24-12-2018 22:40:00 -0.2 C 95 % -0.9 C
3723 24-12-2018 22:45:00 -0.1 C 95 % -0.8 C
3724 24-12-2018 22:50:00 -0.1 C 96 % -0.66 C
3725 24-12-2018 22:55:00 0 C 96 % -0.56 C
Sensor: Nr:Datum:Temp:Feuchte:Taupunkt:
Aussen-T/F 3726 24-12-2018 23:00:00 0.1 C 96 % -0.46 C
3727 24-12-2018 23:05:00 0.1 C 96 % -0.46 C
3728 24-12-2018 23:10:00 0.2 C 95 % -0.5 C
3729 24-12-2018 23:15:00 0.2 C 95 % -0.5 C
3730 24-12-2018 23:20:00 0.3 C 95 % -0.4 C
3731 24-12-2018 23:25:00 0.3 C 96 % -0.26 C
3732 24-12-2018 23:30:00 0.4 C 96 % -0.16 C
3733 24-12-2018 23:35:00 0.4 C 96 % -0.16 C
3734 24-12-2018 23:40:00 0.5 C 96 % -0.06 C
3735 24-12-2018 23:45:00 0.6 C 96 % 0.04 C
3736 24-12-2018 23:50:00 0.6 C 96 % 0.04 C
3737 24-12-2018 23:55:00 0.6 C 96 % 0.04 C
3738 25-12-2018 00:00:00 0.6 C 96 % 0.04 C
3739 25-12-2018 00:05:00 0.6 C 96 % 0.04 C
3740 25-12-2018 00:10:00 0.5 C 95 % -0.21 C
3741 25-12-2018 00:15:00 0.3 C 95 % -0.4 C
3742 25-12-2018 00:20:00 0.2 C 95 % -0.5 C
3743 25-12-2018 00:25:00 0.1 C 95 % -0.6 C
3744 25-12-2018 00:30:00 0 C 95 % -0.7 C
3745 25-12-2018 00:35:00 -0.1 C 95 % -0.8 C
3746 25-12-2018 00:40:00 -0.2 C 95 % -0.9 C
3747 25-12-2018 00:45:00 -0.2 C 95 % -0.9 C
3748 25-12-2018 00:50:00 -0.3 C 95 % -1 C
3749 25-12-2018 00:55:00 -0.4 C 95 % -1.1 C
3750 25-12-2018 01:00:00 -0.4 C 95 % -1.1 C
Sensor: Nr:Datum:Temp:Feuchte:Taupunkt:
Aussen-T/F 3751 25-12-2018 01:05:00 -0.4 C 95 % -1.1 C
3752 25-12-2018 01:10:00 -0.4 C 95 % -1.1 C
3753 25-12-2018 01:15:00 -0.3 C 96 % -0.86 C
3754 25-12-2018 01:20:00 -0.2 C 96 % -0.76 C
3755 25-12-2018 01:25:00 -0.2 C 96 % -0.76 C
3756 25-12-2018 01:30:00 -0.1 C 96 % -0.66 C
3757 25-12-2018 01:35:00 0 C 96 % -0.56 C
3758 25-12-2018 01:40:00 0.1 C 96 % -0.46 C
3759 25-12-2018 01:45:00 0.2 C 96 % -0.36 C
3760 25-12-2018 01:50:00 0.2 C 96 % -0.36 C
3761 25-12-2018 01:55:00 0.2 C 96 % -0.36 C
3762 25-12-2018 02:00:00 0.2 C 96 % -0.36 C
3763 25-12-2018 02:05:00 0.3 C 96 % -0.26 C
3764 25-12-2018 02:10:00 0.3 C 96 % -0.26 C
3765 25-12-2018 02:15:00 0.4 C 96 % -0.16 C
3766 25-12-2018 02:20:00 0.5 C 96 % -0.06 C
3767 25-12-2018 02:25:00 0.5 C 96 % -0.06 C
3768 25-12-2018 02:30:00 0.5 C 96 % -0.06 C
3769 25-12-2018 02:35:00 0.6 C 96 % 0.04 C
3770 25-12-2018 02:40:00 0.6 C 96 % 0.04 C
3771 25-12-2018 02:45:00 0.6 C 96 % 0.04 C
3772 25-12-2018 02:50:00 0.6 C 96 % 0.04 C
3773 25-12-2018 02:55:00 0.6 C 96 % 0.04 C
3774 25-12-2018 03:00:00 0.6 C 96 % 0.04 C
3775 25-12-2018 03:05:00 0.6 C 96 % 0.04 C
Sensor: Nr:Datum:Temp:Feuchte:Taupunkt:
Aussen-T/F 3776 25-12-2018 03:10:00 0.7 C 96 % 0.14 C
3777 25-12-2018 03:15:00 0.7 C 96 % 0.14 C
3778 25-12-2018 03:20:00 0.7 C 96 % 0.14 C
3779 25-12-2018 03:25:00 0.6 C 96 % 0.04 C
3780 25-12-2018 03:30:00 0.6 C 96 % 0.04 C
3781 25-12-2018 03:35:00 0.6 C 96 % 0.04 C
3782 25-12-2018 03:40:00 0.6 C 96 % 0.04 C
3783 25-12-2018 03:45:00 0.6 C 96 % 0.04 C
3784 25-12-2018 03:50:00 0.6 C 96 % 0.04 C
3785 25-12-2018 03:55:00 0.6 C 96 % 0.04 C
3786 25-12-2018 04:00:00 0.6 C 96 % 0.04 C
3787 25-12-2018 04:05:00 0.7 C 96 % 0.14 C
3788 25-12-2018 04:10:00 0.7 C 96 % 0.14 C
3789 25-12-2018 04:15:00 0.7 C 96 % 0.14 C
3790 25-12-2018 04:20:00 0.8 C 96 % 0.24 C
3791 25-12-2018 04:25:00 0.8 C 96 % 0.24 C
3792 25-12-2018 04:30:00 0.8 C 96 % 0.24 C
3793 25-12-2018 04:35:00 0.8 C 96 % 0.24 C
3794 25-12-2018 04:40:00 0.8 C 96 % 0.24 C
3795 25-12-2018 04:45:00 0.8 C 96 % 0.24 C
3796 25-12-2018 04:50:00 0.9 C 96 % 0.34 C
3797 25-12-2018 04:55:00 0.9 C 96 % 0.34 C
3798 25-12-2018 05:00:00 0.9 C 96 % 0.34 C
3799 25-12-2018 05:05:00 1 C 96 % 0.44 C
3800 25-12-2018 05:10:00 0.9 C 96 % 0.34 C
Sensor: Nr:Datum:Temp:Feuchte:Taupunkt:
Aussen-T/F 3801 25-12-2018 05:15:00 1 C 96 % 0.44 C
3802 25-12-2018 05:20:00 1 C 96 % 0.44 C
3803 25-12-2018 05:25:00 1 C 96 % 0.44 C
3804 25-12-2018 05:30:00 1 C 96 % 0.44 C
3805 25-12-2018 05:35:00 1 C 96 % 0.44 C
3806 25-12-2018 05:40:00 1 C 96 % 0.44 C
3807 25-12-2018 05:45:00 1.1 C 96 % 0.54 C
3808 25-12-2018 05:50:00 1.1 C 96 % 0.54 C
3809 25-12-2018 05:55:00 1.1 C 96 % 0.54 C
3810 25-12-2018 06:00:00 1.1 C 96 % 0.54 C
3811 25-12-2018 06:05:00 1.1 C 96 % 0.54 C
3812 25-12-2018 06:10:00 1.1 C 96 % 0.54 C
3813 25-12-2018 06:15:00 1.1 C 96 % 0.54 C
3814 25-12-2018 06:20:00 1.1 C 96 % 0.54 C
3815 25-12-2018 06:25:00 1.2 C 96 % 0.63 C
3816 25-12-2018 06:30:00 1.1 C 96 % 0.54 C
3817 25-12-2018 06:35:00 1.1 C 96 % 0.54 C
3818 25-12-2018 06:40:00 1.1 C 96 % 0.54 C
3819 25-12-2018 06:45:00 1.2 C 96 % 0.63 C
3820 25-12-2018 06:50:00 1.2 C 96 % 0.63 C
3821 25-12-2018 06:55:00 1.2 C 96 % 0.63 C
3822 25-12-2018 07:00:00 1.2 C 96 % 0.63 C
3823 25-12-2018 07:05:00 1.2 C 96 % 0.63 C
3824 25-12-2018 07:10:00 1.2 C 95 % 0.49 C
3825 25-12-2018 07:15:00 1.2 C 96 % 0.63 C
Sensor: Nr:Datum:Temp:Feuchte:Taupunkt:
Aussen-T/F 3826 25-12-2018 07:20:00 1.2 C 96 % 0.63 C
3827 25-12-2018 07:25:00 1.2 C 96 % 0.63 C
3828 25-12-2018 07:30:00 1.3 C 96 % 0.73 C
3829 25-12-2018 07:35:00 1.3 C 95 % 0.59 C
3830 25-12-2018 07:40:00 1.3 C 95 % 0.59 C
3831 25-12-2018 07:45:00 1.3 C 95 % 0.59 C
3832 25-12-2018 07:50:00 1.3 C 95 % 0.59 C
3833 25-12-2018 07:55:00 1.3 C 95 % 0.59 C
3834 25-12-2018 08:00:00 1.3 C 95 % 0.59 C
3835 25-12-2018 08:05:00 1.3 C 95 % 0.59 C
3836 25-12-2018 08:10:00 1.3 C 95 % 0.59 C
3837 25-12-2018 08:15:00 1.3 C 95 % 0.59 C
3838 25-12-2018 08:20:00 1.3 C 95 % 0.59 C
3839 25-12-2018 08:25:00 1.3 C 95 % 0.59 C
3840 25-12-2018 08:30:00 1.3 C 95 % 0.59 C
3841 25-12-2018 08:35:00 1.3 C 95 % 0.59 C
3842 25-12-2018 08:40:00 1.4 C 95 % 0.69 C
3843 25-12-2018 08:45:00 1.4 C 95 % 0.69 C
3844 25-12-2018 08:50:00 1.4 C 95 % 0.69 C
3845 25-12-2018 08:55:00 1.4 C 95 % 0.69 C
3846 25-12-2018 09:00:00 1.5 C 95 % 0.79 C
3847 25-12-2018 09:05:00 1.6 C 95 % 0.89 C
3848 25-12-2018 09:10:00 1.6 C 95 % 0.89 C
3849 25-12-2018 09:15:00 1.7 C 94 % 0.84 C
3850 25-12-2018 09:20:00 1.7 C 94 % 0.84 C
Sensor: Nr:Datum:Temp:Feuchte:Taupunkt:
Aussen-T/F 3851 25-12-2018 09:25:00 1.8 C 94 % 0.94 C
3852 25-12-2018 09:30:00 1.8 C 94 % 0.94 C
3853 25-12-2018 09:35:00 1.8 C 94 % 0.94 C
3854 25-12-2018 09:40:00 1.9 C 93 % 0.89 C
3855 25-12-2018 09:45:00 1.9 C 93 % 0.89 C
3856 25-12-2018 09:50:00 2 C 93 % 0.99 C
3857 25-12-2018 09:55:00 2.1 C 93 % 1.09 C
3858 25-12-2018 10:00:00 2.1 C 93 % 1.09 C
3859 25-12-2018 10:05:00 2.1 C 93 % 1.09 C
3860 25-12-2018 10:10:00 2.2 C 92 % 1.04 C
3861 25-12-2018 10:15:00 2.2 C 92 % 1.04 C
3862 25-12-2018 10:20:00 2.2 C 92 % 1.04 C
3863 25-12-2018 10:25:00 2.3 C 92 % 1.14 C
3864 25-12-2018 10:30:00 2.3 C 92 % 1.14 C
3865 25-12-2018 10:35:00 2.4 C 92 % 1.24 C
3866 25-12-2018 10:40:00 2.5 C 92 % 1.34 C
3867 25-12-2018 10:45:00 2.6 C 92 % 1.43 C
3868 25-12-2018 10:50:00 2.6 C 92 % 1.43 C
3869 25-12-2018 10:55:00 2.7 C 92 % 1.53 C
3870 25-12-2018 11:00:00 2.8 C 91 % 1.48 C
3871 25-12-2018 11:05:00 2.8 C 91 % 1.48 C
3872 25-12-2018 11:10:00 2.8 C 90 % 1.33 C
3873 25-12-2018 11:15:00 2.8 C 90 % 1.33 C
3874 25-12-2018 11:20:00 2.8 C 90 % 1.33 C
3875 25-12-2018 11:25:00 2.8 C 90 % 1.33 C
Sensor: Nr:Datum:Temp:Feuchte:Taupunkt:
Aussen-T/F 3876 25-12-2018 11:30:00 2.8 C 90 % 1.33 C
3877 25-12-2018 11:35:00 2.8 C 90 % 1.33 C
3878 25-12-2018 11:40:00 2.8 C 90 % 1.33 C
3879 25-12-2018 11:45:00 2.7 C 89 % 1.07 C
3880 25-12-2018 11:50:00 2.7 C 90 % 1.23 C
3881 25-12-2018 11:55:00 2.7 C 90 % 1.23 C
3882 25-12-2018 12:00:00 2.6 C 90 % 1.13 C
3883 25-12-2018 12:05:00 2.6 C 90 % 1.13 C
3884 25-12-2018 12:10:00 2.5 C 90 % 1.03 C
3885 25-12-2018 12:15:00 2.4 C 91 % 1.08 C
3886 25-12-2018 12:20:00 2.4 C 91 % 1.08 C
3887 25-12-2018 12:25:00 2.4 C 91 % 1.08 C
3888 25-12-2018 12:30:00 2.4 C 91 % 1.08 C
3889 25-12-2018 12:35:00 2.5 C 91 % 1.18 C
3890 25-12-2018 12:40:00 2.5 C 91 % 1.18 C
3891 25-12-2018 12:45:00 2.5 C 91 % 1.18 C
3892 25-12-2018 12:50:00 2.6 C 91 % 1.28 C
3893 25-12-2018 12:55:00 2.5 C 91 % 1.18 C
3894 25-12-2018 13:00:00 2.5 C 91 % 1.18 C
3895 25-12-2018 13:05:00 2.5 C 91 % 1.18 C
3896 25-12-2018 13:10:00 2.5 C 91 % 1.18 C
3897 25-12-2018 13:15:00 2.5 C 91 % 1.18 C
3898 25-12-2018 13:20:00 2.5 C 91 % 1.18 C